Provisional Data: Little Juniata River near Tipton, PA


Please select a monitoring station.
Please select start date.
Please select start date.

Toggle Unit: C/F Toggle Unit: C/F
Sample Time Temperature (C) Temperature (F) Specific Conductivity (mS/cm) pH   Turbidity (NTU+) DO (mg/L)
12/11/2021 12:00:00 AM 5.22 41.396 0.262 7.77 11.86 11.4
12/11/2021 12:15:00 AM 5.23 41.414 0.262 7.76 12.01 11.38
12/11/2021 12:30:00 AM 5.24 41.432 0.262 7.73 12.16 11.3
12/11/2021 12:45:00 AM 5.26 41.468 0.263 7.75 12.04 11.35
12/11/2021 1:00:00 AM 5.27 41.486 0.263 7.74 12.17 11.34
12/11/2021 1:15:00 AM 5.28 41.504 0.263 7.72 12.04 11.32
12/11/2021 1:30:00 AM 5.3 41.54 0.263 7.72 12.06 11.3
12/11/2021 1:45:00 AM 5.31 41.558 0.264 7.72 12.46 11.3
12/11/2021 2:00:00 AM 5.32 41.576 0.264 7.72 12.26 11.27
12/11/2021 2:15:00 AM 5.34 41.612 0.264 7.71 12.37 11.25
12/11/2021 2:30:00 AM 5.35 41.63 0.264 7.71 12.21 11.26
12/11/2021 2:45:00 AM 5.37 41.666 0.264 7.7 11.41 11.24
12/11/2021 3:00:00 AM 5.38 41.684 0.264 7.7 12.22 11.24
12/11/2021 3:15:00 AM 5.39 41.702 0.264 7.69 12.25 11.22
12/11/2021 3:30:00 AM 5.4 41.72 0.264 7.69 12.3 11.23
12/11/2021 3:45:00 AM 5.41 41.738 0.263 7.68 12.47 11.22
12/11/2021 4:00:00 AM 5.42 41.756 0.264 7.68 12.37 11.2
12/11/2021 4:15:00 AM 5.42 41.756 0.264 7.67 12.34 11.16
12/11/2021 4:30:00 AM 5.43 41.774 0.264 7.67 12.27 11.12
12/11/2021 4:45:00 AM 5.44 41.792 0.264 7.67 12.35 11.16
12/11/2021 5:00:00 AM 5.44 41.792 0.264 7.66 12.35 11.15
12/11/2021 5:15:00 AM 5.45 41.81 0.264 7.66 12.43 11.14
12/11/2021 5:30:00 AM 5.45 41.81 0.264 7.66 12.46 11.12
12/11/2021 5:45:00 AM 5.45 41.81 0.262 7.66 12.59 11.15
12/11/2021 6:00:00 AM 5.44 41.792 0.261 7.65 12.52 11.15
12/11/2021 6:15:00 AM 5.44 41.792 0.261 7.65 12.45 11.16
12/11/2021 6:30:00 AM 5.44 41.792 0.26 7.65 12.41 11.15
12/11/2021 6:45:00 AM 5.44 41.792 0.26 7.65 12.58 11.12
12/11/2021 7:00:00 AM 5.44 41.792 0.259 7.65 12.67 11.12
12/11/2021 7:15:00 AM 5.45 41.81 0.259 7.64 12.77 11.12
12/11/2021 7:30:00 AM 5.45 41.81 0.258 7.64 12.78 11.13
12/11/2021 7:45:00 AM 5.45 41.81 0.257 7.64 12.2 11.16
12/11/2021 8:00:00 AM 5.46 41.828 0.257 7.65 242.53 11.18
12/11/2021 8:15:00 AM 5.46 41.828 0.257 7.66 17.35 11.24
12/11/2021 8:30:00 AM 5.47 41.846 0.259 7.68 17.25 11.33
12/11/2021 8:45:00 AM 5.48 41.864 0.26 7.7 17.19 11.48
12/11/2021 9:00:00 AM 5.49 41.882 0.261 7.74 17.6 11.59
12/11/2021 9:15:00 AM 5.51 41.918 0.262 7.79 16.36 11.7
12/11/2021 9:30:00 AM 5.53 41.954 0.262 7.83 16.35 11.92
12/11/2021 9:45:00 AM 5.56 42.008 0.262 7.89 15.53 12.02
12/11/2021 10:00:00 AM 5.59 42.062 0.262 7.94 16.42 12.16
12/11/2021 10:15:00 AM 5.62 42.116 0.261 8.02 17.31 12.43
12/11/2021 10:30:00 AM 5.65 42.17 0.261 8.08 17.48 12.65
12/11/2021 10:45:00 AM 5.68 42.224 0.26 8.17 16.3 12.82
12/11/2021 11:00:00 AM 5.73 42.314 0.259 8.3 17.08 13.12
12/11/2021 11:15:00 AM 5.77 42.386 0.258 8.39 24.51 13.28
12/11/2021 11:30:00 AM 5.79 42.422 0.257 8.44 6.7 13.34
12/11/2021 11:45:00 AM 5.81 42.458 0.255 8.48 15.82 13.35
12/11/2021 12:00:00 PM 5.83 42.494 0.254 8.5 7.58 13.41
12/11/2021 12:15:00 PM 5.85 42.53 0.253 8.49 9.16 13.34
12/11/2021 12:30:00 PM 5.88 42.584 0.252 8.53 9.45 13.39
12/11/2021 12:45:00 PM 5.91 42.638 0.252 8.58 8.1 13.48
12/11/2021 1:00:00 PM 5.95 42.71 0.253 8.62 15.21 13.56
12/11/2021 1:15:00 PM 5.98 42.764 0.254 8.67 6.89 13.65
12/11/2021 1:30:00 PM 6.01 42.818 0.256 8.67 7.23 13.59
12/11/2021 1:45:00 PM 6.05 42.89 0.257 8.71 7.41 13.59
12/11/2021 2:00:00 PM 6.08 42.944 0.259 8.71 8.3 13.61
12/11/2021 2:15:00 PM 6.1 42.98 0.259 8.72 9.74 13.51
12/11/2021 2:30:00 PM 6.13 43.034 0.26 8.69 8.79 13.38
12/11/2021 2:45:00 PM 6.15 43.07 0.261 8.65 8.77 13.22
12/11/2021 3:00:00 PM 6.18 43.124 0.261 8.64 8.85 13.1
12/11/2021 3:15:00 PM 6.2 43.16 0.261 8.6 9.01 12.98
12/11/2021 3:30:00 PM 6.22 43.196 0.261 8.56 8.78 12.74
12/11/2021 3:45:00 PM 6.24 43.232 0.261 8.53 8.72 12.63
12/11/2021 4:00:00 PM 6.26 43.268 0.261 8.49 8.57 12.53
12/11/2021 4:15:00 PM 6.28 43.304 0.261 8.43 8.72 12.38
12/11/2021 4:30:00 PM 6.29 43.322 0.261 8.37 8.69 12.21
12/11/2021 4:45:00 PM 6.3 43.34 0.261 8.31 9.16 12.06
12/11/2021 5:00:00 PM 6.32 43.376 0.261 8.23 8.92 11.92
12/11/2021 5:15:00 PM 6.34 43.412 0.261 8.17 9.52 11.8
12/11/2021 5:30:00 PM 6.41 43.538 0.261 8.11 11399.21 11.64
12/11/2021 5:45:00 PM 6.48 43.664 0.261 8.08 4348.51 11.56
12/11/2021 6:00:00 PM 6.52 43.736 0.262 8.04 15608.22 11.49
12/11/2021 6:15:00 PM 6.54 43.772 0.264 8.01 5.4 11.41
12/11/2021 6:30:00 PM 6.54 43.772 0.266 7.97 8923.86 11.35
12/11/2021 6:45:00 PM 6.53 43.754 0.268 7.95 20.94 11.3
12/11/2021 7:00:00 PM 6.52 43.736 0.27 7.92 13.09 11.25
12/11/2021 7:15:00 PM 6.5 43.7 0.271 7.9 12.86 11.18
12/11/2021 7:30:00 PM 6.48 43.664 0.272 7.87 12.02 11.15
12/11/2021 7:45:00 PM 6.46 43.628 0.272 7.85 12.2 11.08
12/11/2021 8:00:00 PM 6.43 43.574 0.271 7.83 11.89 11.05
12/11/2021 8:15:00 PM 6.41 43.538 0.269 7.81 12.23 10.96
12/11/2021 8:30:00 PM 6.38 43.484 0.268 7.82 12 11
12/11/2021 8:45:00 PM 6.36 43.448 0.267 7.81 12 10.98
12/11/2021 9:00:00 PM 6.32 43.376 0.267 7.8 12.2 10.99
12/11/2021 9:15:00 PM 6.28 43.304 0.266 7.79 11.43 10.98
12/11/2021 9:30:00 PM 6.23 43.214 0.266 7.78 12.88 11.04
12/11/2021 9:45:00 PM 6.19 43.142 0.266 7.77 11.78 11.05
12/11/2021 10:00:00 PM 6.16 43.088 0.266 7.77 11.5 11.06
12/11/2021 10:15:00 PM 6.12 43.016 0.266 7.76 11.16 11.05
12/11/2021 10:30:00 PM 6.09 42.962 0.267 7.76 11.29 11.07
12/11/2021 10:45:00 PM 6.05 42.89 0.267 7.75 11.52 11.08
12/11/2021 11:00:00 PM 6.02 42.836 0.268 7.75 14.45 11.05
12/11/2021 11:15:00 PM 5.99 42.782 0.27 7.75 11.77 11.08
12/11/2021 11:30:00 PM 5.97 42.746 0.273 7.75 12.56 11.1
12/11/2021 11:45:00 PM 5.94 42.692 0.275 7.74 11.82 11.09
12/12/2021 12:00:00 AM 5.91 42.638 0.278 7.74 11.63 11.1
12/12/2021 12:15:00 AM 5.9 42.62 0.28 7.74 12.69 11.1
12/12/2021 12:30:00 AM 5.88 42.584 0.282 7.74 13.58 11.11
12/12/2021 12:45:00 AM 5.85 42.53 0.283 7.74 14.27 11.13
12/12/2021 1:00:00 AM 5.82 42.476 0.283 7.74 11.14 11.14
12/12/2021 1:15:00 AM 5.8 42.44 0.284 7.73 17.23 11.15
12/12/2021 1:30:00 AM 5.77 42.386 0.284 7.73 5.63 11.16
12/12/2021 1:45:00 AM 5.75 42.35 0.285 7.72 6.47 11.16
12/12/2021 2:00:00 AM 5.73 42.314 0.286 7.72 6.35 11.16
12/12/2021 2:15:00 AM 5.72 42.296 0.287 7.72 6.13 11.17
12/12/2021 2:30:00 AM 5.69 42.242 0.288 7.72 6.42 11.18
12/12/2021 2:45:00 AM 5.63 42.134 0.288 7.71 6.41 11.19
12/12/2021 3:00:00 AM 5.59 42.062 0.288 7.71 6.6 11.2
12/12/2021 3:15:00 AM 5.54 41.972 0.287 7.71 7.41 11.21
12/12/2021 3:30:00 AM 5.51 41.918 0.286 7.71 7.04 11.23
12/12/2021 3:45:00 AM 5.48 41.864 0.285 7.7 7.04 11.24
12/12/2021 4:00:00 AM 5.42 41.756 0.284 7.7 7.04 11.26
12/12/2021 4:15:00 AM 5.37 41.666 0.283 7.7 8.26 11.27
12/12/2021 4:30:00 AM 5.32 41.576 0.282 7.69 6.87 11.29
12/12/2021 4:45:00 AM 5.26 41.468 0.282 7.69 6.86 11.31
12/12/2021 5:00:00 AM 5.21 41.378 0.282 7.69 6.81 11.32
12/12/2021 5:15:00 AM 5.15 41.27 0.283 7.68 7.18 11.34
12/12/2021 5:30:00 AM 5.1 41.18 0.283 7.68 6.86 11.31
12/12/2021 5:45:00 AM 5.03 41.054 0.283 7.68 7.13 11.38
12/12/2021 6:00:00 AM 4.98 40.964 0.283 7.68 7.21 11.4
12/12/2021 6:15:00 AM 4.93 40.874 0.283 7.69 6.77 11.41
12/12/2021 6:30:00 AM 4.87 40.766 0.283 7.68 6.92 11.43
12/12/2021 6:45:00 AM 4.82 40.676 0.282 7.69 6.77 11.46
12/12/2021 7:00:00 AM 4.76 40.568 0.28 7.68 6.9 11.5
12/12/2021 7:15:00 AM 4.72 40.496 0.279 7.68 6.91 11.53
12/12/2021 7:30:00 AM 4.67 40.406 0.278 7.68 6.86 11.55
12/12/2021 7:45:00 AM 4.64 40.352 0.277 7.69 6.93 11.63
12/12/2021 8:00:00 AM 4.59 40.262 0.276 7.72 6.98 11.77
12/12/2021 8:15:00 AM 4.56 40.208 0.275 7.76 6.63 11.98
12/12/2021 8:30:00 AM 4.55 40.19 0.274 7.77 7.27 12.22
12/12/2021 8:45:00 AM 4.54 40.172 0.273 7.89 7.01 12.52
12/12/2021 9:00:00 AM 4.56 40.208 0.272 8 7.01 12.91
12/12/2021 9:15:00 AM 4.58 40.244 0.271 8.13 6.55 13.25
12/12/2021 9:30:00 AM 4.58 40.244 0.27 8.24 6.96 13.55
12/12/2021 9:45:00 AM 4.63 40.334 0.268 8.4 6.67 13.9
12/12/2021 10:00:00 AM 4.69 40.442 0.266 8.53 6.73 14.19
12/12/2021 10:15:00 AM 4.75 40.55 0.265 8.63 6.71 14.43
12/12/2021 10:30:00 AM 4.79 40.622 0.263 8.72 6.64 14.59
12/12/2021 10:45:00 AM 4.84 40.712 0.261 8.78 6.71 14.76
12/12/2021 11:00:00 AM 4.9 40.82 0.259 8.84 7.05 14.89
12/12/2021 11:15:00 AM 4.94 40.892 0.258 8.89 6.67 15.01
12/12/2021 11:30:00 AM 4.96 40.928 0.257 8.93 6.66 15.08
12/12/2021 11:45:00 AM 4.97 40.946 0.256 8.96 6.7 15.17
12/12/2021 12:00:00 PM 5 41 0.255 9 6.8 15.23
12/12/2021 12:15:00 PM 5.05 41.09 0.253 9.03 7.26 15.29
12/12/2021 12:30:00 PM 5.07 41.126 0.252 9.06 6.71 15.34
12/12/2021 12:45:00 PM 5.1 41.18 0.25 9.09 7.04 15.34
12/12/2021 1:00:00 PM 5.14 41.252 0.249 9.12 6.77 15.38
12/12/2021 1:15:00 PM 5.17 41.306 0.248 9.14 6.86 15.37
12/12/2021 1:30:00 PM 5.2 41.36 0.246 9.15 6.81 15.35
12/12/2021 1:45:00 PM 5.22 41.396 0.245 9.17 6.81 15.35
12/12/2021 2:00:00 PM 5.24 41.432 0.243 9.19 6.77 15.32
12/12/2021 2:15:00 PM 5.26 41.468 0.243 9.21 6.79 15.27
12/12/2021 2:30:00 PM 5.27 41.486 0.242 9.21 6.74 15.21
12/12/2021 2:45:00 PM 5.27 41.486 0.241 9.22 6.98 15.12
12/12/2021 3:00:00 PM 5.25 41.45 0.241 9.22 6.88 15.03
12/12/2021 3:15:00 PM 5.22 41.396 0.24 9.21 6.96 14.9
12/12/2021 3:30:00 PM 5.18 41.324 0.24 9.19 6.69 14.75
12/12/2021 3:45:00 PM 5.14 41.252 0.24 9.17 6.89 14.58
12/12/2021 4:00:00 PM 5.1 41.18 0.24 9.15 6.68 14.42
12/12/2021 4:15:00 PM 5.07 41.126 0.24 9.11 7.36 14.22
12/12/2021 4:30:00 PM 5.03 41.054 0.24 9.07 6.69 14.01
12/12/2021 4:45:00 PM 4.98 40.964 0.241 9.01 7.65 13.76
12/12/2021 5:00:00 PM 4.94 40.892 0.242 8.95 7.28 13.52
12/12/2021 5:15:00 PM 4.88 40.784 0.241 8.89 7.34 13.28
12/12/2021 5:30:00 PM 4.83 40.694 0.242 8.81 7.03 13.09
12/12/2021 5:45:00 PM 4.78 40.604 0.242 8.75 6.88 12.96
12/12/2021 6:00:00 PM 4.72 40.496 0.243 8.69 6.6 12.84
12/12/2021 6:15:00 PM 4.67 40.406 0.244 8.63 6.81 12.74
12/12/2021 6:30:00 PM 4.62 40.316 0.244 8.56 7.4 12.62
12/12/2021 6:45:00 PM 4.56 40.208 0.244 8.5 7.31 12.59
12/12/2021 7:00:00 PM 4.51 40.118 0.244 8.43 7.09 12.44
12/12/2021 7:15:00 PM 4.45 40.01 0.244 8.36 7.38 12.4
12/12/2021 7:30:00 PM 4.39 39.902 0.244 8.29 7.24 12.4
12/12/2021 7:45:00 PM 4.33 39.794 0.245 8.22 7.41 12.36
12/12/2021 8:00:00 PM 4.27 39.686 0.245 8.16 7.27 12.3
12/12/2021 8:15:00 PM 4.21 39.578 0.245 8.1 7.26 12.26
12/12/2021 8:30:00 PM 4.16 39.488 0.245 8.05 7.01 12.2
12/12/2021 8:45:00 PM 4.11 39.398 0.246 7.99 7.43 12.15
12/12/2021 9:00:00 PM 4.07 39.326 0.246 7.94 7.17 12.17
12/12/2021 9:15:00 PM 4.03 39.254 0.247 7.9 7.58 12.14
12/12/2021 9:30:00 PM 3.99 39.182 0.247 7.88 7.19 12.13
12/12/2021 9:45:00 PM 3.95 39.11 0.247 7.85 7.1 12.13
12/12/2021 10:00:00 PM 3.92 39.056 0.247 7.83 6.89 12.11
12/12/2021 10:15:00 PM 3.9 39.02 0.248 7.82 7.17 12.1
12/12/2021 10:30:00 PM 3.87 38.966 0.248 7.8 7.4 12.09
12/12/2021 10:45:00 PM 3.86 38.948 0.249 7.79 6.95 12.08
12/12/2021 11:00:00 PM 3.83 38.894 0.249 7.77 7.37 12.08
12/12/2021 11:15:00 PM 3.81 38.858 0.25 7.76 6.87 12.03
12/12/2021 11:30:00 PM 3.79 38.822 0.25 7.75 7.24 12.07
12/12/2021 11:45:00 PM 3.77 38.786 0.25 7.73 7.32 11.98
12/13/2021 12:00:00 AM 3.75 38.75 0.251 7.75 7.24 12.07
12/13/2021 12:15:00 AM 3.73 38.714 0.25 7.73 7.59 12.07
12/13/2021 12:30:00 AM 3.72 38.696 0.25 7.72 7.67 12.06
12/13/2021 12:45:00 AM 3.69 38.642 0.25 7.72 8.64 12.08
12/13/2021 1:00:00 AM 3.67 38.606 0.25 7.71 6.99 12.08
12/13/2021 1:15:00 AM 3.65 38.57 0.25 7.71 7.22 12.07
12/13/2021 1:30:00 AM 3.63 38.534 0.251 7.7 6.75 12.07
12/13/2021 1:45:00 AM 3.6 38.48 0.251 7.69 6.91 12.08
12/13/2021 2:00:00 AM 3.58 38.444 0.252 7.7 6.64 12.09
12/13/2021 2:15:00 AM 3.57 38.426 0.252 7.69 6.92 12.08
12/13/2021 2:30:00 AM 3.55 38.39 0.253 7.69 6.76 12.09
12/13/2021 2:45:00 AM 3.54 38.372 0.253 7.69 6.82 12.11
12/13/2021 3:00:00 AM 3.52 38.336 0.253 7.68 7.17 12.11
12/13/2021 3:15:00 AM 3.52 38.336 0.253 7.68 7.39 12.11
12/13/2021 3:30:00 AM 3.52 38.336 0.253 7.68 6.15 12.08
12/13/2021 3:45:00 AM 3.52 38.336 0.253 7.67 7.18 12.05
12/13/2021 4:00:00 AM 3.51 38.318 0.254 7.67 7.29 12.03
12/13/2021 4:15:00 AM 3.49 38.282 0.254 7.67 7.41 12.11
12/13/2021 4:30:00 AM 3.48 38.264 0.254 7.66 7.19 12.13
12/13/2021 4:45:00 AM 3.48 38.264 0.255 7.66 7.35 12.13
12/13/2021 5:00:00 AM 3.47 38.246 0.256 7.66 7.35 12.14
12/13/2021 5:15:00 AM 3.46 38.228 0.256 7.64 7.29 12.14
12/13/2021 5:30:00 AM 3.44 38.192 0.256 7.66 7.22 12.1
12/13/2021 5:45:00 AM 3.41 38.138 0.257 7.66 7.14 12.16
12/13/2021 6:00:00 AM 3.38 38.084 0.257 7.65 7.51 12.12
12/13/2021 6:15:00 AM 3.36 38.048 0.257 7.65 7.38 12.17
12/13/2021 6:30:00 AM 3.34 38.012 0.257 7.65 7.29 12.16
12/13/2021 6:45:00 AM 3.32 37.976 0.257 7.64 7.43 12.18
12/13/2021 7:00:00 AM 3.29 37.922 0.257 7.65 7.17 12.18
12/13/2021 7:15:00 AM 3.27 37.886 0.257 7.63 7.19 12.19
12/13/2021 7:30:00 AM 3.25 37.85 0.257 7.65 7.17 12.22
12/13/2021 7:45:00 AM 3.23 37.814 0.257 7.66 7.37 12.3
12/13/2021 8:00:00 AM 3.21 37.778 0.257 7.68 7.03 12.41
12/13/2021 8:15:00 AM 3.19 37.742 0.257 7.7 8.02 12.57
12/13/2021 8:30:00 AM 3.17 37.706 0.257 7.75 6.89 12.74
12/13/2021 8:45:00 AM 3.17 37.706 0.257 7.8 7.26 12.97
12/13/2021 9:00:00 AM 3.19 37.742 0.257 7.87 7 13.21
12/13/2021 9:15:00 AM 3.23 37.814 0.256 7.96 7.04 13.5
12/13/2021 9:30:00 AM 3.27 37.886 0.256 8.06 7.32 13.77
12/13/2021 9:45:00 AM 3.34 38.012 0.255 8.18 7.49 14.04
12/13/2021 10:00:00 AM 3.45 38.21 0.254 8.33 7.59 14.37
12/13/2021 10:15:00 AM 3.54 38.372 0.253 8.45 7.57 14.66
12/13/2021 10:30:00 AM 3.64 38.552 0.252 8.56 7.48 14.88
12/13/2021 10:45:00 AM 3.75 38.75 0.251 8.66 8.06 15.08
12/13/2021 11:00:00 AM 3.86 38.948 0.25 8.74 6.89 15.26
12/13/2021 11:15:00 AM 3.96 39.128 0.25 8.8 8.55 15.39
12/13/2021 11:30:00 AM 4.04 39.272 0.249 8.86 6.94 15.51
12/13/2021 11:45:00 AM 4.1 39.38 0.249 8.91 7.16 15.58
12/13/2021 12:00:00 PM 4.17 39.506 0.249 8.95 7.48 15.64
12/13/2021 12:15:00 PM 4.25 39.65 0.248 8.99 7.53 15.64
12/13/2021 12:30:00 PM 4.32 39.776 0.248 9.01 6.62 15.71
12/13/2021 12:45:00 PM 4.37 39.866 0.248 9.04 6.72 15.74
12/13/2021 1:00:00 PM 4.44 39.992 0.248 9.06 6.95 15.73
12/13/2021 1:15:00 PM 4.5 40.1 0.248 9.09 6.71 15.74
12/13/2021 1:30:00 PM 4.56 40.208 0.248 9.11 6.63 15.73
12/13/2021 1:45:00 PM 4.61 40.298 0.249 9.13 6.88 15.72
12/13/2021 2:00:00 PM 4.67 40.406 0.248 9.15 7.13 15.67
12/13/2021 2:15:00 PM 4.73 40.514 0.248 9.17 7.35 15.6
12/13/2021 2:30:00 PM 4.77 40.586 0.248 9.18 7.09 15.49
12/13/2021 2:45:00 PM 4.79 40.622 0.248 9.19 7.29 15.46
12/13/2021 3:00:00 PM 4.8 40.64 0.247 9.19 7.7 15.35
12/13/2021 3:15:00 PM 4.8 40.64 0.247 9.18 7.38 15.21
12/13/2021 3:30:00 PM 4.79 40.622 0.247 9.17 7.33 15.05
12/13/2021 3:45:00 PM 4.77 40.586 0.246 9.15 7.35 14.87
12/13/2021 4:00:00 PM 4.75 40.55 0.246 9.13 7.56 14.68
12/13/2021 4:15:00 PM 4.74 40.532 0.246 9.09 7.24 14.47
12/13/2021 4:30:00 PM 4.72 40.496 0.246 9.05 7.53 14.23
12/13/2021 4:45:00 PM 4.69 40.442 0.247 8.99 7.86 13.93
12/13/2021 5:00:00 PM 4.67 40.406 0.247 8.94 7.36 13.66
12/13/2021 5:15:00 PM 4.64 40.352 0.247 8.87 7.39 13.39
12/13/2021 5:30:00 PM 4.6 40.28 0.248 8.8 7.54 13.21
12/13/2021 5:45:00 PM 4.57 40.226 0.248 8.73 7.3 13.06
12/13/2021 6:00:00 PM 4.53 40.154 0.248 8.67 7.45 12.93
12/13/2021 6:15:00 PM 4.48 40.064 0.248 8.6 7.48 12.81
12/13/2021 6:30:00 PM 4.43 39.974 0.248 8.54 7.47 12.76
12/13/2021 6:45:00 PM 4.39 39.902 0.249 8.48 7.51 12.67
12/13/2021 7:00:00 PM 4.34 39.812 0.249 8.41 9 12.61
12/13/2021 7:15:00 PM 4.3 39.74 0.249 8.35 7.48 12.52
12/13/2021 7:30:00 PM 4.27 39.686 0.249 8.29 8.09 12.49
12/13/2021 7:45:00 PM 4.23 39.614 0.25 8.23 7.52 12.43
12/13/2021 8:00:00 PM 4.2 39.56 0.25 8.16 7.59 12.39
12/13/2021 8:15:00 PM 4.17 39.506 0.249 8.1 7.59 12.34
12/13/2021 8:30:00 PM 4.14 39.452 0.249 8.05 7.48 12.3
12/13/2021 8:45:00 PM 4.11 39.398 0.249 8 9.88 12.26
12/13/2021 9:00:00 PM 4.08 39.344 0.249 7.95 7.52 12.23
12/13/2021 9:15:00 PM 4.06 39.308 0.248 7.91 7.48 12.19
12/13/2021 9:30:00 PM 4.03 39.254 0.248 7.88 7.31 12.17
12/13/2021 9:45:00 PM 4 39.2 0.247 7.84 7.34 12.14
12/13/2021 10:00:00 PM 3.97 39.146 0.247 7.82 7.48 12.13
12/13/2021 10:15:00 PM 3.95 39.11 0.247 7.81 7.17 12.11
12/13/2021 10:30:00 PM 3.93 39.074 0.246 7.79 7.79 12.1
12/13/2021 10:45:00 PM 3.91 39.038 0.246 7.77 7.66 12.09
12/13/2021 11:00:00 PM 3.9 39.02 0.246 7.76 7.35 12.08
12/13/2021 11:15:00 PM 3.88 38.984 0.246 7.75 7.43 12.07
12/13/2021 11:30:00 PM 3.87 38.966 0.246 7.74 7.56 12.03
12/13/2021 11:45:00 PM 3.86 38.948 0.246 7.68 17.73 12.03
12/14/2021 12:00:00 AM 3.85 38.93 0.246 7.72 10.8 11.99
12/14/2021 12:15:00 AM 3.85 38.93 0.247 7.72 10.59 11.96
12/14/2021 12:30:00 AM 3.84 38.912 0.247 7.71 10.43 11.98
12/14/2021 12:45:00 AM 3.84 38.912 0.248 7.7 10.15 12.01
12/14/2021 1:00:00 AM 3.83 38.894 0.248 7.7 9.99 12.03
12/14/2021 1:15:00 AM 3.83 38.894 0.249 7.69 10.16 12.02
12/14/2021 1:30:00 AM 3.82 38.876 0.25 7.69 10.16 12.03
12/14/2021 1:45:00 AM 3.82 38.876 0.25 7.68 9.88 12.03
12/14/2021 2:00:00 AM 3.81 38.858 0.251 7.68 9.92 12.01
12/14/2021 2:15:00 AM 3.81 38.858 0.251 7.67 9.7 11.96
12/14/2021 2:30:00 AM 3.8 38.84 0.252 7.66 9.81 12.02
12/14/2021 2:45:00 AM 3.8 38.84 0.253 7.67 10.28 11.98
12/14/2021 3:00:00 AM 3.79 38.822 0.254 7.67 9.81 12.02
12/14/2021 3:15:00 AM 3.78 38.804 0.254 7.64 9.71 11.96
12/14/2021 3:30:00 AM 3.77 38.786 0.255 7.66 10.86 11.99
12/14/2021 3:45:00 AM 3.76 38.768 0.255 7.66 9.95 11.98
12/14/2021 4:00:00 AM 3.75 38.75 0.256 7.65 9.7 12.01
12/14/2021 4:15:00 AM 3.74 38.732 0.256 7.65 9.97 11.99
12/14/2021 4:30:00 AM 3.72 38.696 0.257 7.65 9.75 11.86
12/14/2021 4:45:00 AM 3.72 38.696 0.257 7.65 9.38 11.92
12/14/2021 5:00:00 AM 3.71 38.678 0.257 7.64 9.53 12.02
12/14/2021 5:15:00 AM 3.7 38.66 0.258 7.64 9.66 12.03
12/14/2021 5:30:00 AM 3.68 38.624 0.258 7.64 9.48 12.04
12/14/2021 5:45:00 AM 3.65 38.57 0.258 7.64 9.37 12
12/14/2021 6:00:00 AM 3.62 38.516 0.258 7.63 10.15 12.07
12/14/2021 6:15:00 AM 3.59 38.462 0.258 7.63 10.09 12.07
12/14/2021 6:30:00 AM 3.55 38.39 0.258 7.64 9.53 12.01
12/14/2021 6:45:00 AM 3.52 38.336 0.258 7.63 9.06 12.05
12/14/2021 7:00:00 AM 3.48 38.264 0.259 7.63 8.38 12.03
12/14/2021 7:15:00 AM 3.44 38.192 0.259 7.63 8.77 12.08
12/14/2021 7:30:00 AM 3.41 38.138 0.259 7.63 8.09 12.11
12/14/2021 7:45:00 AM 3.37 38.066 0.259 7.64 8.73 12.17
12/14/2021 8:00:00 AM 3.35 38.03 0.259 7.66 8.14 12.31
12/14/2021 8:15:00 AM 3.32 37.976 0.258 7.7 8.6 12.53
12/14/2021 8:30:00 AM 3.29 37.922 0.257 7.74 8.05 12.71
12/14/2021 8:45:00 AM 3.27 37.886 0.255 7.78 8.62 12.98
12/14/2021 9:00:00 AM 3.27 37.886 0.254 7.86 7.96 13.26
12/14/2021 9:15:00 AM 3.28 37.904 0.253 7.94 8.26 13.55
12/14/2021 9:30:00 AM 3.31 37.958 0.251 8.07 8.32 13.85
12/14/2021 9:45:00 AM 3.36 38.048 0.25 8.19 8.36 14.16
12/14/2021 10:00:00 AM 3.45 38.21 0.249 8.34 8.57 14.5
12/14/2021 10:15:00 AM 3.54 38.372 0.248 8.47 8.85 14.79
12/14/2021 10:30:00 AM 3.65 38.57 0.248 8.58 8.57 15.03
12/14/2021 10:45:00 AM 3.76 38.768 0.248 8.68 8.61 15.21
12/14/2021 11:00:00 AM 3.88 38.984 0.248 8.75 8.22 15.4
12/14/2021 11:15:00 AM 3.99 39.182 0.248 8.83 8.61 15.56
12/14/2021 11:30:00 AM 4.09 39.362 0.248 8.89 8.69 15.65
12/14/2021 11:45:00 AM 4.17 39.506 0.249 8.93 8.67 15.76
12/14/2021 12:00:00 PM 4.25 39.65 0.249 8.98 8.52 15.79
12/14/2021 12:15:00 PM 4.35 39.83 0.25 9.02 8.22 15.89
12/14/2021 12:30:00 PM 4.43 39.974 0.25 9.05 8.31 15.9
12/14/2021 12:45:00 PM 4.5 40.1 0.25 9.08 8.23 15.92
12/14/2021 1:00:00 PM 4.57 40.226 0.251 9.1 8.53 15.91
12/14/2021 1:15:00 PM 4.64 40.352 0.251 9.13 8.22 15.91
12/14/2021 1:30:00 PM 4.72 40.496 0.251 9.16 8.53 15.86
12/14/2021 1:45:00 PM 4.77 40.586 0.251 9.17 8.42 15.85
12/14/2021 2:00:00 PM 4.83 40.694 0.251 9.19 8.33 15.77
12/14/2021 2:15:00 PM 4.89 40.802 0.251 9.21 8.21 15.72
12/14/2021 2:30:00 PM 4.94 40.892 0.251 9.22 8.18 15.67
12/14/2021 2:45:00 PM 4.97 40.946 0.252 9.22 8.21 15.56
12/14/2021 3:00:00 PM 5 41 0.252 9.23 7.8 15.46
12/14/2021 3:15:00 PM 5.01 41.018 0.252 9.23 7.81 15.33
12/14/2021 3:30:00 PM 5.01 41.018 0.252 9.22 8.51 15.14
12/14/2021 3:45:00 PM 5.01 41.018 0.252 9.2 8.42 14.99
12/14/2021 4:00:00 PM 4.99 40.982 0.252 9.18 8.36 14.87
12/14/2021 4:15:00 PM 4.98 40.964 0.252 9.15 8.48 14.56
12/14/2021 4:30:00 PM 4.97 40.946 0.252 9.12 8.4 14.34
12/14/2021 4:45:00 PM 4.94 40.892 0.252 9.06 8.51 14.08
12/14/2021 5:00:00 PM 4.92 40.856 0.253 9.01 8.56 13.82
12/14/2021 5:15:00 PM 4.88 40.784 0.253 8.93 8.49 13.56
12/14/2021 5:30:00 PM 4.84 40.712 0.254 8.87 8.17 13.27
12/14/2021 5:45:00 PM 4.8 40.64 0.254 8.81 8.62 13.13
12/14/2021 6:00:00 PM 4.75 40.55 0.255 8.74 8.85 12.98
12/14/2021 6:15:00 PM 4.71 40.478 0.255 8.67 8.71 12.88
12/14/2021 6:30:00 PM 4.65 40.37 0.256 8.62 9.69 12.78
12/14/2021 6:45:00 PM 4.6 40.28 0.256 8.55 8.52 12.7
12/14/2021 7:00:00 PM 4.55 40.19 0.256 8.5 8.42 12.63
12/14/2021 7:15:00 PM 4.49 40.082 0.256 8.43 7.66 12.59
12/14/2021 7:30:00 PM 4.43 39.974 0.256 8.37 8.8 12.53
12/14/2021 7:45:00 PM 4.38 39.884 0.257 8.3 9.08 12.47
12/14/2021 8:00:00 PM 4.33 39.794 0.257 8.24 8.22 12.42
12/14/2021 8:15:00 PM 4.27 39.686 0.257 8.16 8.24 12.39
12/14/2021 8:30:00 PM 4.22 39.596 0.258 8.1 8.3 12.32
12/14/2021 8:45:00 PM 4.17 39.506 0.258 8.04 8.28 12.27
12/14/2021 9:00:00 PM 4.12 39.416 0.258 8 8.43 12.27
12/14/2021 9:15:00 PM 4.08 39.344 0.258 7.96 8.33 12.25
12/14/2021 9:30:00 PM 4.03 39.254 0.258 7.92 8.61 12.21
12/14/2021 9:45:00 PM 4 39.2 0.258 7.89 8.41 12.11
12/14/2021 10:00:00 PM 3.95 39.11 0.258 7.86 8.59 12.13
12/14/2021 10:15:00 PM 3.91 39.038 0.258 7.83 8.56 12.06
12/14/2021 10:30:00 PM 3.87 38.966 0.258 7.81 8.23 12.1
12/14/2021 10:45:00 PM 3.83 38.894 0.258 7.79 8.33 12.15
12/14/2021 11:00:00 PM 3.79 38.822 0.258 7.77 8.16 12.12
12/14/2021 11:15:00 PM 3.75 38.75 0.258 7.76 8.18 12.15
12/14/2021 11:30:00 PM 3.72 38.696 0.258 7.73 8.87 12.14
12/14/2021 11:45:00 PM 3.68 38.624 0.258 7.73 9.51 12.15
12/15/2021 12:00:00 AM 3.65 38.57 0.258 7.72 9 12.13
12/15/2021 12:15:00 AM 3.62 38.516 0.258 7.71 9.05 12.14
12/15/2021 12:30:00 AM 3.59 38.462 0.257 7.71 9.21 12.12
12/15/2021 12:45:00 AM 3.55 38.39 0.257 7.7 8.52 12.14
12/15/2021 1:00:00 AM 3.52 38.336 0.257 7.69 8.93 12.12
12/15/2021 1:15:00 AM 3.5 38.3 0.258 7.69 8.59 12.13
12/15/2021 1:30:00 AM 3.47 38.246 0.258 7.68 4.73 12.19
12/15/2021 1:45:00 AM 3.44 38.192 0.258 7.68 13.03 12.18
12/15/2021 2:00:00 AM 3.42 38.156 0.258 7.67 14.59 12.17
12/15/2021 2:15:00 AM 3.4 38.12 0.258 7.67 15.42 12.15
12/15/2021 2:30:00 AM 3.39 38.102 0.258 7.67 15.65 12.2
12/15/2021 2:45:00 AM 3.38 38.084 0.258 7.66 15.04 12.21
12/15/2021 3:00:00 AM 3.37 38.066 0.258 7.66 13.21 12.22
12/15/2021 3:15:00 AM 3.35 38.03 0.258 7.66 13.81 12.21
12/15/2021 3:30:00 AM 3.31 37.958 0.259 7.65 13.42 12.19
12/15/2021 3:45:00 AM 3.28 37.904 0.259 7.65 12.88 12.22
12/15/2021 4:00:00 AM 3.25 37.85 0.26 7.63 12.98 12.22
12/15/2021 4:15:00 AM 3.22 37.796 0.26 7.63 12.93 12.24
12/15/2021 4:30:00 AM 3.21 37.778 0.26 7.65 12.52 12.24
12/15/2021 4:45:00 AM 3.18 37.724 0.26 7.64 12.39 12.24
12/15/2021 5:00:00 AM 3.15 37.67 0.26 7.63 13.49 12.22
12/15/2021 5:15:00 AM 3.13 37.634 0.26 7.63 11.88 12.24
12/15/2021 5:30:00 AM 3.09 37.562 0.26 7.64 11.64 12.23
12/15/2021 5:45:00 AM 3.06 37.508 0.26 7.59 11.82 12.29
12/15/2021 6:00:00 AM 3.02 37.436 0.26 7.63 11.51 12.3
12/15/2021 6:15:00 AM 3 37.4 0.261 7.61 12.45 12.31
12/15/2021 6:30:00 AM 2.97 37.346 0.261 7.63 11.94 12.32
12/15/2021 6:45:00 AM 2.93 37.274 0.261 7.62 13.14 12.3
12/15/2021 7:00:00 AM 2.9 37.22 0.261 7.62 12.36 12.35
12/15/2021 7:15:00 AM 2.87 37.166 0.262 7.61 13.11 12.37
12/15/2021 7:30:00 AM 2.86 37.148 0.262 7.63 12.55 12.41
12/15/2021 7:45:00 AM 2.84 37.112 0.262 7.62 12.23 12.42
12/15/2021 8:00:00 AM 2.82 37.076 0.262 7.66 11.61 12.57
12/15/2021 8:15:00 AM 2.83 37.094 0.261 7.71 11.16 12.85
12/15/2021 8:30:00 AM 2.86 37.148 0.261 7.79 11.48 13.18
12/15/2021 8:45:00 AM 2.9 37.22 0.261 7.89 11.54 13.63
12/15/2021 9:00:00 AM 2.92 37.256 0.261 7.99 11.73 13.93
12/15/2021 9:15:00 AM 2.98 37.364 0.261 8.15 12.21 14.34
12/15/2021 9:30:00 AM 3.06 37.508 0.261 8.32 12.14 14.74
12/15/2021 9:45:00 AM 3.12 37.616 0.261 8.46 12.3 14.95
12/15/2021 10:00:00 AM 3.21 37.778 0.26 8.59 11.96 15.23
12/15/2021 10:15:00 AM 3.29 37.922 0.26 8.69 12.28 15.56
12/15/2021 10:30:00 AM 3.38 38.084 0.26 8.78 12.07 15.76
12/15/2021 10:45:00 AM 3.47 38.246 0.259 8.85 11.98 15.9
12/15/2021 11:00:00 AM 3.56 38.408 0.258 8.91 11.94 16.01
12/15/2021 11:15:00 AM 3.68 38.624 0.258 8.97 11.61 16.11
12/15/2021 11:30:00 AM 3.78 38.804 0.257 9.02 12.1 16.25
12/15/2021 11:45:00 AM 3.87 38.966 0.257 9.07 11.96 16.37
12/15/2021 12:00:00 PM 3.95 39.11 0.256 9.11 11.93 16.39
12/15/2021 12:15:00 PM 4.03 39.254 0.256 9.14 11.48 16.43
12/15/2021 12:30:00 PM 4.11 39.398 0.256 9.18 12.02 16.42
12/15/2021 12:45:00 PM 4.18 39.524 0.255 9.2 11.11 16.51
12/15/2021 1:00:00 PM 4.22 39.596 0.255 9.2 11.15 16.37
12/15/2021 1:15:00 PM 4.25 39.65 0.254 9.21 10.97 16.25
12/15/2021 1:30:00 PM 4.28 39.704 0.254 9.22 10.86 16.16
12/15/2021 1:45:00 PM 4.32 39.776 0.254 9.23 10.52 16.07
12/15/2021 2:00:00 PM 4.36 39.848 0.254 9.22 11.15 15.9
12/15/2021 2:15:00 PM 4.38 39.884 0.254 9.21 11.22 15.72
12/15/2021 2:30:00 PM 4.42 39.956 0.254 9.2 11.97 15.53
12/15/2021 2:45:00 PM 4.45 40.01 0.254 9.19 11.19 15.36
12/15/2021 3:00:00 PM 4.49 40.082 0.254 9.19 11.36 15.25
12/15/2021 3:15:00 PM 4.53 40.154 0.254 9.18 11.33 15.11
12/15/2021 3:30:00 PM 4.57 40.226 0.254 9.18 11.07 14.98
12/15/2021 3:45:00 PM 4.61 40.298 0.254 9.15 11.41 14.75
12/15/2021 4:00:00 PM 4.64 40.352 0.254 9.13 11.18 14.51
12/15/2021 4:15:00 PM 4.66 40.388 0.254 9.09 11.38 14.21
12/15/2021 4:30:00 PM 4.69 40.442 0.255 9.04 10.78 13.94
12/15/2021 4:45:00 PM 4.71 40.478 0.254 8.98 11.23 13.66
12/15/2021 5:00:00 PM 4.73 40.514 0.254 8.93 10.81 13.44
12/15/2021 5:15:00 PM 4.75 40.55 0.255 8.88 11.35 13.21
12/15/2021 5:30:00 PM 4.77 40.586 0.255 8.82 10.7 13.04
12/15/2021 5:45:00 PM 4.79 40.622 0.256 8.76 11.42 12.88
12/15/2021 6:00:00 PM 4.81 40.658 0.256 8.7 11.06 12.75
12/15/2021 6:15:00 PM 4.82 40.676 0.256 8.63 11.48 12.62
12/15/2021 6:30:00 PM 4.83 40.694 0.256 8.57 11.21 12.51
12/15/2021 6:45:00 PM 4.83 40.694 0.256 8.51 10.8 12.45
12/15/2021 7:00:00 PM 4.83 40.694 0.257 8.43 11.03 12.34
12/15/2021 7:15:00 PM 4.83 40.694 0.257 8.37 11.04 12.31
12/15/2021 7:30:00 PM 4.83 40.694 0.257 8.3 10.81 12.24
12/15/2021 7:45:00 PM 4.81 40.658 0.257 8.23 10.67 12.16
12/15/2021 8:00:00 PM 4.79 40.622 0.257 8.15 10.44 12.1
12/15/2021 8:15:00 PM 4.77 40.586 0.257 8.09 10.87 12.05
12/15/2021 8:30:00 PM 4.77 40.586 0.258 8.04 10.62 11.98
12/15/2021 8:45:00 PM 4.78 40.604 0.257 8 10.83 11.91
12/15/2021 9:00:00 PM 4.79 40.622 0.257 7.95 10.71 11.9
12/15/2021 9:15:00 PM 4.81 40.658 0.257 7.92 10.68 11.88
12/15/2021 9:30:00 PM 4.82 40.676 0.256 7.89 11.6 11.84
12/15/2021 9:45:00 PM 4.83 40.694 0.256 7.86 10.91 11.82
12/15/2021 10:00:00 PM 4.84 40.712 0.256 7.84 10.72 11.78
12/15/2021 10:15:00 PM 4.84 40.712 0.256 7.82 10.23 11.75
12/15/2021 10:30:00 PM 4.84 40.712 0.255 7.8 10.89 11.73
12/15/2021 10:45:00 PM 4.83 40.694 0.255 7.77 10.8 11.71
12/15/2021 11:00:00 PM 4.83 40.694 0.256 7.75 10.49 11.68
12/15/2021 11:15:00 PM 4.84 40.712 0.256 7.75 10.36 11.67
12/15/2021 11:30:00 PM 4.85 40.73 0.256 7.74 11.13 11.66
12/15/2021 11:45:00 PM 4.86 40.748 0.256 7.73 14.07 11.64
12/16/2021 12:00:00 AM 4.87 40.766 0.256 7.72 12.57 11.6
12/16/2021 12:15:00 AM 4.88 40.784 0.256 7.71 11.85 11.61
12/16/2021 12:30:00 AM 4.89 40.802 0.257 7.71 13.86 11.59
12/16/2021 12:45:00 AM 4.91 40.838 0.257 7.7 11.33 11.58
12/16/2021 1:00:00 AM 4.93 40.874 0.258 7.69 11.46 11.56
12/16/2021 1:15:00 AM 4.94 40.892 0.258 7.69 11.49 11.54
12/16/2021 1:30:00 AM 4.95 40.91 0.259 7.67 11 11.46
12/16/2021 1:45:00 AM 4.95 40.91 0.259 7.68 11.07 11.45
12/16/2021 2:00:00 AM 4.96 40.928 0.26 7.68 11.37 11.51
12/16/2021 2:15:00 AM 4.96 40.928 0.26 7.67 12.32 11.5
12/16/2021 2:30:00 AM 4.98 40.964 0.26 7.67 10.62 11.49
12/16/2021 2:45:00 AM 4.98 40.964 0.261 7.67 10.22 11.48
12/16/2021 3:00:00 AM 4.99 40.982 0.261 7.66 12 11.46
12/16/2021 3:15:00 AM 4.99 40.982 0.261 7.65 12.43 11.4
12/16/2021 3:30:00 AM 4.98 40.964 0.261 7.65 11.06 11.41
12/16/2021 3:45:00 AM 4.97 40.946 0.262 7.65 10.49 11.41
12/16/2021 4:00:00 AM 4.95 40.91 0.262 7.65 10.24 11.41
12/16/2021 4:15:00 AM 4.94 40.892 0.263 7.64 10.18 11.41
12/16/2021 4:30:00 AM 4.94 40.892 0.263 7.63 10.55 11.43
12/16/2021 4:45:00 AM 4.93 40.874 0.263 7.63 10.1 11.43
12/16/2021 5:00:00 AM 4.92 40.856 0.264 7.64 10.37 11.42
12/16/2021 5:15:00 AM 4.92 40.856 0.264 7.63 10.6 11.42
12/16/2021 5:30:00 AM 4.92 40.856 0.264 7.63 9.99 11.41
12/16/2021 5:45:00 AM 4.92 40.856 0.264 7.63 10.02 11.36
12/16/2021 6:00:00 AM 4.92 40.856 0.265 7.63 10.15 11.36
12/16/2021 6:15:00 AM 4.9 40.82 0.264 7.63 9.91 11.4
12/16/2021 6:30:00 AM 4.88 40.784 0.264 7.63 10.2 11.41
12/16/2021 6:45:00 AM 4.86 40.748 0.265 7.62 11.91 11.42
12/16/2021 7:00:00 AM 4.83 40.694 0.265 7.63 10.54 11.43
12/16/2021 7:15:00 AM 4.8 40.64 0.265 7.62 10.4 11.44
12/16/2021 7:30:00 AM 4.78 40.604 0.266 7.62 9.97 11.42
12/16/2021 7:45:00 AM 4.76 40.568 0.265 7.64 10.22 11.51
12/16/2021 8:00:00 AM 4.75 40.55 0.265 7.65 10.3 11.58
12/16/2021 8:15:00 AM 4.75 40.55 0.265 7.71 10.42 11.92
12/16/2021 8:30:00 AM 4.77 40.586 0.265 7.79 10.04 12.26
12/16/2021 8:45:00 AM 4.8 40.64 0.264 7.89 9.64 12.64
12/16/2021 9:00:00 AM 4.83 40.694 0.264 7.99 10 12.98
12/16/2021 9:15:00 AM 4.86 40.748 0.264 8.11 10.01 13.22
12/16/2021 9:30:00 AM 4.89 40.802 0.264 8.22 9.65 13.54
12/16/2021 9:45:00 AM 4.94 40.892 0.263 8.35 11.22 13.82
12/16/2021 10:00:00 AM 5.03 41.054 0.263 8.5 12.34 14.15
12/16/2021 10:15:00 AM 5.15 41.27 0.262 8.65 11.21 14.38
12/16/2021 10:30:00 AM 5.18 41.324 0.262 8.68 10.66 14.41
12/16/2021 10:45:00 AM 5.23 41.414 0.261 8.72 10.6 14.43
12/16/2021 11:00:00 AM 5.29 41.522 0.26 8.76 10.18 14.49
12/16/2021 11:15:00 AM 5.35 41.63 0.26 8.82 9.8 14.54
12/16/2021 11:30:00 AM 5.4 41.72 0.259 8.86 10.19 14.63
12/16/2021 11:45:00 AM 5.47 41.846 0.258 8.92 11.68 14.83
12/16/2021 12:00:00 PM 5.54 41.972 0.258 8.97 11.16 14.95
12/16/2021 12:15:00 PM 5.63 42.134 0.257 9.06 10.43 15.14
12/16/2021 12:30:00 PM 5.72 42.296 0.256 9.11 9.88 15.35
12/16/2021 12:45:00 PM 5.8 42.44 0.255 9.17 10.03 15.48
12/16/2021 1:00:00 PM 5.87 42.566 0.254 9.21 10.89 15.54
12/16/2021 1:15:00 PM 6.01 42.818 0.253 9.25 9.92 15.64
12/16/2021 1:30:00 PM 6.18 43.124 0.252 9.3 10.49 15.76
12/16/2021 1:45:00 PM 6.3 43.34 0.252 9.33 10.23 15.7
12/16/2021 2:00:00 PM 6.38 43.484 0.251 9.34 10.5 15.63
12/16/2021 2:15:00 PM 6.48 43.664 0.25 9.37 11.03 15.62
12/16/2021 2:30:00 PM 6.57 43.826 0.25 9.38 12.29 15.57
12/16/2021 2:45:00 PM 6.65 43.97 0.25 9.4 11.77 15.52
12/16/2021 3:00:00 PM 6.73 44.114 0.25 9.41 10.89 15.45
12/16/2021 3:15:00 PM 6.79 44.222 0.249 9.42 10.88 15.3
12/16/2021 3:30:00 PM 6.84 44.312 0.249 9.4 11.03 14.95
12/16/2021 3:45:00 PM 6.87 44.366 0.25 9.37 11.46 14.57
12/16/2021 4:00:00 PM 6.9 44.42 0.25 9.33 10.81 14.23
12/16/2021 4:15:00 PM 6.92 44.456 0.25 9.28 11.27 13.81
12/16/2021 4:30:00 PM 6.94 44.492 0.25 9.22 11.44 13.4
12/16/2021 4:45:00 PM 6.96 44.528 0.251 9.14 11.43 13.02
12/16/2021 5:00:00 PM 6.98 44.564 0.251 9.09 10.34 12.74
12/16/2021 5:15:00 PM 7.01 44.618 0.252 9.03 10.74 12.48
12/16/2021 5:30:00 PM 7.04 44.672 0.252 8.98 11.39 12.27
12/16/2021 5:45:00 PM 7.09 44.762 0.253 8.92 13.1 12.1
12/16/2021 6:00:00 PM 7.17 44.906 0.253 8.88 12.01 11.94
12/16/2021 6:15:00 PM 7.23 45.014 0.253 8.87 13.08 11.82
12/16/2021 6:30:00 PM 7.26 45.068 0.253 8.83 12.3 11.71
12/16/2021 6:45:00 PM 7.3 45.14 0.254 8.78 11.73 11.59
12/16/2021 7:00:00 PM 7.31 45.158 0.254 8.73 12.09 11.5
12/16/2021 7:15:00 PM 7.33 45.194 0.254 8.67 11.16 11.4
12/16/2021 7:30:00 PM 7.35 45.23 0.255 8.57 11.79 11.32
12/16/2021 7:45:00 PM 7.39 45.302 0.255 8.52 14.9 11.23
12/16/2021 8:00:00 PM 7.44 45.392 0.255 8.44 12.03 11.16
12/16/2021 8:15:00 PM 7.49 45.482 0.255 8.38 13.97 11.07
12/16/2021 8:30:00 PM 7.53 45.554 0.256 8.31 12.65 11.01
12/16/2021 8:45:00 PM 7.56 45.608 0.256 8.24 15.26 10.93
12/16/2021 9:00:00 PM 7.61 45.698 0.256 8.18 14.01 10.85
12/16/2021 9:15:00 PM 7.65 45.77 0.256 8.12 13.74 10.79
12/16/2021 9:30:00 PM 7.69 45.842 0.256 8.09 13.28 10.75
12/16/2021 9:45:00 PM 7.74 45.932 0.256 8.04 13.22 10.7
12/16/2021 10:00:00 PM 7.8 46.04 0.256 8 14.25 10.63
12/16/2021 10:15:00 PM 7.84 46.112 0.256 7.96 14.32 10.52
12/16/2021 10:30:00 PM 7.89 46.202 0.256 7.93 14.71 10.55
12/16/2021 10:45:00 PM 7.93 46.274 0.255 7.91 13.14 10.51
12/16/2021 11:00:00 PM 7.99 46.382 0.255 7.89 13.44 10.45
12/16/2021 11:15:00 PM 8.03 46.454 0.255 7.87 13.1 10.38
12/16/2021 11:30:00 PM 8.07 46.526 0.255 7.86 14.71 10.42
12/16/2021 11:45:00 PM 8.08 46.544 0.255 7.85 12.66 10.4
12/17/2021 12:00:00 AM 8.07 46.526 0.255 7.83 14.06 10.38
12/17/2021 12:15:00 AM 8.04 46.472 0.255 7.82 13.45 10.36
12/17/2021 12:30:00 AM 7.99 46.382 0.254 7.81 13.34 10.37
12/17/2021 12:45:00 AM 7.94 46.292 0.254 7.8 13.25 10.32
12/17/2021 1:00:00 AM 7.89 46.202 0.254 7.79 14.74 10.38
12/17/2021 1:15:00 AM 7.85 46.13 0.255 7.79 14.87 10.37
12/17/2021 1:30:00 AM 7.82 46.076 0.255 7.78 13.45 10.35
12/17/2021 1:45:00 AM 7.8 46.04 0.255 7.78 12.68 10.35
12/17/2021 2:00:00 AM 7.78 46.004 0.255 7.77 12.59 10.35
12/17/2021 2:15:00 AM 7.77 45.986 0.256 7.77 12.68 10.36
12/17/2021 2:30:00 AM 7.75 45.95 0.256 7.76 13.05 10.36
12/17/2021 2:45:00 AM 7.74 45.932 0.256 7.76 12.45 10.37
12/17/2021 3:00:00 AM 7.74 45.932 0.257 7.76 12.49 10.36
12/17/2021 3:15:00 AM 7.73 45.914 0.257 7.75 12.29 10.35
12/17/2021 3:30:00 AM 7.71 45.878 0.258 7.75 13.31 10.36
12/17/2021 3:45:00 AM 7.68 45.824 0.258 7.75 12.51 10.37
12/17/2021 4:00:00 AM 7.63 45.734 0.258 7.75 12.06 10.37
12/17/2021 4:15:00 AM 7.58 45.644 0.259 7.74 11.53 10.37
12/17/2021 4:30:00 AM 7.52 45.536 0.259 7.74 13.81 10.39
12/17/2021 4:45:00 AM 7.46 45.428 0.259 7.73 12.36 10.39
12/17/2021 5:00:00 AM 7.39 45.302 0.259 7.74 11.69 10.34
12/17/2021 5:15:00 AM 7.33 45.194 0.259 7.73 12.97 10.4
12/17/2021 5:30:00 AM 7.28 45.104 0.26 7.73 11.85 10.46
12/17/2021 5:45:00 AM 7.21 44.978 0.26 7.73 11.23 10.47
12/17/2021 6:00:00 AM 7.16 44.888 0.26 7.73 12.64 10.47
12/17/2021 6:15:00 AM 7.1 44.78 0.259 7.73 13.37 10.52
12/17/2021 6:30:00 AM 7.05 44.69 0.26 7.72 11.72 10.52
12/17/2021 6:45:00 AM 7 44.6 0.26 7.72 12.56 10.56
12/17/2021 7:00:00 AM 6.94 44.492 0.26 7.73 12.93 10.57
12/17/2021 7:15:00 AM 6.88 44.384 0.261 7.72 12.39 10.61
12/17/2021 7:30:00 AM 6.83 44.294 0.261 7.72 12.12 10.63
12/17/2021 7:45:00 AM 6.79 44.222 0.261 7.73 12.94 10.67
12/17/2021 8:00:00 AM 6.76 44.168 0.261 7.76 14.65 10.83
12/17/2021 8:15:00 AM 6.72 44.096 0.261 7.79 14.28 11.01
12/17/2021 8:30:00 AM 6.68 44.024 0.261 7.83 11.79 11.23
12/17/2021 8:45:00 AM 6.64 43.952 0.261 7.88 11.06 11.48
12/17/2021 9:00:00 AM 6.61 43.898 0.261 7.95 11.14 11.68
12/17/2021 9:15:00 AM 6.58 43.844 0.261 8.03 10.94 11.92
12/17/2021 9:30:00 AM 6.57 43.826 0.261 8.13 10.94 12.32
12/17/2021 9:45:00 AM 6.6 43.88 0.261 8.31 10.58 12.79
12/17/2021 10:00:00 AM 6.63 43.934 0.26 8.46 10.74 13.18
12/17/2021 10:15:00 AM 6.7 44.06 0.259 8.65 10.1 13.64
12/17/2021 10:30:00 AM 6.75 44.15 0.258 8.79 10.5 13.98
12/17/2021 10:45:00 AM 6.76 44.168 0.257 8.88 9.99 14.24
12/17/2021 11:00:00 AM 6.75 44.15 0.256 8.96 10.14 14.46
12/17/2021 11:15:00 AM 6.76 44.168 0.255 9.03 9.52 14.66
12/17/2021 11:30:00 AM 6.79 44.222 0.253 9.1 10.08 14.87
12/17/2021 11:45:00 AM 6.81 44.258 0.252 9.15 9.98 15.02
12/17/2021 12:00:00 PM 6.82 44.276 0.251 9.2 10.25 15.13
12/17/2021 12:15:00 PM 6.84 44.312 0.25 9.24 10.17 15.23
12/17/2021 12:30:00 PM 6.87 44.366 0.249 9.29 11.36 15.37
12/17/2021 12:45:00 PM 6.89 44.402 0.248 9.33 9.47 15.41
12/17/2021 1:00:00 PM 6.89 44.402 0.247 9.34 9.69 15.4
12/17/2021 1:15:00 PM 6.91 44.438 0.247 9.37 9.69 15.45
12/17/2021 1:30:00 PM 6.94 44.492 0.246 9.41 9.98 15.51
12/17/2021 1:45:00 PM 6.99 44.582 0.245 9.44 9.53 15.54
12/17/2021 2:00:00 PM 7.04 44.672 0.244 9.46 9.4 15.57
12/17/2021 2:15:00 PM 7.07 44.726 0.244 9.48 9.55 15.53
12/17/2021 2:30:00 PM 7.08 44.744 0.244 9.49 9.92 15.49
12/17/2021 2:45:00 PM 7.07 44.726 0.245 9.51 9.67 15.43
12/17/2021 3:00:00 PM 7.06 44.708 0.245 9.51 9.35 15.27
12/17/2021 3:15:00 PM 7.04 44.672 0.246 9.51 9.77 15.13
12/17/2021 3:30:00 PM 7.01 44.618 0.246 9.5 9.11 14.99
12/17/2021 3:45:00 PM 6.98 44.564 0.247 9.49 10.16 14.78
12/17/2021 4:00:00 PM 6.95 44.51 0.247 9.47 8.74 14.52
12/17/2021 4:15:00 PM 6.92 44.456 0.248 9.43 9.88 14.23
12/17/2021 4:30:00 PM 6.89 44.402 0.249 9.39 9.01 13.89
12/17/2021 4:45:00 PM 6.85 44.33 0.25 9.33 9.62 13.54
12/17/2021 5:00:00 PM 6.82 44.276 0.25 9.29 10.56 13.19
12/17/2021 5:15:00 PM 6.78 44.204 0.251 9.23 10.43 12.86
12/17/2021 5:30:00 PM 6.75 44.15 0.252 9.18 10.52 12.63
12/17/2021 5:45:00 PM 6.71 44.078 0.253 9.12 9.61 12.42
12/17/2021 6:00:00 PM 6.67 44.006 0.254 9.07 10.06 12.23
12/17/2021 6:15:00 PM 6.63 43.934 0.255 9.03 9.43 12.12
12/17/2021 6:30:00 PM 6.6 43.88 0.256 8.98 10 11.99
12/17/2021 6:45:00 PM 6.58 43.844 0.257 8.95 9.92 11.91
12/17/2021 7:00:00 PM 6.55 43.79 0.257 8.9 10.03 11.82
12/17/2021 7:15:00 PM 6.53 43.754 0.257 8.85 9.47 11.75
12/17/2021 7:30:00 PM 6.51 43.718 0.258 8.8 9.34 11.68
12/17/2021 7:45:00 PM 6.48 43.664 0.258 8.74 10.1 11.6
12/17/2021 8:00:00 PM 6.46 43.628 0.259 8.68 10.04 11.54
12/17/2021 8:15:00 PM 6.42 43.556 0.259 8.61 10.27 11.49
12/17/2021 8:30:00 PM 6.39 43.502 0.259 8.53 9.55 11.45
12/17/2021 8:45:00 PM 6.35 43.43 0.26 8.44 9.51 11.39
12/17/2021 9:00:00 PM 6.33 43.394 0.26 8.35 9.83 11.32
12/17/2021 9:15:00 PM 6.3 43.34 0.26 8.28 9.85 11.29
12/17/2021 9:30:00 PM 6.27 43.286 0.26 8.21 9.29 11.25
12/17/2021 9:45:00 PM 6.25 43.25 0.26 8.14 9.66 11.26
12/17/2021 10:00:00 PM 6.22 43.196 0.259 8.08 9.34 11.22
12/17/2021 10:15:00 PM 6.19 43.142 0.259 8.03 11.54 11.2
12/17/2021 10:30:00 PM 6.17 43.106 0.259 7.99 10.38 11.18
12/17/2021 10:45:00 PM 6.14 43.052 0.259 7.94 10.66 11.17
12/17/2021 11:00:00 PM 6.12 43.016 0.259 7.92 9.14 11.15
12/17/2021 11:15:00 PM 6.09 42.962 0.259 7.89 9.47 11.15
12/17/2021 11:30:00 PM 6.07 42.926 0.259 7.88 9.82 11.13
12/17/2021 11:45:00 PM 6.05 42.89 0.259 7.85 9.13 11.12
12/18/2021 12:00:00 AM 6.03 42.854 0.259 7.84 11.77 11.13
12/18/2021 12:15:00 AM 6 42.8 0.259 7.83 9.36 11.14
12/18/2021 12:30:00 AM 5.99 42.782 0.259 7.81 9.92 11.13
12/18/2021 12:45:00 AM 5.97 42.746 0.26 7.8 9.45 11.13
12/18/2021 1:00:00 AM 5.96 42.728 0.26 7.79 9.49 11.13
12/18/2021 1:15:00 AM 5.95 42.71 0.261 7.78 9.45 11.12
12/18/2021 1:30:00 AM 5.94 42.692 0.261 7.78 12.37 11.12
12/18/2021 1:45:00 AM 5.93 42.674 0.262 7.77 9.69 11.12
12/18/2021 2:00:00 AM 5.93 42.674 0.262 7.76 12.6 11.11
12/18/2021 2:15:00 AM 5.92 42.656 0.262 7.76 10.46 11.12
12/18/2021 2:30:00 AM 5.92 42.656 0.262 7.75 10.94 11.11
12/18/2021 2:45:00 AM 5.91 42.638 0.261 7.75 10.6 11.1
12/18/2021 3:00:00 AM 5.9 42.62 0.261 7.75 10.6 11.1
12/18/2021 3:15:00 AM 5.9 42.62 0.26 7.74 10.8 11.09
12/18/2021 3:30:00 AM 5.89 42.602 0.26 7.73 11.48 11.09
12/18/2021 3:45:00 AM 5.88 42.584 0.26 7.73 10.71 11.1
12/18/2021 4:00:00 AM 5.87 42.566 0.26 7.73 10.56 11.11
12/18/2021 4:15:00 AM 5.85 42.53 0.26 7.73 10.42 11.11
12/18/2021 4:30:00 AM 5.84 42.512 0.26 7.72 10.62 11.12
12/18/2021 4:45:00 AM 5.83 42.494 0.26 7.72 10.51 11.11
12/18/2021 5:00:00 AM 5.81 42.458 0.26 7.72 10.41 11.09
12/18/2021 5:15:00 AM 5.8 42.44 0.261 7.72 10.55 11.09
12/18/2021 5:30:00 AM 5.78 42.404 0.26 7.71 10.62 11.11
12/18/2021 5:45:00 AM 5.77 42.386 0.261 7.71 11.1 11.11
12/18/2021 6:00:00 AM 5.76 42.368 0.261 7.71 10.95 11.13
12/18/2021 6:15:00 AM 5.74 42.332 0.261 7.71 10.5 11.12
12/18/2021 6:30:00 AM 5.73 42.314 0.262 7.7 10.76 11.14
12/18/2021 6:45:00 AM 5.71 42.278 0.262 7.7 10.54 11.11
12/18/2021 7:00:00 AM 5.7 42.26 0.262 7.7 10.58 11.15
12/18/2021 7:15:00 AM 5.69 42.242 0.262 7.7 10.67 11.15
12/18/2021 7:30:00 AM 5.68 42.224 0.262 7.7 11.01 11.16
12/18/2021 7:45:00 AM 5.66 42.188 0.261 7.7 10.64 11.17
12/18/2021 8:00:00 AM 5.64 42.152 0.26 7.7 10.75 11.2
12/18/2021 8:15:00 AM 5.62 42.116 0.258 7.71 10.74 11.25
12/18/2021 8:30:00 AM 5.6 42.08 0.258 7.71 10.89 11.3
12/18/2021 8:45:00 AM 5.58 42.044 0.256 7.72 10.96 11.39
12/18/2021 9:00:00 AM 5.54 41.972 0.253 7.73 10.71 11.5
12/18/2021 9:15:00 AM 5.51 41.918 0.251 7.75 11.23 11.58
12/18/2021 9:30:00 AM 5.46 41.828 0.245 7.75 12.32 11.73
12/18/2021 9:45:00 AM 5.37 41.666 0.235 7.74 15.9 11.83
12/18/2021 10:00:00 AM 5.3 41.54 0.225 7.72 44.99 11.89
12/18/2021 10:15:00 AM 5.24 41.432 0.217 7.7 33.55 11.93
12/18/2021 10:30:00 AM 5.23 41.414 0.213 7.68 48.8 11.92
12/18/2021 10:45:00 AM 5.24 41.432 0.212 7.68 68.42 11.92
12/18/2021 11:00:00 AM 5.27 41.486 0.214 7.69 59.1 11.95
12/18/2021 11:15:00 AM 5.3 41.54 0.215 7.71 66.85 11.99
12/18/2021 11:30:00 AM 5.32 41.576 0.219 7.71 65.61 11.97
12/18/2021 11:45:00 AM 5.34 41.612 0.223 7.72 53.69 11.95
12/18/2021 12:00:00 PM 5.38 41.684 0.228 7.74 48.43 11.92
12/18/2021 12:15:00 PM 5.42 41.756 0.231 7.74 46.15 11.98
12/18/2021 12:30:00 PM 5.45 41.81 0.234 7.76 45.86 11.98
12/18/2021 12:45:00 PM 5.48 41.864 0.236 7.78 41.44 11.98
12/18/2021 1:00:00 PM 5.53 41.954 0.238 7.81 46.26 12.04
12/18/2021 1:15:00 PM 5.57 42.026 0.239 7.84 47.19 12.09
12/18/2021 1:30:00 PM 5.61 42.098 0.24 7.83 55.28 12.07
12/18/2021 1:45:00 PM 5.64 42.152 0.243 7.82 70.16 12.05
12/18/2021 2:00:00 PM 5.66 42.188 0.245 7.82 50.36 12.03
12/18/2021 2:15:00 PM 5.69 42.242 0.247 7.82 41.12 12.06
12/18/2021 2:30:00 PM 5.74 42.332 0.254 7.8 50.7 11.97
12/18/2021 2:45:00 PM 5.81 42.458 0.263 7.82 47.49 11.93
12/18/2021 3:00:00 PM 5.88 42.584 0.271 7.84 49.61 11.88
12/18/2021 3:15:00 PM 5.94 42.692 0.276 7.82 33.96 11.81
12/18/2021 3:30:00 PM 6 42.8 0.281 7.81 45.22 11.72
12/18/2021 3:45:00 PM 6.05 42.89 0.284 7.78 38.53 11.66
12/18/2021 4:00:00 PM 6.09 42.962 0.287 7.79 34.29 11.58
12/18/2021 4:15:00 PM 6.13 43.034 0.288 7.78 28.03 11.52
12/18/2021 4:30:00 PM 6.16 43.088 0.289 7.77 33.03 11.44
12/18/2021 4:45:00 PM 6.17 43.106 0.288 7.75 45.29 11.39
12/18/2021 5:00:00 PM 6.18 43.124 0.286 7.74 34.84 11.36
12/18/2021 5:15:00 PM 6.18 43.124 0.282 7.73 38.03 11.32
12/18/2021 5:30:00 PM 6.17 43.106 0.278 7.73 31.94 11.28
12/18/2021 5:45:00 PM 6.15 43.07 0.272 7.72 33.39 11.28
12/18/2021 6:00:00 PM 6.13 43.034 0.265 7.71 34.5 11.28
12/18/2021 6:15:00 PM 6.1 42.98 0.259 7.69 33.03 11.27
12/18/2021 6:30:00 PM 6.07 42.926 0.253 7.69 33.65 11.26
12/18/2021 6:45:00 PM 6.05 42.89 0.248 7.69 32.99 11.25
12/18/2021 7:00:00 PM 6.01 42.818 0.242 7.67 32.87 11.26
12/18/2021 7:15:00 PM 5.99 42.782 0.238 7.66 34.11 11.27
12/18/2021 7:30:00 PM 5.97 42.746 0.235 7.64 33 11.26
12/18/2021 7:45:00 PM 5.95 42.71 0.231 7.65 30.89 11.25
12/18/2021 8:00:00 PM 5.91 42.638 0.227 7.64 31.91 11.26
12/18/2021 8:15:00 PM 5.84 42.512 0.217 7.6 37.13 11.21
12/18/2021 8:30:00 PM 5.76 42.368 0.203 7.56 45.79 11.34
12/18/2021 8:45:00 PM 5.68 42.224 0.19 7.52 77.54 11.42
12/18/2021 9:00:00 PM 5.62 42.116 0.181 7.48 144.2 11.48
12/18/2021 9:15:00 PM 5.59 42.062 0.175 7.47 163.97 11.51
12/18/2021 9:30:00 PM 5.61 42.098 0.176 7.48 165.91 11.52
12/18/2021 9:45:00 PM 5.64 42.152 0.179 7.49 133.51 11.5
12/18/2021 10:00:00 PM 5.68 42.224 0.182 7.5 103.75 11.47
12/18/2021 10:15:00 PM 5.72 42.296 0.186 7.5 101.96 11.45
12/18/2021 10:30:00 PM 5.76 42.368 0.188 7.51 82.15 11.42
12/18/2021 10:45:00 PM 5.78 42.404 0.189 7.52 72.24 11.41
12/18/2021 11:00:00 PM 5.82 42.476 0.189 7.52 63.98 11.4
12/18/2021 11:15:00 PM 5.84 42.512 0.191 7.53 63.15 11.38
12/18/2021 11:30:00 PM 5.86 42.548 0.193 7.53 54.48 11.37
12/18/2021 11:45:00 PM 5.89 42.602 0.197 7.54 47.74 11.35
12/19/2021 12:00:00 AM 5.92 42.656 0.202 7.54 45.48 11.33
12/19/2021 12:15:00 AM 5.93 42.674 0.204 7.55 43.17 11.31
12/19/2021 12:30:00 AM 5.95 42.71 0.206 7.56 41.78 11.3
12/19/2021 12:45:00 AM 5.95 42.71 0.207 7.53 38.73 11.31
12/19/2021 1:00:00 AM 5.93 42.674 0.206 7.56 37.42 11.32
12/19/2021 1:15:00 AM 5.91 42.638 0.206 7.56 33.82 11.32
12/19/2021 1:30:00 AM 5.89 42.602 0.207 7.56 36.8 11.33
12/19/2021 1:45:00 AM 5.88 42.584 0.209 7.56 30.01 11.31
12/19/2021 2:00:00 AM 5.87 42.566 0.213 7.56 36.8 11.33
12/19/2021 2:15:00 AM 5.87 42.566 0.215 7.58 25.52 11.24
12/19/2021 2:30:00 AM 5.87 42.566 0.218 7.58 35.07 11.32
12/19/2021 2:45:00 AM 5.86 42.548 0.22 7.58 27.63 11.31
12/19/2021 3:00:00 AM 5.85 42.53 0.221 7.59 22.6 11.31
12/19/2021 3:15:00 AM 5.82 42.476 0.222 7.57 26.12 11.34
12/19/2021 3:30:00 AM 5.8 42.44 0.223 7.59 22.06 11.34
12/19/2021 3:45:00 AM 5.79 42.422 0.224 7.58 91.29 11.35
12/19/2021 4:00:00 AM 5.77 42.386 0.225 7.59 28.33 11.35
12/19/2021 4:15:00 AM 5.76 42.368 0.227 7.59 18.65 11.36
12/19/2021 4:30:00 AM 5.76 42.368 0.228 7.59 18.7 11.34
12/19/2021 4:45:00 AM 5.75 42.35 0.229 7.6 20.12 11.36
12/19/2021 5:00:00 AM 5.72 42.296 0.229 7.6 17.81 11.38
12/19/2021 5:15:00 AM 5.71 42.278 0.229 7.59 6104.72 11.37
12/19/2021 5:30:00 AM 5.69 42.242 0.228 7.6 17.46 11.39
12/19/2021 5:45:00 AM 5.67 42.206 0.227 7.6 16.13 11.41
12/19/2021 6:00:00 AM 5.64 42.152 0.227 7.6 16.27 11.34
12/19/2021 6:15:00 AM 5.6 42.08 0.226 7.6 22.69 11.43
12/19/2021 6:30:00 AM 5.57 42.026 0.225 7.59 18.02 11.45
12/19/2021 6:45:00 AM 5.55 41.99 0.225 7.6 20.42 11.44
12/19/2021 7:00:00 AM 5.52 41.936 0.225 7.6 15.05 11.45
12/19/2021 7:15:00 AM 5.48 41.864 0.225 7.59 15.58 11.48
12/19/2021 7:30:00 AM 5.46 41.828 0.226 7.6 14.05 11.5
12/19/2021 7:45:00 AM 5.44 41.792 0.225 7.6 15.47 11.51
12/19/2021 8:00:00 AM 5.41 41.738 0.225 7.6 14.69 11.54
12/19/2021 8:15:00 AM 5.36 41.648 0.224 7.61 14.29 11.57
12/19/2021 8:30:00 AM 5.32 41.576 0.223 7.61 13.18 11.6
12/19/2021 8:45:00 AM 5.27 41.486 0.221 7.62 14.49 11.43
12/19/2021 9:00:00 AM 5.23 41.414 0.22 7.62 14.02 11.69
12/19/2021 9:15:00 AM 5.2 41.36 0.219 7.61 15.59 11.56
12/19/2021 9:30:00 AM 5.18 41.324 0.218 7.64 14.59 11.8
12/19/2021 9:45:00 AM 5.15 41.27 0.217 7.65 13.34 11.87
12/19/2021 10:00:00 AM 5.12 41.216 0.217 7.66 13.05 11.92
12/19/2021 10:15:00 AM 5.09 41.162 0.216 7.67 12.37 11.99
12/19/2021 10:30:00 AM 5.06 41.108 0.216 7.67 13.48 12.05
12/19/2021 10:45:00 AM 5.05 41.09 0.217 7.69 12.88 12.11
12/19/2021 11:00:00 AM 5.03 41.054 0.216 7.7 20.06 12.19
12/19/2021 11:15:00 AM 5.02 41.036 0.216 7.73 18.5 12.27
12/19/2021 11:30:00 AM 5.01 41.018 0.215 7.72 16.2 12.34
12/19/2021 11:45:00 AM 5.01 41.018 0.214 7.76 16.03 12.42
12/19/2021 12:00:00 PM 4.99 40.982 0.213 7.8 15.31 12.5
12/19/2021 12:15:00 PM 5 41 0.212 7.84 15.87 12.66
12/19/2021 12:30:00 PM 5 41 0.21 7.88 15.99 12.74
12/19/2021 12:45:00 PM 4.99 40.982 0.209 7.91 15.98 12.86
12/19/2021 1:00:00 PM 5.01 41.018 0.208 7.96 15.81 12.99
12/19/2021 1:15:00 PM 5.04 41.072 0.207 8.01 16.19 13.12
12/19/2021 1:30:00 PM 5.07 41.126 0.207 8.08 15.71 13.24
12/19/2021 1:45:00 PM 5.09 41.162 0.207 8.13 15.8 13.32
12/19/2021 2:00:00 PM 5.11 41.198 0.208 8.18 16.21 13.4
12/19/2021 2:15:00 PM 5.13 41.234 0.208 8.21 16.36 13.3
12/19/2021 2:30:00 PM 5.14 41.252 0.208 8.23 16.27 13.41
12/19/2021 2:45:00 PM 5.13 41.234 0.208 8.22 16.49 13.39
12/19/2021 3:00:00 PM 5.1 41.18 0.207 8.22 16.55 13.34
12/19/2021 3:15:00 PM 5.06 41.108 0.205 8.2 16.13 13.28
12/19/2021 3:30:00 PM 5.02 41.036 0.203 8.17 16.08 13.21
12/19/2021 3:45:00 PM 4.98 40.964 0.202 8.14 15.78 13.14
12/19/2021 4:00:00 PM 4.94 40.892 0.201 8.11 15.76 13.01
12/19/2021 4:15:00 PM 4.9 40.82 0.201 8.07 15.79 13.02
12/19/2021 4:30:00 PM 4.86 40.748 0.201 8.03 14.97 12.95
12/19/2021 4:45:00 PM 4.82 40.676 0.202 7.98 15.22 12.85
12/19/2021 5:00:00 PM 4.77 40.586 0.202 7.94 15 12.72
12/19/2021 5:15:00 PM 4.71 40.478 0.203 7.9 15.8 12.64
12/19/2021 5:30:00 PM 4.66 40.388 0.204 7.86 15.2 12.56
12/19/2021 5:45:00 PM 4.59 40.262 0.203 7.83 14.94 12.5
12/19/2021 6:00:00 PM 4.53 40.154 0.202 7.81 15.04 12.46
12/19/2021 6:15:00 PM 4.46 40.028 0.201 7.78 15.33 12.4
12/19/2021 6:30:00 PM 4.4 39.92 0.201 7.76 15.11 12.4
12/19/2021 6:45:00 PM 4.34 39.812 0.2 7.74 15.19 12.37
12/19/2021 7:00:00 PM 4.28 39.704 0.2 7.72 14.95 12.34
12/19/2021 7:15:00 PM 4.23 39.614 0.201 7.71 14.59 12.25
12/19/2021 7:30:00 PM 4.18 39.524 0.202 7.7 14.63 12.21
12/19/2021 7:45:00 PM 4.13 39.434 0.203 7.68 14.52 12.21
12/19/2021 8:00:00 PM 4.09 39.362 0.205 7.68 15.54 12.22
12/19/2021 8:15:00 PM 4.04 39.272 0.205 7.66 14.82 12.22
12/19/2021 8:30:00 PM 3.99 39.182 0.205 7.66 14.76 12.14
12/19/2021 8:45:00 PM 3.94 39.092 0.204 7.65 14.29 12.26
12/19/2021 9:00:00 PM 3.89 39.002 0.203 7.64 14.54 12.17
12/19/2021 9:15:00 PM 3.83 38.894 0.202 7.62 14.15 12.22
12/19/2021 9:30:00 PM 3.78 38.804 0.202 7.63 14.06 12.29
12/19/2021 9:45:00 PM 3.72 38.696 0.202 7.62 14.26 12.27
12/19/2021 10:00:00 PM 3.67 38.606 0.202 7.61 13.89 12.29
12/19/2021 10:15:00 PM 3.62 38.516 0.203 7.61 13.95 12.28
12/19/2021 10:30:00 PM 3.58 38.444 0.204 7.61 14.11 12.34
12/19/2021 10:45:00 PM 3.54 38.372 0.206 7.61 13.97 12.31
12/19/2021 11:00:00 PM 3.5 38.3 0.207 7.6 13.87 12.36
12/19/2021 11:15:00 PM 3.45 38.21 0.207 7.61 13.63 12.2
12/19/2021 11:30:00 PM 3.41 38.138 0.207 7.6 13.54 12.36
12/19/2021 11:45:00 PM 3.36 38.048 0.206 7.6 13.75 12.4
12/20/2021 12:00:00 AM 3.3 37.94 0.205 7.6 13.74 12.36
12/20/2021 12:15:00 AM 3.25 37.85 0.204 7.59 13.63 12.42
12/20/2021 12:30:00 AM 3.19 37.742 0.204 7.59 13.75 12.44
12/20/2021 12:45:00 AM 3.14 37.652 0.203 7.58 13.71 12.43
12/20/2021 1:00:00 AM 3.09 37.562 0.204 7.59 13.62 12.46
12/20/2021 1:15:00 AM 3.04 37.472 0.205 7.58 13.66 12.38
12/20/2021 1:30:00 AM 3 37.4 0.206 7.59 13.5 12.49
12/20/2021 1:45:00 AM 2.96 37.328 0.208 7.59 13.58 12.45
12/20/2021 2:00:00 AM 2.91 37.238 0.208 7.58 13.52 12.46
12/20/2021 2:15:00 AM 2.86 37.148 0.207 7.59 13.53 12.56
12/20/2021 2:30:00 AM 2.81 37.058 0.206 7.58 13.48 12.55
12/20/2021 2:45:00 AM 2.76 36.968 0.206 7.58 13.36 12.6
12/20/2021 3:00:00 AM 2.71 36.878 0.205 7.58 13.33 12.61
12/20/2021 3:15:00 AM 2.66 36.788 0.204 7.57 13.45 12.63
12/20/2021 3:30:00 AM 2.6 36.68 0.204 7.57 13.34 12.6
12/20/2021 3:45:00 AM 2.55 36.59 0.204 7.57 13.12 12.67
12/20/2021 4:00:00 AM 2.5 36.5 0.205 7.57 13.1 12.68
12/20/2021 4:15:00 AM 2.46 36.428 0.206 7.57 13.29 12.63
12/20/2021 4:30:00 AM 2.41 36.338 0.206 7.57 13.07 12.68
12/20/2021 4:45:00 AM 2.36 36.248 0.206 7.57 13.22 12.73
12/20/2021 5:00:00 AM 2.32 36.176 0.206 7.57 13.04 12.75
12/20/2021 5:15:00 AM 2.26 36.068 0.205 7.57 13.32 12.78
12/20/2021 5:30:00 AM 2.21 35.978 0.204 7.56 13.35 12.78
12/20/2021 5:45:00 AM 2.16 35.888 0.203 7.56 13.07 12.82
12/20/2021 6:00:00 AM 2.11 35.798 0.203 7.56 13.39 12.82
12/20/2021 6:15:00 AM 2.06 35.708 0.202 7.55 13.18 12.85
12/20/2021 6:30:00 AM 2.01 35.618 0.203 7.55 13 12.87
12/20/2021 6:45:00 AM 1.97 35.546 0.204 7.56 13.09 12.87
12/20/2021 7:00:00 AM 1.93 35.474 0.204 7.56 13.09 12.91
12/20/2021 7:15:00 AM 1.9 35.42 0.206 7.56 13.01 12.92
12/20/2021 7:30:00 AM 1.86 35.348 0.206 7.56 13.11 12.89
12/20/2021 7:45:00 AM 1.82 35.276 0.206 7.57 13 13.01
12/20/2021 8:00:00 AM 1.79 35.222 0.205 7.57 13.07 13.08
12/20/2021 8:15:00 AM 1.75 35.15 0.204 7.56 12.89 12.99
12/20/2021 8:30:00 AM 1.72 35.096 0.204 7.61 13.28 13.23
12/20/2021 8:45:00 AM 1.7 35.06 0.203 7.63 13.33 13.39
12/20/2021 9:00:00 AM 1.7 35.06 0.202 7.67 13.4 13.56
12/20/2021 9:15:00 AM 1.7 35.06 0.202 7.69 13.42 13.65
12/20/2021 9:30:00 AM 1.72 35.096 0.203 7.73 13.19 13.73
12/20/2021 9:45:00 AM 1.77 35.186 0.203 7.77 13.34 13.86
12/20/2021 10:00:00 AM 1.85 35.33 0.204 7.82 12.99 14.01
12/20/2021 10:15:00 AM 1.93 35.474 0.204 7.87 12.97 14.12
12/20/2021 10:30:00 AM 2 35.6 0.203 7.92 12.86 14.24
12/20/2021 10:45:00 AM 2.09 35.762 0.203 7.96 13.06 14.32
12/20/2021 11:00:00 AM 2.18 35.924 0.202 8 12.98 14.38
12/20/2021 11:15:00 AM 2.27 36.086 0.201 8.05 12.98 14.45
12/20/2021 11:30:00 AM 2.35 36.23 0.2 8.09 12.91 14.45
12/20/2021 11:45:00 AM 2.43 36.374 0.2 8.13 12.96 14.52
12/20/2021 12:00:00 PM 2.5 36.5 0.2 8.16 12.93 14.55
12/20/2021 12:15:00 PM 2.58 36.644 0.2 8.2 12.72 14.56
12/20/2021 12:30:00 PM 2.66 36.788 0.2 8.25 12.94 14.57
12/20/2021 12:45:00 PM 2.74 36.932 0.2 8.27 13.12 14.57
12/20/2021 1:00:00 PM 2.83 37.094 0.199 8.3 12.54 14.58
12/20/2021 1:15:00 PM 2.93 37.274 0.199 8.34 12.74 14.57
12/20/2021 1:30:00 PM 3.01 37.418 0.199 8.36 12.75 14.56
12/20/2021 1:45:00 PM 3.08 37.544 0.198 8.39 12.92 14.52
12/20/2021 2:00:00 PM 3.15 37.67 0.197 8.4 12.81 14.5
12/20/2021 2:15:00 PM 3.2 37.76 0.197 8.42 12.81 14.44
12/20/2021 2:30:00 PM 3.23 37.814 0.196 8.43 12.91 14.31
12/20/2021 2:45:00 PM 3.25 37.85 0.196 8.43 12.81 14.32
12/20/2021 3:00:00 PM 3.27 37.886 0.196 8.41 13.1 14.27
12/20/2021 3:15:00 PM 3.28 37.904 0.197 8.39 13.03 14.18
12/20/2021 3:30:00 PM 3.29 37.922 0.197 8.36 12.82 14.13
12/20/2021 3:45:00 PM 3.29 37.922 0.197 8.32 12.81 14.04
12/20/2021 4:00:00 PM 3.28 37.904 0.197 8.28 13.1 13.93
12/20/2021 4:15:00 PM 3.27 37.886 0.197 8.22 12.96 13.83
12/20/2021 4:30:00 PM 3.24 37.832 0.197 8.16 12.87 13.71
12/20/2021 4:45:00 PM 3.2 37.76 0.197 8.1 13.05 13.59
12/20/2021 5:00:00 PM 3.16 37.688 0.196 8.02 12.86 13.46
12/20/2021 5:15:00 PM 3.11 37.598 0.196 7.96 13.12 13.35
12/20/2021 5:30:00 PM 3.06 37.508 0.197 7.91 13.22 13.21
12/20/2021 5:45:00 PM 3.01 37.418 0.198 7.87 13.32 13.2
12/20/2021 6:00:00 PM 2.97 37.346 0.198 7.82 13.1 13.14
12/20/2021 6:15:00 PM 2.93 37.274 0.199 7.8 13.28 13.09
12/20/2021 6:30:00 PM 2.89 37.202 0.199 7.78 13.37 13.05
12/20/2021 6:45:00 PM 2.85 37.13 0.199 7.75 13.91 12.95
12/20/2021 7:00:00 PM 2.81 37.058 0.198 7.72 14.87 12.95
12/20/2021 7:15:00 PM 2.77 36.986 0.198 7.68 13.74 12.64
12/20/2021 7:30:00 PM 2.73 36.914 0.198 7.69 14.52 12.86
12/20/2021 7:45:00 PM 2.69 36.842 0.197 7.68 14.04 12.81
12/20/2021 8:00:00 PM 2.65 36.77 0.197 7.66 13.85 12.84
12/20/2021 8:15:00 PM 2.61 36.698 0.198 7.66 14.05 12.77
12/20/2021 8:30:00 PM 2.59 36.662 0.199 7.64 13.71 12.8
12/20/2021 8:45:00 PM 2.56 36.608 0.201 7.63 13.76 12.72
12/20/2021 9:00:00 PM 2.54 36.572 0.201 7.63 13.78 12.76
12/20/2021 9:15:00 PM 2.52 36.536 0.201 7.61 13.78 12.74
12/20/2021 9:30:00 PM 2.5 36.5 0.201 7.61 13.83 12.74
12/20/2021 9:45:00 PM 2.48 36.464 0.201 7.6 13.38 12.74
12/20/2021 10:00:00 PM 2.45 36.41 0.201 7.6 13.42 12.7
12/20/2021 10:15:00 PM 2.43 36.374 0.2 7.59 13.3 12.72
12/20/2021 10:30:00 PM 2.41 36.338 0.2 7.59 13.24 12.75
12/20/2021 10:45:00 PM 2.38 36.284 0.201 7.59 13.36 12.76
12/20/2021 11:00:00 PM 2.36 36.248 0.202 7.57 13.52 12.74
12/20/2021 11:15:00 PM 2.34 36.212 0.203 7.58 13.4 12.76
12/20/2021 11:30:00 PM 2.32 36.176 0.204 7.55 13.2 12.75
12/20/2021 11:45:00 PM 2.29 36.122 0.204 7.57 13.31 12.76
12/21/2021 12:00:00 AM 2.26 36.068 0.204 7.55 13.14 12.77
12/21/2021 12:15:00 AM 2.23 36.014 0.204 7.55 13.37 12.78
12/21/2021 12:30:00 AM 2.2 35.96 0.203 7.55 13.33 12.79
12/21/2021 12:45:00 AM 2.16 35.888 0.203 7.56 13.52 12.8
12/21/2021 1:00:00 AM 2.13 35.834 0.202 7.54 13.38 12.78
12/21/2021 1:15:00 AM 2.09 35.762 0.202 7.55 13.17 12.82
12/21/2021 1:30:00 AM 2.05 35.69 0.203 7.54 13.16 12.81
12/21/2021 1:45:00 AM 2.02 35.636 0.203 7.54 13.37 12.78
12/21/2021 2:00:00 AM 1.99 35.582 0.204 7.54 13.43 12.79
12/21/2021 2:15:00 AM 1.95 35.51 0.204 7.54 13.32 12.8
12/21/2021 2:30:00 AM 1.92 35.456 0.204 7.54 13.4 12.84
12/21/2021 2:45:00 AM 1.88 35.384 0.204 7.51 13.34 12.81
12/21/2021 3:00:00 AM 1.85 35.33 0.203 7.54 13.15 12.89
12/21/2021 3:15:00 AM 1.82 35.276 0.203 7.53 13.46 12.84
12/21/2021 3:30:00 AM 1.78 35.204 0.202 7.54 13.1 12.91
12/21/2021 3:45:00 AM 1.75 35.15 0.201 7.53 13.3 12.92
12/21/2021 4:00:00 AM 1.73 35.114 0.202 7.53 13.21 12.94
12/21/2021 4:15:00 AM 1.72 35.096 0.202 7.53 13.15 12.96
12/21/2021 4:30:00 AM 1.71 35.078 0.203 7.53 13.18 12.89
12/21/2021 4:45:00 AM 1.72 35.096 0.204 7.5 13.28 12.91
12/21/2021 5:00:00 AM 1.72 35.096 0.204 7.54 13.4 12.9
12/21/2021 5:15:00 AM 1.74 35.132 0.204 7.54 13.23 12.87
12/21/2021 5:30:00 AM 1.76 35.168 0.204 7.54 13.19 12.95
12/21/2021 5:45:00 AM 1.77 35.186 0.203 7.54 13.13 12.94
12/21/2021 6:00:00 AM 1.78 35.204 0.202 7.54 13.16 12.95
12/21/2021 6:15:00 AM 1.78 35.204 0.202 7.54 13.14 12.92
12/21/2021 6:30:00 AM 1.78 35.204 0.202 7.54 13.29 12.84
12/21/2021 6:45:00 AM 1.78 35.204 0.201 7.54 13.29 12.95
12/21/2021 7:00:00 AM 1.78 35.204 0.203 7.54 13.07 12.94
12/21/2021 7:15:00 AM 1.77 35.186 0.203 7.52 13.12 12.97
12/21/2021 7:30:00 AM 1.78 35.204 0.204 7.54 13.16 12.98
12/21/2021 7:45:00 AM 1.78 35.204 0.204 7.54 13.09 12.93
12/21/2021 8:00:00 AM 1.78 35.204 0.204 7.54 13.94 12.98
12/21/2021 8:15:00 AM 1.79 35.222 0.204 7.57 13.08 13.02
12/21/2021 8:30:00 AM 1.79 35.222 0.203 7.56 13.08 13.1
12/21/2021 8:45:00 AM 1.79 35.222 0.203 7.6 12.94 13.18
12/21/2021 9:00:00 AM 1.8 35.24 0.202 7.63 13.06 13.39
12/21/2021 9:15:00 AM 1.83 35.294 0.202 7.67 13.26 13.54
12/21/2021 9:30:00 AM 1.88 35.384 0.202 7.71 13.07 13.61
12/21/2021 9:45:00 AM 1.94 35.492 0.202 7.76 12.87 13.82
12/21/2021 10:00:00 AM 1.99 35.582 0.203 7.81 12.99 13.83
12/21/2021 10:15:00 AM 2.05 35.69 0.203 7.85 12.77 13.97
12/21/2021 10:30:00 AM 2.12 35.816 0.203 7.89 12.93 14
12/21/2021 10:45:00 AM 2.21 35.978 0.203 7.95 12.93 14.13
12/21/2021 11:00:00 AM 2.32 36.176 0.202 8.01 12.73 14.26
12/21/2021 11:15:00 AM 2.41 36.338 0.201 8.07 12.9 14.33
12/21/2021 11:30:00 AM 2.49 36.482 0.2 8.13 12.74 14.42
12/21/2021 11:45:00 AM 2.56 36.608 0.2 8.17 12.62 14.47
12/21/2021 12:00:00 PM 2.63 36.734 0.199 8.21 15.39 14.49
12/21/2021 12:15:00 PM 2.72 36.896 0.199 8.26 13.84 14.52
12/21/2021 12:30:00 PM 2.82 37.076 0.199 8.31 13.08 14.53
12/21/2021 12:45:00 PM 2.91 37.238 0.199 8.32 14.86 14.55
12/21/2021 1:00:00 PM 3.01 37.418 0.199 8.38 12.99 14.56
12/21/2021 1:15:00 PM 3.1 37.58 0.199 8.42 13.1 14.54
12/21/2021 1:30:00 PM 3.2 37.76 0.199 8.45 13.22 14.52
12/21/2021 1:45:00 PM 3.28 37.904 0.198 8.48 13.22 14.48
12/21/2021 2:00:00 PM 3.34 38.012 0.197 8.48 12.92 14.45
12/21/2021 2:15:00 PM 3.4 38.12 0.197 8.52 12.98 14.41
12/21/2021 2:30:00 PM 3.44 38.192 0.196 8.52 13.02 14.37
12/21/2021 2:45:00 PM 3.48 38.264 0.196 8.53 13.11 14.33
12/21/2021 3:00:00 PM 3.49 38.282 0.196 8.54 13.2 14.28
12/21/2021 3:15:00 PM 3.5 38.3 0.197 8.52 13.09 14.21
12/21/2021 3:30:00 PM 3.5 38.3 0.197 8.49 12.92 14.12
12/21/2021 3:45:00 PM 3.5 38.3 0.197 8.47 13.22 14.02
12/21/2021 4:00:00 PM 3.48 38.264 0.197 8.42 13.07 13.9
12/21/2021 4:15:00 PM 3.47 38.246 0.197 8.36 12.87 13.78
12/21/2021 4:30:00 PM 3.44 38.192 0.197 8.27 12.99 13.64
12/21/2021 4:45:00 PM 3.4 38.12 0.196 8.2 13.08 13.5
12/21/2021 5:00:00 PM 3.35 38.03 0.196 8.12 13.06 13.36
12/21/2021 5:15:00 PM 3.3 37.94 0.196 8.04 13.01 13.21
12/21/2021 5:30:00 PM 3.25 37.85 0.197 7.97 13.03 13.09
12/21/2021 5:45:00 PM 3.19 37.742 0.198 7.93 13.19 13.02
12/21/2021 6:00:00 PM 3.14 37.652 0.198 7.88 12.89 12.98
12/21/2021 6:15:00 PM 3.09 37.562 0.199 7.85 14.13 12.93
12/21/2021 6:30:00 PM 3.05 37.49 0.199 7.81 13.79 12.88
12/21/2021 6:45:00 PM 3.01 37.418 0.199 7.78 14.2 12.81
12/21/2021 7:00:00 PM 2.98 37.364 0.199 7.73 13.84 12.78
12/21/2021 7:15:00 PM 2.94 37.292 0.199 7.73 13.75 12.75
12/21/2021 7:30:00 PM 2.91 37.238 0.199 7.7 13.83 12.69
12/21/2021 7:45:00 PM 2.88 37.184 0.199 7.68 13.76 12.68
12/21/2021 8:00:00 PM 2.85 37.13 0.199 7.67 13.86 12.65
12/21/2021 8:15:00 PM 2.82 37.076 0.2 7.66 13.81 12.6
12/21/2021 8:30:00 PM 2.8 37.04 0.201 7.63 13.82 12.58
12/21/2021 8:45:00 PM 2.78 37.004 0.202 7.63 13.78 12.58
12/21/2021 9:00:00 PM 2.75 36.95 0.203 7.63 13.94 12.58
12/21/2021 9:15:00 PM 2.73 36.914 0.203 7.62 13.79 12.56
12/21/2021 9:30:00 PM 2.7 36.86 0.203 7.61 13.79 12.55
12/21/2021 9:45:00 PM 2.67 36.806 0.203 7.6 13.71 12.55
12/21/2021 10:00:00 PM 2.64 36.752 0.202 7.6 13.62 12.54
12/21/2021 10:15:00 PM 2.61 36.698 0.202 7.59 13.76 12.55
12/21/2021 10:30:00 PM 2.59 36.662 0.202 7.58 13.7 12.54
12/21/2021 10:45:00 PM 2.56 36.608 0.203 7.58 13.61 12.52
12/21/2021 11:00:00 PM 2.53 36.554 0.204 7.57 13.53 12.51
12/21/2021 11:15:00 PM 2.5 36.5 0.205 7.58 13.5 12.51
12/21/2021 11:30:00 PM 2.47 36.446 0.206 7.57 13.7 12.48
12/21/2021 11:45:00 PM 2.44 36.392 0.206 7.57 13.6 12.53
12/22/2021 12:00:00 AM 2.41 36.338 0.206 7.56 13.67 12.5
12/22/2021 12:15:00 AM 2.38 36.284 0.206 7.56 13.64 12.55
12/22/2021 12:30:00 AM 2.34 36.212 0.206 7.56 13.47 12.56
12/22/2021 12:45:00 AM 2.3 36.14 0.205 7.55 13.64 12.57
12/22/2021 1:00:00 AM 2.26 36.068 0.205 7.55 13.56 12.55
12/22/2021 1:15:00 AM 2.22 35.996 0.204 7.54 13.64 12.58
12/22/2021 1:30:00 AM 2.18 35.924 0.205 7.54 13.57 12.59
12/22/2021 1:45:00 AM 2.15 35.87 0.206 7.54 13.74 12.56
12/22/2021 2:00:00 AM 2.11 35.798 0.206 7.53 13.39 12.61
12/22/2021 2:15:00 AM 2.08 35.744 0.207 7.54 13.59 12.63
12/22/2021 2:30:00 AM 2.04 35.672 0.207 7.54 13.46 12.62
12/22/2021 2:45:00 AM 2 35.6 0.206 7.53 13.39 12.66
12/22/2021 3:00:00 AM 1.97 35.546 0.206 7.53 13.48 12.65
12/22/2021 3:15:00 AM 1.93 35.474 0.206 7.51 13.69 12.66
12/22/2021 3:30:00 AM 1.89 35.402 0.205 7.53 13.5 12.69
12/22/2021 3:45:00 AM 1.86 35.348 0.205 7.49 13.44 12.69
12/22/2021 4:00:00 AM 1.82 35.276 0.205 7.53 13.46 12.69
12/22/2021 4:15:00 AM 1.79 35.222 0.205 7.53 13.57 12.72
12/22/2021 4:30:00 AM 1.77 35.186 0.206 7.52 13.69 12.69
12/22/2021 4:45:00 AM 1.77 35.186 0.207 7.5 13.47 12.65
12/22/2021 5:00:00 AM 1.78 35.204 0.207 7.51 13.56 12.63
12/22/2021 5:15:00 AM 1.79 35.222 0.207 7.53 13.52 12.74
12/22/2021 5:30:00 AM 1.82 35.276 0.207 7.53 13.72 12.74
12/22/2021 5:45:00 AM 1.86 35.348 0.206 7.53 13.4 12.74
12/22/2021 6:00:00 AM 1.9 35.42 0.205 7.53 13.31 12.72
12/22/2021 6:15:00 AM 1.94 35.492 0.205 7.54 13.38 12.7
12/22/2021 6:30:00 AM 1.98 35.564 0.205 7.54 13.41 12.72
12/22/2021 6:45:00 AM 2 35.6 0.204 7.54 13.59 12.72
12/22/2021 7:00:00 AM 2.03 35.654 0.205 7.54 13.53 12.71
12/22/2021 7:15:00 AM 2.05 35.69 0.205 7.53 13.5 12.67
12/22/2021 7:30:00 AM 2.07 35.726 0.206 7.53 13.44 12.69
12/22/2021 7:45:00 AM 2.1 35.78 0.206 7.54 13.42 12.68
12/22/2021 8:00:00 AM 2.12 35.816 0.206 7.55 13.41 12.68
12/22/2021 8:15:00 AM 2.16 35.888 0.206 7.56 13.58 12.72
12/22/2021 8:30:00 AM 2.19 35.942 0.205 7.57 13.44 12.77
12/22/2021 8:45:00 AM 2.22 35.996 0.205 7.57 13.38 12.86
12/22/2021 9:00:00 AM 2.27 36.086 0.204 7.63 13.32 13.01
12/22/2021 9:15:00 AM 2.32 36.176 0.203 7.66 13.28 13.16
12/22/2021 9:30:00 AM 2.4 36.32 0.203 7.73 13.32 13.35
12/22/2021 9:45:00 AM 2.48 36.464 0.203 7.79 13.18 13.55
12/22/2021 10:00:00 AM 2.55 36.59 0.204 7.87 13.35 13.71
12/22/2021 10:15:00 AM 2.57 36.626 0.204 7.91 13.25 13.77
12/22/2021 10:30:00 AM 2.62 36.716 0.204 7.95 13.32 13.84
12/22/2021 10:45:00 AM 2.64 36.752 0.204 7.97 13.3 13.85
12/22/2021 11:00:00 AM 2.67 36.806 0.204 8.03 13.27 13.92
12/22/2021 11:15:00 AM 2.73 36.914 0.203 8.09 13.28 14.03
12/22/2021 11:30:00 AM 2.76 36.968 0.202 8.14 13.16 14.09
12/22/2021 11:45:00 AM 2.77 36.986 0.201 8.18 13.13 14.15
12/22/2021 12:00:00 PM 2.79 37.022 0.201 8.24 13.08 14.21
12/22/2021 12:15:00 PM 2.81 37.058 0.201 8.27 13.13 14.25
12/22/2021 12:30:00 PM 2.83 37.094 0.201 8.32 13.22 14.29
12/22/2021 12:45:00 PM 2.86 37.148 0.201 8.37 13.22 14.32
12/22/2021 1:00:00 PM 2.93 37.274 0.201 8.42 13.2 14.38
12/22/2021 1:15:00 PM 2.95 37.31 0.201 8.45 13.08 14.38
12/22/2021 1:30:00 PM 2.97 37.346 0.201 8.5 13.11 14.42
12/22/2021 1:45:00 PM 2.98 37.364 0.201 8.5 13.13 14.34
12/22/2021 2:00:00 PM 2.97 37.346 0.2 8.5 13.14 14.32
12/22/2021 2:15:00 PM 2.96 37.328 0.2 8.49 13.17 14.25
12/22/2021 2:30:00 PM 2.94 37.292 0.199 8.48 13.07 14.2
12/22/2021 2:45:00 PM 2.94 37.292 0.199 8.44 13.03 14.1
12/22/2021 3:00:00 PM 2.92 37.256 0.199 8.39 13.16 14.02
12/22/2021 3:15:00 PM 2.9 37.22 0.199 8.38 13.2 13.97
12/22/2021 3:30:00 PM 2.9 37.22 0.199 8.37 13.15 13.94
12/22/2021 3:45:00 PM 2.89 37.202 0.199 8.35 13.09 13.89
12/22/2021 4:00:00 PM 2.87 37.166 0.198 8.31 13.33 13.81
12/22/2021 4:15:00 PM 2.84 37.112 0.199 8.27 13.12 13.75
12/22/2021 4:30:00 PM 2.81 37.058 0.198 8.21 13.21 13.65
12/22/2021 4:45:00 PM 2.78 37.004 0.198 8.14 13.17 13.52
12/22/2021 5:00:00 PM 2.75 36.95 0.198 8.06 13.16 13.39
12/22/2021 5:15:00 PM 2.71 36.878 0.198 7.99 13.16 13.3
12/22/2021 5:30:00 PM 2.68 36.824 0.198 7.93 13.07 13.13
12/22/2021 5:45:00 PM 2.66 36.788 0.199 7.89 13.27 13.14
12/22/2021 6:00:00 PM 2.64 36.752 0.199 7.86 13.34 13.1
12/22/2021 6:15:00 PM 2.62 36.716 0.2 7.83 13.07 13.04
12/22/2021 6:30:00 PM 2.58 36.644 0.2 7.8 13.18 13
12/22/2021 6:45:00 PM 2.54 36.572 0.2 7.76 13.23 12.94
12/22/2021 7:00:00 PM 2.5 36.5 0.2 7.74 13.24 12.9
12/22/2021 7:15:00 PM 2.46 36.428 0.2 7.72 13.35 12.9
12/22/2021 7:30:00 PM 2.42 36.356 0.199 7.7 13.75 12.88
12/22/2021 7:45:00 PM 2.39 36.302 0.199 7.69 13.56 12.86
12/22/2021 8:00:00 PM 2.36 36.248 0.198 7.67 13.53 12.86
12/22/2021 8:15:00 PM 2.34 36.212 0.199 7.66 13.39 12.84
12/22/2021 8:30:00 PM 2.31 36.158 0.2 7.65 13.59 12.83
12/22/2021 8:45:00 PM 2.28 36.104 0.201 7.64 13.3 12.81
12/22/2021 9:00:00 PM 2.24 36.032 0.202 7.63 13.51 12.81
12/22/2021 9:15:00 PM 2.19 35.942 0.203 7.62 13.42 12.8
12/22/2021 9:30:00 PM 2.14 35.852 0.203 7.61 13.31 12.78
12/22/2021 9:45:00 PM 2.09 35.762 0.204 7.61 13.52 12.79
12/22/2021 10:00:00 PM 2.06 35.708 0.204 7.6 13.5 12.81
12/22/2021 10:15:00 PM 2.02 35.636 0.203 7.59 13.4 12.81
12/22/2021 10:30:00 PM 1.98 35.564 0.203 7.6 13.38 12.81
12/22/2021 10:45:00 PM 1.95 35.51 0.204 7.56 13.42 12.7
12/22/2021 11:00:00 PM 1.91 35.438 0.204 7.59 13.3 12.82
12/22/2021 11:15:00 PM 1.88 35.384 0.205 7.58 13.48 12.86
12/22/2021 11:30:00 PM 1.85 35.33 0.206 7.58 13.49 12.87
12/22/2021 11:45:00 PM 1.82 35.276 0.207 7.58 13.39 12.87
12/23/2021 12:00:00 AM 1.8 35.24 0.208 7.58 13.31 12.89
12/23/2021 12:15:00 AM 1.79 35.222 0.209 7.54 13.32 12.89
12/23/2021 12:30:00 AM 1.79 35.222 0.209 7.58 13.4 12.9
12/23/2021 12:45:00 AM 1.79 35.222 0.209 7.58 13.4 12.9
12/23/2021 1:00:00 AM 1.77 35.186 0.209 7.57 13.37 12.86
12/23/2021 1:15:00 AM 1.77 35.186 0.208 7.57 13.33 12.91
12/23/2021 1:30:00 AM 1.76 35.168 0.208 7.57 13.37 12.92
12/23/2021 1:45:00 AM 1.75 35.15 0.208 7.56 13.34 12.92
12/23/2021 2:00:00 AM 1.74 35.132 0.209 7.56 13.38 12.94
12/23/2021 2:15:00 AM 1.73 35.114 0.209 7.56 13.3 12.95
12/23/2021 2:30:00 AM 1.72 35.096 0.21 7.56 13.38 12.95
12/23/2021 2:45:00 AM 1.71 35.078 0.21 7.55 13.32 12.96
12/23/2021 3:00:00 AM 1.7 35.06 0.21 7.56 13.33 12.97
12/23/2021 3:15:00 AM 1.68 35.024 0.21 7.55 13.37 12.96
12/23/2021 3:30:00 AM 1.66 34.988 0.21 7.56 13.34 12.94
12/23/2021 3:45:00 AM 1.63 34.934 0.209 7.5 13.43 12.95
12/23/2021 4:00:00 AM 1.62 34.916 0.209 7.56 13.28 12.94
12/23/2021 4:15:00 AM 1.61 34.898 0.208 7.5 13.32 12.91
12/23/2021 4:30:00 AM 1.6 34.88 0.208 7.56 13.33 12.99
12/23/2021 4:45:00 AM 1.6 34.88 0.208 7.52 13.22 13.01
12/23/2021 5:00:00 AM 1.59 34.862 0.209 7.55 13.23 13.02
12/23/2021 5:15:00 AM 1.59 34.862 0.209 7.55 13.19 13.03
12/23/2021 5:30:00 AM 1.58 34.844 0.21 7.55 13.34 13.02
12/23/2021 5:45:00 AM 1.57 34.826 0.21 7.55 13.3 13.04
12/23/2021 6:00:00 AM 1.57 34.826 0.21 7.55 13.31 13.04
12/23/2021 6:15:00 AM 1.57 34.826 0.209 7.54 14.07 13.02
12/23/2021 6:30:00 AM 1.56 34.808 0.209 7.55 13.1 13.05
12/23/2021 6:45:00 AM 1.55 34.79 0.208 7.54 13.2 12.97
12/23/2021 7:00:00 AM 1.54 34.772 0.208 7.54 13.28 13.06
12/23/2021 7:15:00 AM 1.53 34.754 0.208 7.53 13.15 13.08
12/23/2021 7:30:00 AM 1.52 34.736 0.208 7.54 13.31 13.08
12/23/2021 7:45:00 AM 1.52 34.736 0.209 7.54 13.34 13.1
12/23/2021 8:00:00 AM 1.51 34.718 0.209 7.54 13.28 13.11
12/23/2021 8:15:00 AM 1.51 34.718 0.209 7.55 13.24 13.19
12/23/2021 8:30:00 AM 1.51 34.718 0.21 7.6 13.23 13.31
12/23/2021 8:45:00 AM 1.53 34.754 0.209 7.62 13.21 13.34
12/23/2021 9:00:00 AM 1.55 34.79 0.209 7.66 13.2 13.59
12/23/2021 9:15:00 AM 1.57 34.826 0.208 7.71 13.32 13.73
12/23/2021 9:30:00 AM 1.6 34.88 0.208 7.76 13.18 13.88
12/23/2021 9:45:00 AM 1.63 34.934 0.207 7.83 13.16 14.08
12/23/2021 10:00:00 AM 1.67 35.006 0.207 7.89 13.04 14.18
12/23/2021 10:15:00 AM 1.71 35.078 0.207 7.95 13.14 14.37
12/23/2021 10:30:00 AM 1.76 35.168 0.207 8.04 13.13 14.5
12/23/2021 10:45:00 AM 1.85 35.33 0.207 8.12 13.13 14.65
12/23/2021 11:00:00 AM 1.9 35.42 0.207 8.2 13.18 14.74
12/23/2021 11:15:00 AM 1.92 35.456 0.208 8.24 13.13 14.8
12/23/2021 11:30:00 AM 1.99 35.582 0.207 8.29 13.02 14.87
12/23/2021 11:45:00 AM 2.06 35.708 0.207 8.35 12.97 14.86
12/23/2021 12:00:00 PM 2.13 35.834 0.206 8.4 13 14.91
12/23/2021 12:15:00 PM 2.19 35.942 0.206 8.45 13 14.97
12/23/2021 12:30:00 PM 2.23 36.014 0.205 8.5 13.01 15.02
12/23/2021 12:45:00 PM 2.29 36.122 0.205 8.56 12.94 15.11
12/23/2021 1:00:00 PM 2.36 36.248 0.205 8.61 12.94 15.17
12/23/2021 1:15:00 PM 2.42 36.356 0.204 8.63 13.01 15.19
12/23/2021 1:30:00 PM 2.48 36.464 0.204 8.68 12.98 15.2
12/23/2021 1:45:00 PM 2.53 36.554 0.205 8.71 12.89 15.19
12/23/2021 2:00:00 PM 2.57 36.626 0.205 8.74 12.9 15.18
12/23/2021 2:15:00 PM 2.6 36.68 0.204 8.75 13.02 15.13
12/23/2021 2:30:00 PM 2.63 36.734 0.204 8.77 12.97 15.11
12/23/2021 2:45:00 PM 2.65 36.77 0.204 8.79 12.9 15.09
12/23/2021 3:00:00 PM 2.67 36.806 0.203 8.79 12.98 15.04
12/23/2021 3:15:00 PM 2.68 36.824 0.203 8.79 12.97 14.95
12/23/2021 3:30:00 PM 2.67 36.806 0.203 8.77 12.8 14.86
12/23/2021 3:45:00 PM 2.66 36.788 0.202 8.74 12.98 14.74
12/23/2021 4:00:00 PM 2.67 36.806 0.203 8.7 12.97 14.63
12/23/2021 4:15:00 PM 2.67 36.806 0.203 8.67 13.01 14.47
12/23/2021 4:30:00 PM 2.67 36.806 0.203 8.62 13.21 14.35
12/23/2021 4:45:00 PM 2.68 36.824 0.204 8.55 12.96 14.17
12/23/2021 5:00:00 PM 2.67 36.806 0.204 8.45 12.91 13.98
12/23/2021 5:15:00 PM 2.67 36.806 0.204 8.36 12.89 13.81
12/23/2021 5:30:00 PM 2.66 36.788 0.203 8.27 12.85 13.64
12/23/2021 5:45:00 PM 2.65 36.77 0.203 8.19 12.95 13.5
12/23/2021 6:00:00 PM 2.63 36.734 0.203 8.12 12.98 13.42
12/23/2021 6:15:00 PM 2.62 36.716 0.203 8.06 12.99 13.37
12/23/2021 6:30:00 PM 2.6 36.68 0.204 7.98 13.04 13.25
12/23/2021 6:45:00 PM 2.58 36.644 0.204 7.95 12.92 13.21
12/23/2021 7:00:00 PM 2.57 36.626 0.204 7.91 12.87 13.18
12/23/2021 7:15:00 PM 2.56 36.608 0.205 7.86 13.02 13.12
12/23/2021 7:30:00 PM 2.55 36.59 0.205 7.83 12.83 13
12/23/2021 7:45:00 PM 2.54 36.572 0.205 7.8 13.06 13.01
12/23/2021 8:00:00 PM 2.53 36.554 0.205 7.77 13 12.94
12/23/2021 8:15:00 PM 2.53 36.554 0.205 7.75 13.22 12.91
12/23/2021 8:30:00 PM 2.53 36.554 0.205 7.72 12.98 12.88
12/23/2021 8:45:00 PM 2.53 36.554 0.205 7.7 12.93 12.83
12/23/2021 9:00:00 PM 2.53 36.554 0.206 7.69 12.91 12.74
12/23/2021 9:15:00 PM 2.53 36.554 0.207 7.67 13.02 12.78
12/23/2021 9:30:00 PM 2.53 36.554 0.207 7.66 12.98 12.75
12/23/2021 9:45:00 PM 2.54 36.572 0.208 7.65 13.04 12.74
12/23/2021 10:00:00 PM 2.55 36.59 0.209 7.65 12.94 12.73
12/23/2021 10:15:00 PM 2.56 36.608 0.209 7.64 12.93 12.71
12/23/2021 10:30:00 PM 2.55 36.59 0.209 7.64 13.21 12.68
12/23/2021 10:45:00 PM 2.53 36.554 0.209 7.62 12.99 12.64
12/23/2021 11:00:00 PM 2.48 36.464 0.21 7.61 13.09 12.62
12/23/2021 11:15:00 PM 2.48 36.464 0.21 7.62 13.03 12.63
12/23/2021 11:30:00 PM 2.49 36.482 0.21 7.59 13.01 12.57
12/23/2021 11:45:00 PM 2.49 36.482 0.211 7.61 12.97 12.61
12/24/2021 12:00:00 AM 2.5 36.5 0.212 7.6 12.92 12.62
12/24/2021 12:15:00 AM 2.51 36.518 0.212 7.6 12.83 12.61
12/24/2021 12:30:00 AM 2.53 36.554 0.214 7.6 12.87 12.57
12/24/2021 12:45:00 AM 2.54 36.572 0.214 7.6 12.74 12.58
12/24/2021 1:00:00 AM 2.55 36.59 0.214 7.59 12.95 12.57
12/24/2021 1:15:00 AM 2.57 36.626 0.215 7.59 12.89 12.57
12/24/2021 1:30:00 AM 2.58 36.644 0.214 7.59 12.81 12.55
12/24/2021 1:45:00 AM 2.59 36.662 0.214 7.59 12.89 12.54
12/24/2021 2:00:00 AM 2.6 36.68 0.215 7.59 12.85 12.53
12/24/2021 2:15:00 AM 2.61 36.698 0.215 7.58 12.9 12.53
12/24/2021 2:30:00 AM 2.62 36.716 0.216 7.58 12.81 12.51
12/24/2021 2:45:00 AM 2.63 36.734 0.217 7.58 12.86 12.52
12/24/2021 3:00:00 AM 2.64 36.752 0.217 7.58 12.83 12.51
12/24/2021 3:15:00 AM 2.65 36.77 0.218 7.58 12.88 12.5
12/24/2021 3:30:00 AM 2.66 36.788 0.218 7.58 12.88 12.49
12/24/2021 3:45:00 AM 2.66 36.788 0.218 7.57 12.77 12.5
12/24/2021 4:00:00 AM 2.67 36.806 0.217 7.57 12.87 12.49
12/24/2021 4:15:00 AM 2.67 36.806 0.217 7.57 12.87 12.49
12/24/2021 4:30:00 AM 2.68 36.824 0.217 7.57 12.73 12.48
12/24/2021 4:45:00 AM 2.68 36.824 0.217 7.56 12.8 12.47
12/24/2021 5:00:00 AM 2.69 36.842 0.217 7.55 12.74 12.5
12/24/2021 5:15:00 AM 2.69 36.842 0.217 7.57 12.84 12.5
12/24/2021 5:30:00 AM 2.69 36.842 0.218 7.56 12.82 12.5
12/24/2021 5:45:00 AM 2.69 36.842 0.218 7.56 13.12 12.5
12/24/2021 6:00:00 AM 2.67 36.806 0.218 7.57 12.8 12.5
12/24/2021 6:15:00 AM 2.65 36.77 0.218 7.55 12.99 12.5
12/24/2021 6:30:00 AM 2.63 36.734 0.218 7.56 12.79 12.48
12/24/2021 6:45:00 AM 2.59 36.662 0.218 7.56 12.82 12.5
12/24/2021 7:00:00 AM 2.56 36.608 0.217 7.55 12.73 12.52
12/24/2021 7:15:00 AM 2.53 36.554 0.217 7.55 12.79 12.47
12/24/2021 7:30:00 AM 2.5 36.5 0.217 7.55 12.76 12.49
12/24/2021 7:45:00 AM 2.47 36.446 0.217 7.55 12.87 12.5
12/24/2021 8:00:00 AM 2.45 36.41 0.217 7.55 12.85 12.6
12/24/2021 8:15:00 AM 2.44 36.392 0.217 7.58 12.75 12.73
12/24/2021 8:30:00 AM 2.42 36.356 0.217 7.62 12.95 12.84
12/24/2021 8:45:00 AM 2.42 36.356 0.217 7.65 12.8 13.03
12/24/2021 9:00:00 AM 2.43 36.374 0.217 7.7 12.77 13.21
12/24/2021 9:15:00 AM 2.46 36.428 0.216 7.75 12.69 13.39
12/24/2021 9:30:00 AM 2.52 36.536 0.215 7.82 12.77 13.5
12/24/2021 9:45:00 AM 2.62 36.716 0.215 7.91 12.77 13.76
12/24/2021 10:00:00 AM 2.71 36.878 0.214 8.01 12.8 13.97
12/24/2021 10:15:00 AM 2.78 37.004 0.213 8.09 12.7 14.15
12/24/2021 10:30:00 AM 2.85 37.13 0.213 8.17 12.75 14.26
12/24/2021 10:45:00 AM 2.92 37.256 0.213 8.24 12.61 14.36
12/24/2021 11:00:00 AM 3.01 37.418 0.213 8.32 12.7 14.46
12/24/2021 11:15:00 AM 3.1 37.58 0.213 8.39 12.8 14.53
12/24/2021 11:30:00 AM 3.2 37.76 0.213 8.46 12.52 14.59
12/24/2021 11:45:00 AM 3.28 37.904 0.212 8.52 12.69 14.65
12/24/2021 12:00:00 PM 3.36 38.048 0.212 8.57 12.6 14.68
12/24/2021 12:15:00 PM 3.43 38.174 0.211 8.62 12.63 14.74
12/24/2021 12:30:00 PM 3.52 38.336 0.21 8.67 12.68 14.81
12/24/2021 12:45:00 PM 3.59 38.462 0.21 8.7 48.83 14.74
12/24/2021 1:00:00 PM 3.67 38.606 0.209 8.75 10.33 14.8
12/24/2021 1:15:00 PM 3.75 38.75 0.209 8.78 11.97 14.81
12/24/2021 1:30:00 PM 3.85 38.93 0.21 8.79 96.51 14.82
12/24/2021 1:45:00 PM 3.95 39.11 0.209 8.87 9.03 14.86
12/24/2021 2:00:00 PM 4.02 39.236 0.21 8.89 11.11 14.84
12/24/2021 2:15:00 PM 4.08 39.344 0.21 8.9 11.46 14.77
12/24/2021 2:30:00 PM 4.13 39.434 0.21 8.92 11.36 14.75
12/24/2021 2:45:00 PM 4.16 39.488 0.209 8.92 11.38 14.69
12/24/2021 3:00:00 PM 4.19 39.542 0.209 8.92 11.46 14.57
12/24/2021 3:15:00 PM 4.21 39.578 0.208 8.9 12.19 14.43
12/24/2021 3:30:00 PM 4.23 39.614 0.208 8.87 11.54 14.28
12/24/2021 3:45:00 PM 4.24 39.632 0.208 8.84 11.58 14.16
12/24/2021 4:00:00 PM 4.25 39.65 0.208 8.8 11.67 13.99
12/24/2021 4:15:00 PM 4.26 39.668 0.208 8.75 11.34 13.82
12/24/2021 4:30:00 PM 4.27 39.686 0.209 8.69 11.65 13.64
12/24/2021 4:45:00 PM 4.26 39.668 0.209 8.6 11.89 13.47
12/24/2021 5:00:00 PM 4.25 39.65 0.209 8.53 12.22 13.27
12/24/2021 5:15:00 PM 4.24 39.632 0.209 8.43 11.98 13.1
12/24/2021 5:30:00 PM 4.23 39.614 0.209 8.34 11.82 12.96
12/24/2021 5:45:00 PM 4.2 39.56 0.209 8.25 12.78 12.84
12/24/2021 6:00:00 PM 4.19 39.542 0.209 8.18 12.72 12.75
12/24/2021 6:15:00 PM 4.17 39.506 0.209 8.11 12.47 12.67
12/24/2021 6:30:00 PM 4.14 39.452 0.209 8.05 12.39 12.58
12/24/2021 6:45:00 PM 4.12 39.416 0.209 7.99 12.57 12.49
12/24/2021 7:00:00 PM 4.1 39.38 0.21 7.94 12.35 12.42
12/24/2021 7:15:00 PM 4.09 39.362 0.21 7.9 12.49 12.39
12/24/2021 7:30:00 PM 4.09 39.362 0.211 7.86 12.3 12.35
12/24/2021 7:45:00 PM 4.1 39.38 0.211 7.83 12.29 12.19
12/24/2021 8:00:00 PM 4.11 39.398 0.211 7.81 13.79 12.22
12/24/2021 8:15:00 PM 4.13 39.434 0.212 7.78 12.25 12.19
12/24/2021 8:30:00 PM 4.14 39.452 0.212 7.76 12.06 12.14
12/24/2021 8:45:00 PM 4.15 39.47 0.212 7.74 12.14 12.09
12/24/2021 9:00:00 PM 4.16 39.488 0.213 7.72 12.12 12.09
12/24/2021 9:15:00 PM 4.17 39.506 0.213 7.71 11.9 12.06
12/24/2021 9:30:00 PM 4.19 39.542 0.214 7.7 11.96 12.02
12/24/2021 9:45:00 PM 4.21 39.578 0.214 7.69 12.05 12
12/24/2021 10:00:00 PM 4.22 39.596 0.214 7.68 11.97 11.97
12/24/2021 10:15:00 PM 4.24 39.632 0.215 7.67 12.12 11.85
12/24/2021 10:30:00 PM 4.26 39.668 0.214 7.66 11.83 11.92
12/24/2021 10:45:00 PM 4.28 39.704 0.214 7.65 11.94 11.91
12/24/2021 11:00:00 PM 4.3 39.74 0.214 7.65 12.41 11.83
12/24/2021 11:15:00 PM 4.32 39.776 0.214 7.65 12.29 11.85
12/24/2021 11:30:00 PM 4.33 39.794 0.214 7.64 12.14 11.86
12/24/2021 11:45:00 PM 4.35 39.83 0.215 7.64 12 11.85
12/25/2021 12:00:00 AM 4.37 39.866 0.216 7.63 11.79 11.83
12/25/2021 12:15:00 AM 4.39 39.902 0.217 7.63 11.83 11.81
12/25/2021 12:30:00 AM 4.41 39.938 0.218 7.63 12.05 11.81
12/25/2021 12:45:00 AM 4.43 39.974 0.218 7.63 12.46 11.79
12/25/2021 1:00:00 AM 4.44 39.992 0.219 7.62 12.02 11.77
12/25/2021 1:15:00 AM 4.45 40.01 0.219 7.62 11.98 11.76
12/25/2021 1:30:00 AM 4.46 40.028 0.219 7.61 12.15 11.69
12/25/2021 1:45:00 AM 4.46 40.028 0.218 7.62 12.12 11.74
12/25/2021 2:00:00 AM 4.47 40.046 0.218 7.6 13.25 11.73
12/25/2021 2:15:00 AM 4.48 40.064 0.219 7.6 12.48 11.72
12/25/2021 2:30:00 AM 4.48 40.064 0.219 7.6 15.51 11.7
12/25/2021 2:45:00 AM 4.49 40.082 0.22 7.6 12.43 11.71
12/25/2021 3:00:00 AM 4.49 40.082 0.22 7.6 12.32 11.7
12/25/2021 3:15:00 AM 4.5 40.1 0.221 7.59 12.32 11.69
12/25/2021 3:30:00 AM 4.51 40.118 0.222 7.6 12.88 11.66
12/25/2021 3:45:00 AM 4.52 40.136 0.221 7.6 12.28 11.67
12/25/2021 4:00:00 AM 4.53 40.154 0.221 7.6 12.49 11.67
12/25/2021 4:15:00 AM 4.53 40.154 0.22 7.59 12.36 11.66
12/25/2021 4:30:00 AM 4.54 40.172 0.22 7.6 12.44 11.66
12/25/2021 4:45:00 AM 4.55 40.19 0.22 7.59 12.6 11.65
12/25/2021 5:00:00 AM 4.55 40.19 0.22 7.59 12.46 11.64
12/25/2021 5:15:00 AM 4.55 40.19 0.22 7.57 13.14 11.62
12/25/2021 5:30:00 AM 4.56 40.208 0.221 7.59 12.38 11.59
12/25/2021 5:45:00 AM 4.56 40.208 0.221 7.59 12.12 11.59
12/25/2021 6:00:00 AM 4.56 40.208 0.221 7.57 12.05 11.63
12/25/2021 6:15:00 AM 4.57 40.226 0.221 7.58 12.02 11.62
12/25/2021 6:30:00 AM 4.57 40.226 0.221 7.59 12.17 11.61
12/25/2021 6:45:00 AM 4.57 40.226 0.22 7.59 11.6 11.58
12/25/2021 7:00:00 AM 4.57 40.226 0.219 7.59 11.9 11.61
12/25/2021 7:15:00 AM 4.57 40.226 0.218 7.58 11.89 11.61
12/25/2021 7:30:00 AM 4.57 40.226 0.217 7.58 12.04 11.61
12/25/2021 7:45:00 AM 4.57 40.226 0.216 7.58 11.89 11.61
12/25/2021 8:00:00 AM 4.57 40.226 0.215 7.55 12.08 11.63
12/25/2021 8:15:00 AM 4.57 40.226 0.214 7.6 12.88 11.7
12/25/2021 8:30:00 AM 4.58 40.244 0.213 7.62 12.67 11.8
12/25/2021 8:45:00 AM 4.59 40.262 0.212 7.64 13.08 11.94
12/25/2021 9:00:00 AM 4.61 40.298 0.211 7.67 13.86 12.06
12/25/2021 9:15:00 AM 4.62 40.316 0.209 7.7 13.88 12.18
12/25/2021 9:30:00 AM 4.63 40.334 0.208 7.72 13.92 12.28
12/25/2021 9:45:00 AM 4.66 40.388 0.209 7.75 13.85 12.37
12/25/2021 10:00:00 AM 4.7 40.46 0.211 7.78 14.72 12.48
12/25/2021 10:15:00 AM 4.75 40.55 0.213 7.85 14.95 12.66
12/25/2021 10:30:00 AM 4.79 40.622 0.213 7.9 13.63 12.75
12/25/2021 10:45:00 AM 4.82 40.676 0.213 7.91 15.58 12.73
12/25/2021 11:00:00 AM 4.86 40.748 0.212 7.92 14.77 12.73
12/25/2021 11:15:00 AM 4.93 40.874 0.211 7.98 14.88 12.89
12/25/2021 11:30:00 AM 5.01 41.018 0.21 8.06 14.91 13.06
12/25/2021 11:45:00 AM 5.07 41.126 0.209 8.1 15.79 13.09
12/25/2021 12:00:00 PM 5.16 41.288 0.204 8.05 19.81 13.04
12/25/2021 12:15:00 PM 5.27 41.486 0.197 8.08 25.36 12.96
12/25/2021 12:30:00 PM 5.41 41.738 0.191 8.03 30.84 12.86
12/25/2021 12:45:00 PM 5.55 41.99 0.191 8.05 40.05 12.84
12/25/2021 1:00:00 PM 5.65 42.17 0.193 8.04 52.2 12.82
12/25/2021 1:15:00 PM 5.75 42.35 0.193 8.09 44.98 12.85
12/25/2021 1:30:00 PM 5.83 42.494 0.193 8.11 44.22 12.82
12/25/2021 1:45:00 PM 5.92 42.656 0.196 8.14 38.24 12.83
12/25/2021 2:00:00 PM 5.99 42.782 0.201 8.16 48.85 12.79
12/25/2021 2:15:00 PM 6.06 42.908 0.202 8.19 32.74 12.77
12/25/2021 2:30:00 PM 6.12 43.016 0.202 8.13 31.2 12.68
12/25/2021 2:45:00 PM 6.19 43.142 0.201 8.21 33.37 12.69
12/25/2021 3:00:00 PM 6.26 43.268 0.201 8.22 31.02 12.68
12/25/2021 3:15:00 PM 6.3 43.34 0.201 8.22 34.16 12.63
12/25/2021 3:30:00 PM 6.33 43.394 0.2 8.15 35.67 12.47
12/25/2021 3:45:00 PM 6.37 43.466 0.199 8.13 27.98 12.35
12/25/2021 4:00:00 PM 6.4 43.52 0.199 8.05 28.05 12.19
12/25/2021 4:15:00 PM 6.46 43.628 0.199 7.98 178.07 12.03
12/25/2021 4:30:00 PM 6.53 43.754 0.202 7.92 33.78 11.86
12/25/2021 4:45:00 PM 6.6 43.88 0.206 7.87 26.44 11.69
12/25/2021 5:00:00 PM 6.67 44.006 0.21 7.82 20.5 11.55
12/25/2021 5:15:00 PM 6.76 44.168 0.214 7.78 33.44 11.45
12/25/2021 5:30:00 PM 6.83 44.294 0.217 7.76 150.39 11.34
12/25/2021 5:45:00 PM 6.9 44.42 0.219 7.72 24.62 11.24
12/25/2021 6:00:00 PM 6.96 44.528 0.223 7.72 24.82 11.17
12/25/2021 6:15:00 PM 7 44.6 0.229 7.7 28.15 11.13
12/25/2021 6:30:00 PM 7.04 44.672 0.231 7.68 29.16 11.07
12/25/2021 6:45:00 PM 7.07 44.726 0.236 7.67 1064.6 11.01
12/25/2021 7:00:00 PM 7.1 44.78 0.238 7.67 27.38 10.97
12/25/2021 7:15:00 PM 7.13 44.834 0.236 7.66 24.99 10.94
12/25/2021 7:30:00 PM 7.15 44.87 0.234 7.64 27.78 10.91
12/25/2021 7:45:00 PM 7.15 44.87 0.23 7.63 28.33 10.87
12/25/2021 8:00:00 PM 7.17 44.906 0.228 7.56 27.1 10.85
12/25/2021 8:15:00 PM 7.19 44.942 0.226 7.61 28.67 10.85
12/25/2021 8:30:00 PM 7.22 44.996 0.225 7.6 325.52 10.81
12/25/2021 8:45:00 PM 7.26 45.068 0.226 7.59 27.78 10.77
12/25/2021 9:00:00 PM 7.3 45.14 0.227 7.59 36.38 10.74
12/25/2021 9:15:00 PM 7.35 45.23 0.229 7.58 28.36 10.71
12/25/2021 9:30:00 PM 7.4 45.32 0.23 7.57 24.32 10.67
12/25/2021 9:45:00 PM 7.43 45.374 0.229 7.57 25.33 10.65
12/25/2021 10:00:00 PM 7.46 45.428 0.226 7.57 88.33 10.64
12/25/2021 10:15:00 PM 7.46 45.428 0.221 7.57 47 10.64
12/25/2021 10:30:00 PM 7.44 45.392 0.216 7.56 7154.52 10.64
12/25/2021 10:45:00 PM 7.41 45.338 0.213 7.56 22.58 10.63
12/25/2021 11:00:00 PM 7.4 45.32 0.21 7.55 26.67 10.65
12/25/2021 11:15:00 PM 7.4 45.32 0.208 7.55 21.25 10.63
12/25/2021 11:30:00 PM 7.39 45.302 0.206 7.55 21.24 10.62
12/25/2021 11:45:00 PM 7.38 45.284 0.205 7.54 21.3 10.62
12/26/2021 12:00:00 AM 7.37 45.266 0.204 7.54 20.03 10.62
12/26/2021 12:15:00 AM 7.37 45.266 0.205 7.54 20.1 10.63
12/26/2021 12:30:00 AM 7.37 45.266 0.207 7.55 28.22 10.63
12/26/2021 12:45:00 AM 7.37 45.266 0.208 7.54 715.07 10.65
12/26/2021 1:00:00 AM 7.35 45.23 0.207 7.55 20.8 10.66
12/26/2021 1:15:00 AM 7.33 45.194 0.206 7.55 18.08 10.68
12/26/2021 1:30:00 AM 7.29 45.122 0.205 7.55 17.59 10.71
12/26/2021 1:45:00 AM 7.24 45.032 0.204 7.55 16.65 10.73
12/26/2021 2:00:00 AM 7.18 44.924 0.202 7.52 15.97 10.74
12/26/2021 2:15:00 AM 7.13 44.834 0.202 7.56 1756.83 10.78
12/26/2021 2:30:00 AM 7.09 44.762 0.201 7.56 15.56 10.77
12/26/2021 2:45:00 AM 7.03 44.654 0.2 7.56 16.48 10.83
12/26/2021 3:00:00 AM 6.98 44.564 0.199 7.55 15.58 10.86
12/26/2021 3:15:00 AM 6.93 44.474 0.199 7.56 14.48 10.87
12/26/2021 3:30:00 AM 6.9 44.42 0.2 7.56 15.76 10.87
12/26/2021 3:45:00 AM 6.86 44.348 0.202 7.56 17.01 10.9
12/26/2021 4:00:00 AM 6.83 44.294 0.203 7.57 13.84 10.9
12/26/2021 4:15:00 AM 6.8 44.24 0.203 7.57 12.99 10.92
12/26/2021 4:30:00 AM 6.77 44.186 0.202 7.53 17.4 10.92
12/26/2021 4:45:00 AM 6.74 44.132 0.202 7.58 20.7 10.94
12/26/2021 5:00:00 AM 6.7 44.06 0.201 7.57 13.22 10.97
12/26/2021 5:15:00 AM 6.66 43.988 0.201 7.57 23.02 10.95
12/26/2021 5:30:00 AM 6.61 43.898 0.2 7.57 11.99 10.94
12/26/2021 5:45:00 AM 6.58 43.844 0.2 7.57 12.77 11
12/26/2021 6:00:00 AM 6.53 43.754 0.199 7.57 11.38 11.03
12/26/2021 6:15:00 AM 6.49 43.682 0.199 7.57 11.22 11.05
12/26/2021 6:30:00 AM 6.45 43.61 0.199 7.55 11.05 11.07
12/26/2021 6:45:00 AM 6.41 43.538 0.201 7.58 10.39 10.99
12/26/2021 7:00:00 AM 6.37 43.466 0.201 7.58 9.89 11.09
12/26/2021 7:15:00 AM 6.34 43.412 0.203 7.57 10.51 11.12
12/26/2021 7:30:00 AM 6.29 43.322 0.203 7.59 13.65 11.12
12/26/2021 7:45:00 AM 6.24 43.232 0.202 7.59 9.44 11.17
12/26/2021 8:00:00 AM 6.19 43.142 0.201 7.6 10.55 11.23
12/26/2021 8:15:00 AM 6.16 43.088 0.2 7.61 9.11 11.32
12/26/2021 8:30:00 AM 6.12 43.016 0.2 7.63 12.16 11.43
12/26/2021 8:45:00 AM 6.09 42.962 0.199 7.65 9.29 11.54
12/26/2021 9:00:00 AM 6.06 42.908 0.199 7.68 8.64 11.66
12/26/2021 9:15:00 AM 6.02 42.836 0.198 7.7 11.11 11.75
12/26/2021 9:30:00 AM 5.99 42.782 0.199 7.73 10.98 11.83
12/26/2021 9:45:00 AM 5.99 42.782 0.2 7.77 9.14 12.01
12/26/2021 10:00:00 AM 6.05 42.89 0.201 7.82 7.42 12.19
12/26/2021 10:15:00 AM 6.09 42.962 0.202 7.88 6.9 12.37
12/26/2021 10:30:00 AM 6.13 43.034 0.202 7.94 9.79 12.51
12/26/2021 10:45:00 AM 6.16 43.088 0.202 7.99 7.59 12.63
12/26/2021 11:00:00 AM 6.19 43.142 0.202 8.04 8.43 12.73
12/26/2021 11:15:00 AM 6.21 43.178 0.201 8.09 7.94 12.77
12/26/2021 11:30:00 AM 6.22 43.196 0.2 8.14 23.51 12.86
12/26/2021 11:45:00 AM 6.24 43.232 0.2 8.16 7.16 12.93
12/26/2021 12:00:00 PM 6.25 43.25 0.199 8.21 7.07 13
12/26/2021 12:15:00 PM 6.27 43.286 0.198 8.26 7.08 12.97
12/26/2021 12:30:00 PM 6.3 43.34 0.198 8.28 7.3 13.05
12/26/2021 12:45:00 PM 6.33 43.394 0.198 8.34 6.5 13.14
12/26/2021 1:00:00 PM 6.39 43.502 0.2 8.39 6.78 13.19
12/26/2021 1:15:00 PM 6.42 43.556 0.201 8.44 6.32 13.26
12/26/2021 1:30:00 PM 6.45 43.61 0.202 8.47 6.55 13.28
12/26/2021 1:45:00 PM 6.47 43.646 0.203 8.49 6.61 13.27
12/26/2021 2:00:00 PM 6.46 43.628 0.203 8.49 6.54 13.24
12/26/2021 2:15:00 PM 6.45 43.61 0.203 8.49 13.12 13.21
12/26/2021 2:30:00 PM 6.43 43.574 0.202 8.49 5.77 13.18
12/26/2021 2:45:00 PM 6.41 43.538 0.201 8.48 5.39 13.12
12/26/2021 3:00:00 PM 6.37 43.466 0.201 8.44 6.22 13.06
12/26/2021 3:15:00 PM 6.33 43.394 0.2 8.41 6.1 12.95
12/26/2021 3:30:00 PM 6.3 43.34 0.201 8.39 5.93 12.93
12/26/2021 3:45:00 PM 6.28 43.304 0.201 8.38 6.48 12.91
12/26/2021 4:00:00 PM 6.24 43.232 0.202 8.35 6.48 12.78
12/26/2021 4:15:00 PM 6.2 43.16 0.202 8.32 5.23 12.79
12/26/2021 4:30:00 PM 6.16 43.088 0.202 8.27 5.46 12.7
12/26/2021 4:45:00 PM 6.12 43.016 0.202 8.2 9.97 12.58
12/26/2021 5:00:00 PM 6.06 42.908 0.201 8.13 5.37 12.43
12/26/2021 5:15:00 PM 6 42.8 0.2 8.05 4.94 12.26
12/26/2021 5:30:00 PM 5.95 42.71 0.199 8 7.32 12.2
12/26/2021 5:45:00 PM 5.89 42.602 0.198 7.94 6.22 12.1
12/26/2021 6:00:00 PM 5.84 42.512 0.197 7.91 9.24 12.04
12/26/2021 6:15:00 PM 5.79 42.422 0.197 7.88 4.96 11.99
12/26/2021 6:30:00 PM 5.75 42.35 0.198 7.85 6.59 11.93
12/26/2021 6:45:00 PM 5.72 42.296 0.199 7.83 5.58 11.89
12/26/2021 7:00:00 PM 5.69 42.242 0.2 7.75 6.06 11.84
12/26/2021 7:15:00 PM 5.67 42.206 0.202 7.8 5.87 11.79
12/26/2021 7:30:00 PM 5.64 42.152 0.203 7.77 5.52 11.77
12/26/2021 7:45:00 PM 5.61 42.098 0.203 7.76 5.48 11.74
12/26/2021 8:00:00 PM 5.58 42.044 0.202 7.71 5.56 11.71
12/26/2021 8:15:00 PM 5.54 41.972 0.202 7.74 5.72 11.7
12/26/2021 8:30:00 PM 5.49 41.882 0.201 7.72 5.56 11.69
12/26/2021 8:45:00 PM 5.43 41.774 0.201 7.71 5.66 11.67
12/26/2021 9:00:00 PM 5.38 41.684 0.201 7.7 5.2 11.66
12/26/2021 9:15:00 PM 5.34 41.612 0.202 7.69 5.51 11.69
12/26/2021 9:30:00 PM 5.29 41.522 0.204 7.68 5.57 11.68
12/26/2021 9:45:00 PM 5.24 41.432 0.205 7.67 5.34 11.68
12/26/2021 10:00:00 PM 5.19 41.342 0.207 7.67 5.16 11.69
12/26/2021 10:15:00 PM 5.14 41.252 0.208 7.67 5.19 11.69
12/26/2021 10:30:00 PM 5.09 41.162 0.208 7.67 4.95 11.7
12/26/2021 10:45:00 PM 5.04 41.072 0.208 7.64 4.99 11.71
12/26/2021 11:00:00 PM 4.97 40.946 0.206 7.65 5.21 11.74
12/26/2021 11:15:00 PM 4.91 40.838 0.205 7.65 5.08 11.77
12/26/2021 11:30:00 PM 4.84 40.712 0.204 7.64 5.06 11.79
12/26/2021 11:45:00 PM 4.78 40.604 0.203 7.64 5.12 11.81
12/27/2021 12:00:00 AM 4.72 40.496 0.203 7.64 4.95 11.82
12/27/2021 12:15:00 AM 4.67 40.406 0.204 7.63 4.76 11.83
12/27/2021 12:30:00 AM 4.62 40.316 0.205 7.63 4.72 11.84
12/27/2021 12:45:00 AM 4.58 40.244 0.206 7.63 5.07 11.83
12/27/2021 1:00:00 AM 4.54 40.172 0.208 7.63 4.76 11.82
12/27/2021 1:15:00 AM 4.49 40.082 0.208 7.59 4.81 11.85
12/27/2021 1:30:00 AM 4.44 39.992 0.207 7.63 4.62 11.88
12/27/2021 1:45:00 AM 4.4 39.92 0.206 7.59 4.64 11.89
12/27/2021 2:00:00 AM 4.36 39.848 0.204 7.62 4.86 11.94
12/27/2021 2:15:00 AM 4.32 39.776 0.203 7.61 4.53 11.95
12/27/2021 2:30:00 AM 4.27 39.686 0.203 7.61 4.68 11.97
12/27/2021 2:45:00 AM 4.23 39.614 0.203 7.61 4.65 11.98
12/27/2021 3:00:00 AM 4.19 39.542 0.203 7.6 4.6 11.98
12/27/2021 3:15:00 AM 4.16 39.488 0.205 7.61 4.53 12
12/27/2021 3:30:00 AM 4.14 39.452 0.206 7.61 4.66 11.99
12/27/2021 3:45:00 AM 4.12 39.416 0.207 7.61 4.34 12.03
12/27/2021 4:00:00 AM 4.1 39.38 0.207 7.62 4.39 12.02
12/27/2021 4:15:00 AM 4.09 39.362 0.207 7.61 4.59 12.04
12/27/2021 4:30:00 AM 4.06 39.308 0.206 7.59 4.43 12.06
12/27/2021 4:45:00 AM 4.03 39.254 0.205 7.61 4.69 12.06
12/27/2021 5:00:00 AM 4 39.2 0.203 7.6 4.41 12.06
12/27/2021 5:15:00 AM 3.97 39.146 0.203 7.6 4.44 12.08
12/27/2021 5:30:00 AM 3.94 39.092 0.203 7.59 4.38 12.1
12/27/2021 5:45:00 AM 3.93 39.074 0.204 7.59 4.35 12.09
12/27/2021 6:00:00 AM 3.91 39.038 0.205 7.6 4.31 12.11
12/27/2021 6:15:00 AM 3.91 39.038 0.206 7.61 4.56 12.11
12/27/2021 6:30:00 AM 3.9 39.02 0.207 7.61 4.4 12.09
12/27/2021 6:45:00 AM 3.89 39.002 0.208 7.61 4.3 12.11
12/27/2021 7:00:00 AM 3.88 38.984 0.207 7.61 4.3 12.11
12/27/2021 7:15:00 AM 3.86 38.948 0.206 7.6 4.22 12.11
12/27/2021 7:30:00 AM 3.85 38.93 0.205 7.61 4.51 12.13
12/27/2021 7:45:00 AM 3.83 38.894 0.204 7.61 4.18 12.12
12/27/2021 8:00:00 AM 3.82 38.876 0.203 7.61 4.37 12.16
12/27/2021 8:15:00 AM 3.81 38.858 0.203 7.61 4.36 12.13
12/27/2021 8:30:00 AM 3.81 38.858 0.204 7.61 4.3 12.18
12/27/2021 8:45:00 AM 3.71 38.678 0.205 7.61 4.26 12.2
12/27/2021 9:00:00 AM 3.23 37.814 0.205 7.57 4.22 12.21
12/27/2021 9:15:00 AM 2.96 37.328 0.204 7.59 4.33 12.27
12/27/2021 9:30:00 AM 2.54 36.572 0.203 7.58 4.64 12.38
12/27/2021 9:45:00 AM 2.25 36.05 0.201 7.61 4.54 12.53
12/27/2021 10:00:00 AM 2.15 35.87 0.2 7.65 4.23 12.74
12/27/2021 10:15:00 AM 2.07 35.726 0.198 7.68 4.26 12.9
12/27/2021 10:30:00 AM 2.03 35.654 0.197 7.71 4.15 13.05
12/27/2021 10:45:00 AM 2.08 35.744 0.197 7.75 4.29 13.14
12/27/2021 11:00:00 AM 2.01 35.618 0.197 7.77 4.15 13.2
12/27/2021 11:15:00 AM 2.01 35.618 0.197 7.78 14.18 13.3
12/27/2021 11:30:00 AM 2.05 35.69 0.197 7.79 4.27 13.36
12/27/2021 11:45:00 AM 2.1 35.78 0.198 7.81 4.28 13.41
12/27/2021 12:00:00 PM 2.12 35.816 0.197 7.83 4.29 13.49
12/27/2021 12:15:00 PM 2.12 35.816 0.196 7.86 4.2 13.61
12/27/2021 12:30:00 PM 2.11 35.798 0.195 7.86 5.06 13.67
12/27/2021 12:45:00 PM 2.11 35.798 0.193 7.88 4.27 13.72
12/27/2021 1:00:00 PM 2.12 35.816 0.193 7.92 4.24 13.79
12/27/2021 1:15:00 PM 2.16 35.888 0.192 7.94 4.26 13.81
12/27/2021 1:30:00 PM 2.21 35.978 0.192 7.96 4.18 13.85
12/27/2021 1:45:00 PM 2.29 36.122 0.193 7.98 4.27 13.89
12/27/2021 2:00:00 PM 2.36 36.248 0.194 8.01 3.73 13.89
12/27/2021 2:15:00 PM 2.43 36.374 0.195 8.01 3.89 13.86
12/27/2021 2:30:00 PM 2.5 36.5 0.195 8.02 3.9 13.82
12/27/2021 2:45:00 PM 2.57 36.626 0.195 8.02 4.71 13.8
12/27/2021 3:00:00 PM 2.61 36.698 0.194 8.01 4.35 13.75
12/27/2021 3:15:00 PM 2.64 36.752 0.193 7.98 8.06 13.67
12/27/2021 3:30:00 PM 2.67 36.806 0.193 7.95 3.54 13.59
12/27/2021 3:45:00 PM 2.7 36.86 0.193 7.93 5.41 13.51
12/27/2021 4:00:00 PM 2.72 36.896 0.193 7.88 4.01 13.42
12/27/2021 4:15:00 PM 2.74 36.932 0.195 7.87 4.23 13.34
12/27/2021 4:30:00 PM 2.75 36.95 0.196 7.84 4.09 13.25
12/27/2021 4:45:00 PM 2.77 36.986 0.197 7.79 7.19 13.17
12/27/2021 5:00:00 PM 2.78 37.004 0.197 7.78 4.26 13.09
12/27/2021 5:15:00 PM 2.77 36.986 0.197 7.74 3.75 13.02
12/27/2021 5:30:00 PM 2.75 36.95 0.198 7.73 5.27 12.96
12/27/2021 5:45:00 PM 2.77 36.986 0.199 7.71 13.73 12.91
12/27/2021 6:00:00 PM 2.78 37.004 0.201 7.69 4.25 12.85
12/27/2021 6:15:00 PM 2.79 37.022 0.202 7.67 6.1 12.81
12/27/2021 6:30:00 PM 2.79 37.022 0.202 7.65 5.68 12.76
12/27/2021 6:45:00 PM 2.76 36.968 0.2 7.62 6.36 12.74
12/27/2021 7:00:00 PM 2.78 37.004 0.201 7.59 11.1 12.71
12/27/2021 7:15:00 PM 2.77 36.986 0.209 7.56 11.89 12.7
12/27/2021 7:30:00 PM 2.77 36.986 0.211 7.59 14.71 12.69
12/27/2021 7:45:00 PM 2.78 37.004 0.213 7.57 20.91 12.67
12/27/2021 8:00:00 PM 2.79 37.022 0.211 7.54 19.15 12.64
12/27/2021 8:15:00 PM 2.77 36.986 0.205 7.51 26.65 12.63
12/27/2021 8:30:00 PM 2.75 36.95 0.199 7.49 38.21 12.65
12/27/2021 8:45:00 PM 2.71 36.878 0.197 7.48 45.22 12.66
12/27/2021 9:00:00 PM 2.69 36.842 0.193 7.47 49.36 12.68
12/27/2021 9:15:00 PM 2.7 36.86 0.19 7.45 46.72 12.66
12/27/2021 9:30:00 PM 2.7 36.86 0.187 7.43 46.01 12.65
12/27/2021 9:45:00 PM 2.67 36.806 0.183 7.4 54.68 12.64
12/27/2021 10:00:00 PM 2.64 36.752 0.182 7.36 66.45 12.69
12/27/2021 10:15:00 PM 2.66 36.788 0.182 7.39 65.55 12.67
12/27/2021 10:30:00 PM 2.72 36.896 0.183 7.39 78.46 12.63
12/27/2021 10:45:00 PM 2.79 37.022 0.185 7.41 45.43 12.62
12/27/2021 11:00:00 PM 2.85 37.13 0.189 7.42 33.73 12.59
12/27/2021 11:15:00 PM 2.91 37.238 0.197 7.43 30.74 12.56
12/27/2021 11:30:00 PM 2.99 37.382 0.205 7.45 27.02 12.51
12/27/2021 11:45:00 PM 3.06 37.508 0.209 7.46 26.27 12.47
12/28/2021 12:00:00 AM 3.14 37.652 0.212 7.47 18.97 12.43
12/28/2021 12:15:00 AM 3.2 37.76 0.212 7.47 18.43 12.41
12/28/2021 12:30:00 AM 3.27 37.886 0.212 7.49 16.64 12.38
12/28/2021 12:45:00 AM 3.34 38.012 0.214 7.45 15.2 12.35
12/28/2021 1:00:00 AM 3.39 38.102 0.218 7.51 15.87 12.31
12/28/2021 1:15:00 AM 3.46 38.228 0.226 7.51 14.3 12.27
12/28/2021 1:30:00 AM 3.53 38.354 0.234 7.51 14.23 12.24
12/28/2021 1:45:00 AM 3.6 38.48 0.242 7.52 14.11 12.2
12/28/2021 2:00:00 AM 3.66 38.588 0.252 7.51 14.22 12.17
12/28/2021 2:15:00 AM 3.71 38.678 0.265 7.52 13.24 12.15
12/28/2021 2:30:00 AM 3.74 38.732 0.278 7.52 38.5 12.13
12/28/2021 2:45:00 AM 3.78 38.804 0.291 7.52 12.7 12.1
12/28/2021 3:00:00 AM 3.85 38.93 0.309 7.51 681.83 12.06
12/28/2021 3:15:00 AM 3.91 39.038 0.324 7.53 18.63 12.03
12/28/2021 3:30:00 AM 3.95 39.11 0.341 7.52 13.99 12.02
12/28/2021 3:45:00 AM 3.95 39.11 0.351 7.51 23.51 12.02
12/28/2021 4:00:00 AM 3.94 39.092 0.364 7.51 21.38 12.03
12/28/2021 4:15:00 AM 3.92 39.056 0.381 7.51 11.38 12.04
12/28/2021 4:30:00 AM 3.9 39.02 0.399 7.48 17.66 12.05
12/28/2021 4:45:00 AM 3.87 38.966 0.415 7.52 12.6 12.06
12/28/2021 5:00:00 AM 3.83 38.894 0.421 7.51 13.65 12.07
12/28/2021 5:15:00 AM 3.81 38.858 0.423 7.5 14.75 12.09
12/28/2021 5:30:00 AM 3.79 38.822 0.415 7.5 14.05 12.09
12/28/2021 5:45:00 AM 3.78 38.804 0.406 7.51 16.21 12.09
12/28/2021 6:00:00 AM 3.78 38.804 0.394 7.5 13.92 12.08
12/28/2021 6:15:00 AM 3.78 38.804 0.389 7.51 11.27 12.05
12/28/2021 6:30:00 AM 3.77 38.786 0.38 7.5 11.82 12.06
12/28/2021 6:45:00 AM 3.77 38.786 0.379 7.5 218.16 12.07
12/28/2021 7:00:00 AM 3.75 38.75 0.368 7.49 16.41 12.09
12/28/2021 7:15:00 AM 3.75 38.75 0.363 7.5 13.03 12.09
12/28/2021 7:30:00 AM 3.73 38.714 0.356 7.5 11.97 12.11
12/28/2021 7:45:00 AM 3.74 38.732 0.352 7.5 11.48 12.11
12/28/2021 8:00:00 AM 3.73 38.714 0.343 7.5 11.77 12.14
12/28/2021 8:15:00 AM 3.74 38.732 0.339 7.51 14.42 12.17
12/28/2021 8:30:00 AM 3.75 38.75 0.332 7.52 11.39 12.19
12/28/2021 8:45:00 AM 3.79 38.822 0.331 7.53 10.68 12.21
12/28/2021 9:00:00 AM 3.83 38.894 0.327 7.52 9.64 12.24
12/28/2021 9:15:00 AM 3.87 38.966 0.321 7.55 8.87 12.3
12/28/2021 9:30:00 AM 3.91 39.038 0.318 7.58 9.14 12.37
12/28/2021 9:45:00 AM 3.95 39.11 0.315 7.59 123.43 12.46
12/28/2021 10:00:00 AM 4.01 39.218 0.31 7.6 45.45 12.55
12/28/2021 10:15:00 AM 4.06 39.308 0.311 7.65 135.4 12.64
12/28/2021 10:30:00 AM 4.08 39.344 0.306 7.66 40.62 12.64
12/28/2021 10:45:00 AM 4.13 39.434 0.305 7.68 364.68 12.71
12/28/2021 11:00:00 AM 4.18 39.524 0.304 7.69 633.28 12.74
12/28/2021 11:15:00 AM 4.25 39.65 0.303 7.71 81.14 12.79
12/28/2021 11:30:00 AM 4.32 39.776 0.301 7.74 17.69 12.83
12/28/2021 11:45:00 AM 4.38 39.884 0.298 7.74 679.3 12.8
12/28/2021 12:00:00 PM 4.41 39.938 0.294 7.73 17.54 12.78
12/28/2021 12:15:00 PM 4.43 39.974 0.289 7.74 8.89 12.75
12/28/2021 12:30:00 PM 4.46 40.028 0.284 7.74 8.63 12.77
12/28/2021 12:45:00 PM 4.48 40.064 0.279 7.75 8.88 12.8
12/28/2021 1:00:00 PM 4.5 40.1 0.275 7.74 8.52 12.77
12/28/2021 1:15:00 PM 4.52 40.136 0.275 7.74 8.61 12.74
12/28/2021 1:30:00 PM 4.53 40.154 0.27 7.74 8.77 12.72
12/28/2021 1:45:00 PM 4.56 40.208 0.269 7.73 8.8 12.69
12/28/2021 2:00:00 PM 4.59 40.262 0.268 7.73 8.73 12.67
12/28/2021 2:15:00 PM 4.63 40.334 0.266 7.73 9.21 12.64
12/28/2021 2:30:00 PM 4.65 40.37 0.266 7.73 9.04 12.61
12/28/2021 2:45:00 PM 4.67 40.406 0.264 7.71 9.83 12.57
12/28/2021 3:00:00 PM 4.68 40.424 0.262 7.69 9.2 12.53
12/28/2021 3:15:00 PM 4.68 40.424 0.262 7.69 10.24 12.48
12/28/2021 3:30:00 PM 4.69 40.442 0.262 7.68 9.46 12.44
12/28/2021 3:45:00 PM 4.7 40.46 0.259 7.67 10.4 12.39
12/28/2021 4:00:00 PM 4.71 40.478 0.256 7.66 10.12 12.37
12/28/2021 4:15:00 PM 4.73 40.514 0.257 7.64 10.34 12.3
12/28/2021 4:30:00 PM 4.75 40.55 0.258 7.63 10.61 12.21
12/28/2021 4:45:00 PM 4.77 40.586 0.257 7.61 11.06 12.13
12/28/2021 5:00:00 PM 4.79 40.622 0.255 7.6 11.21 12.09
12/28/2021 5:15:00 PM 4.79 40.622 0.254 7.59 11.43 12.05
12/28/2021 5:30:00 PM 4.78 40.604 0.25 7.57 11.16 12.03
12/28/2021 5:45:00 PM 4.78 40.604 0.248 7.58 12.05 12.02
12/28/2021 6:00:00 PM 4.78 40.604 0.246 7.57 10.86 11.99
12/28/2021 6:15:00 PM 4.78 40.604 0.247 7.56 10.68 11.98
12/28/2021 6:30:00 PM 4.79 40.622 0.247 7.56 11.19 11.96
12/28/2021 6:45:00 PM 4.79 40.622 0.245 7.56 11.3 11.94
12/28/2021 7:00:00 PM 4.8 40.64 0.245 7.55 11.51 11.92
12/28/2021 7:15:00 PM 4.81 40.658 0.246 7.56 10.4 11.89
12/28/2021 7:30:00 PM 4.83 40.694 0.248 7.55 11.57 11.87
12/28/2021 7:45:00 PM 4.85 40.73 0.251 7.55 10.72 11.84
12/28/2021 8:00:00 PM 4.86 40.748 0.248 7.55 10.99 11.83
12/28/2021 8:15:00 PM 4.86 40.748 0.247 7.54 10.87 11.84
12/28/2021 8:30:00 PM 4.85 40.73 0.243 7.54 10.38 11.82
12/28/2021 8:45:00 PM 4.84 40.712 0.242 7.53 10.85 11.84
12/28/2021 9:00:00 PM 4.82 40.676 0.238 7.53 11.06 11.84
12/28/2021 9:15:00 PM 4.8 40.64 0.235 7.52 11.28 11.84
12/28/2021 9:30:00 PM 4.76 40.568 0.231 7.5 14.14 11.86
12/28/2021 9:45:00 PM 4.7 40.46 0.223 7.49 19.03 11.89
12/28/2021 10:00:00 PM 4.61 40.298 0.215 7.46 34.86 11.93
12/28/2021 10:15:00 PM 4.47 40.046 0.209 7.43 69.76 11.99
12/28/2021 10:30:00 PM 4.31 39.758 0.201 7.41 93.58 12.07
12/28/2021 10:45:00 PM 4.15 39.47 0.195 7.39 114.29 12.14
12/28/2021 11:00:00 PM 4 39.2 0.19 7.37 138.32 12.21
12/28/2021 11:15:00 PM 3.85 38.93 0.183 7.33 163.94 12.28
12/28/2021 11:30:00 PM 3.68 38.624 0.172 7.31 182.24 12.37
12/28/2021 11:45:00 PM 3.43 38.174 0.158 7.28 253.73 12.46
12/29/2021 12:00:00 AM 3.07 37.526 0.143 7.2 433.5 12.59
12/29/2021 12:15:00 AM 2.68 36.824 0.133 7.16 814.06 12.73
12/29/2021 12:30:00 AM 2.76 36.968 0.132 7.16 679.98 12.7
12/29/2021 12:45:00 AM 3.06 37.508 0.141 7.2 456.67 12.6
12/29/2021 1:00:00 AM 3.33 37.994 0.152 7.22 276.89 12.47
12/29/2021 1:15:00 AM 3.56 38.408 0.164 7.27 215.49 12.35
12/29/2021 1:30:00 AM 3.79 38.822 0.181 7.25 176.84 12.19
12/29/2021 1:45:00 AM 3.94 39.092 0.195 7.24 159.73 12.08
12/29/2021 2:00:00 AM 3.97 39.146 0.201 7.28 166.22 12.03
12/29/2021 2:15:00 AM 3.9 39.02 0.194 7.29 172.43 12.06
12/29/2021 2:30:00 AM 3.8 38.84 0.179 7.27 166.12 12.1
12/29/2021 2:45:00 AM 3.73 38.714 0.166 7.25 152.34 12.13
12/29/2021 3:00:00 AM 3.69 38.642 0.158 7.21 171.42 12.15
12/29/2021 3:15:00 AM 3.69 38.642 0.155 7.22 170.87 12.18
12/29/2021 3:30:00 AM 3.7 38.66 0.154 7.23 166.27 12.18
12/29/2021 3:45:00 AM 3.71 38.678 0.152 7.23 154.69 12.19
12/29/2021 4:00:00 AM 3.71 38.678 0.151 7.22 136.52 12.19
12/29/2021 4:15:00 AM 3.73 38.714 0.149 7.2 127.82 12.19
12/29/2021 4:30:00 AM 3.75 38.75 0.147 7.23 115.61 12.2
12/29/2021 4:45:00 AM 3.78 38.804 0.145 7.21 101.92 12.21
12/29/2021 5:00:00 AM 3.79 38.822 0.146 7.24 95.64 12.21
12/29/2021 5:15:00 AM 3.83 38.894 0.145 7.23 85.92 12.21
12/29/2021 5:30:00 AM 3.86 38.948 0.146 7.24 79.91 12.2
12/29/2021 5:45:00 AM 3.9 39.02 0.148 7.24 72.56 12.18
12/29/2021 6:00:00 AM 3.96 39.128 0.15 7.25 68.09 12.14
12/29/2021 6:15:00 AM 4.03 39.254 0.152 7.23 62.52 12.1
12/29/2021 6:30:00 AM 4.07 39.326 0.152 7.26 58.94 12.1
12/29/2021 6:45:00 AM 4.11 39.398 0.151 7.27 54.15 12.1
12/29/2021 7:00:00 AM 4.16 39.488 0.153 7.23 49.91 12.09
12/29/2021 7:15:00 AM 4.23 39.614 0.155 7.27 48.39 12.06
12/29/2021 7:30:00 AM 4.27 39.686 0.154 7.26 45.49 12.05
12/29/2021 7:45:00 AM 4.3 39.74 0.151 7.27 43.25 12.06
12/29/2021 8:00:00 AM 4.33 39.794 0.149 7.27 41.61 12.07
12/29/2021 8:15:00 AM 4.36 39.848 0.149 7.26 39.61 12.05
12/29/2021 8:30:00 AM 4.42 39.956 0.15 7.27 37.57 12.03
12/29/2021 8:45:00 AM 4.47 40.046 0.15 7.26 35.82 12
12/29/2021 9:00:00 AM 4.5 40.1 0.149 7.28 35.78 12
12/29/2021 9:15:00 AM 4.52 40.136 0.147 7.27 33.57 12.02
12/29/2021 9:30:00 AM 4.57 40.226 0.146 7.28 31.97 12.02
12/29/2021 9:45:00 AM 4.62 40.316 0.148 7.29 30.59 12
12/29/2021 10:00:00 AM 4.68 40.424 0.149 7.29 30.77 11.98
12/29/2021 10:15:00 AM 4.72 40.496 0.149 7.27 28.8 11.98
12/29/2021 10:30:00 AM 4.75 40.55 0.147 7.3 26.99 11.99
12/29/2021 10:45:00 AM 4.78 40.604 0.147 7.29 26.1 11.99
12/29/2021 11:00:00 AM 4.84 40.712 0.147 7.3 25.68 11.98
12/29/2021 11:15:00 AM 4.89 40.802 0.15 7.3 24.73 11.96
12/29/2021 11:30:00 AM 4.97 40.946 0.151 7.3 25.23 11.93
12/29/2021 11:45:00 AM 5.02 41.036 0.152 7.31 24.39 11.92
12/29/2021 12:00:00 PM 5.06 41.108 0.151 7.31 22.96 11.93
12/29/2021 12:15:00 PM 5.1 41.18 0.149 7.31 22.56 11.95
12/29/2021 12:30:00 PM 5.13 41.234 0.148 7.31 22.29 11.95
12/29/2021 12:45:00 PM 5.19 41.342 0.147 7.32 21.28 11.93
12/29/2021 1:00:00 PM 5.26 41.468 0.149 7.32 21.56 11.91
12/29/2021 1:15:00 PM 5.33 41.594 0.15 7.33 21.06 11.89
12/29/2021 1:30:00 PM 5.37 41.666 0.149 7.33 20.3 11.9
12/29/2021 1:45:00 PM 5.4 41.72 0.148 7.33 20.41 11.9
12/29/2021 2:00:00 PM 5.44 41.792 0.148 7.34 19 11.9
12/29/2021 2:15:00 PM 5.48 41.864 0.147 7.31 20.19 11.88
12/29/2021 2:30:00 PM 5.53 41.954 0.147 7.35 19.32 11.87
12/29/2021 2:45:00 PM 5.58 42.044 0.15 7.33 18.87 11.83
12/29/2021 3:00:00 PM 5.65 42.17 0.151 7.35 18.68 11.8
12/29/2021 3:15:00 PM 5.69 42.242 0.15 7.35 18.43 11.8
12/29/2021 3:30:00 PM 5.71 42.278 0.148 7.35 17.94 11.8
12/29/2021 3:45:00 PM 5.74 42.332 0.146 7.35 17.82 11.8
12/29/2021 4:00:00 PM 5.75 42.35 0.146 7.36 17.34 11.8
12/29/2021 4:15:00 PM 5.78 42.404 0.147 7.38 17.52 11.78
12/29/2021 4:30:00 PM 5.82 42.476 0.149 7.38 17.13 11.74
12/29/2021 4:45:00 PM 5.86 42.548 0.15 7.38 17.47 11.7
12/29/2021 5:00:00 PM 5.88 42.584 0.148 7.37 16.86 11.69
12/29/2021 5:15:00 PM 5.88 42.584 0.147 7.38 16.5 11.69
12/29/2021 5:30:00 PM 5.89 42.602 0.146 7.37 16.74 11.7
12/29/2021 5:45:00 PM 5.89 42.602 0.145 7.37 16.27 11.69
12/29/2021 6:00:00 PM 5.91 42.638 0.145 7.35 16.67 11.68
12/29/2021 6:15:00 PM 5.92 42.656 0.145 7.36 16.37 11.67
12/29/2021 6:30:00 PM 5.94 42.692 0.147 7.35 16.36 11.64
12/29/2021 6:45:00 PM 5.96 42.728 0.149 7.36 15.81 11.61
12/29/2021 7:00:00 PM 5.97 42.746 0.149 7.36 15.6 11.61
12/29/2021 7:15:00 PM 5.96 42.728 0.147 7.35 15.74 11.62
12/29/2021 7:30:00 PM 5.96 42.728 0.145 7.36 15.48 11.64
12/29/2021 7:45:00 PM 5.96 42.728 0.144 7.35 14.95 11.64
12/29/2021 8:00:00 PM 5.96 42.728 0.144 7.35 14.78 11.64
12/29/2021 8:15:00 PM 5.97 42.746 0.144 7.35 14.37 11.63
12/29/2021 8:30:00 PM 5.97 42.746 0.146 7.34 14.57 11.61
12/29/2021 8:45:00 PM 5.99 42.782 0.148 7.34 14.35 11.58
12/29/2021 9:00:00 PM 5.99 42.782 0.148 7.34 14.09 11.57
12/29/2021 9:15:00 PM 5.98 42.764 0.146 7.33 13.93 11.59
12/29/2021 9:30:00 PM 5.97 42.746 0.145 7.34 14.04 11.61
12/29/2021 9:45:00 PM 5.96 42.728 0.144 7.33 13.49 11.62
12/29/2021 10:00:00 PM 5.96 42.728 0.144 7.33 13.86 11.63
12/29/2021 10:15:00 PM 5.97 42.746 0.144 7.34 13.5 11.62
12/29/2021 10:30:00 PM 5.97 42.746 0.145 7.34 13.53 11.62
12/29/2021 10:45:00 PM 5.99 42.782 0.146 7.34 13.16 11.61
12/29/2021 11:00:00 PM 6.01 42.818 0.148 7.34 13.08 11.59
12/29/2021 11:15:00 PM 6.03 42.854 0.149 7.35 12.93 11.58
12/29/2021 11:30:00 PM 6.04 42.872 0.149 7.34 12.88 11.58
12/29/2021 11:45:00 PM 6.04 42.872 0.147 7.33 12.68 11.59
12/30/2021 12:00:00 AM 6.03 42.854 0.145 7.35 12.82 11.6
12/30/2021 12:15:00 AM 6.03 42.854 0.145 7.34 12.35 11.61
12/30/2021 12:30:00 AM 6.04 42.872 0.145 7.35 12.58 11.6
12/30/2021 12:45:00 AM 6.05 42.89 0.145 7.35 12.21 11.6
12/30/2021 1:00:00 AM 6.07 42.926 0.146 7.35 12.06 11.59
12/30/2021 1:15:00 AM 6.09 42.962 0.147 7.35 12.06 11.57
12/30/2021 1:30:00 AM 6.11 42.998 0.149 7.35 11.62 11.55
12/30/2021 1:45:00 AM 6.13 43.034 0.149 7.36 11.56 11.54
12/30/2021 2:00:00 AM 6.13 43.034 0.149 7.35 11.53 11.55
12/30/2021 2:15:00 AM 6.13 43.034 0.147 7.36 11.49 11.56
12/30/2021 2:30:00 AM 6.13 43.034 0.145 7.34 11.12 11.57
12/30/2021 2:45:00 AM 6.14 43.052 0.145 7.36 11.38 11.57
12/30/2021 3:00:00 AM 6.14 43.052 0.145 7.36 11.03 11.56
12/30/2021 3:15:00 AM 6.15 43.07 0.145 7.37 10.75 11.56
12/30/2021 3:30:00 AM 6.16 43.088 0.145 7.36 10.76 11.55
12/30/2021 3:45:00 AM 6.16 43.088 0.145 7.35 10.41 11.55
12/30/2021 4:00:00 AM 6.17 43.106 0.145 7.36 10.62 11.55
12/30/2021 4:15:00 AM 6.18 43.124 0.145 7.36 10.52 11.54
12/30/2021 4:30:00 AM 6.19 43.142 0.146 7.36 10.73 11.54
12/30/2021 4:45:00 AM 6.2 43.16 0.146 7.36 10.74 11.53
12/30/2021 5:00:00 AM 6.22 43.196 0.148 7.36 10.67 11.52
12/30/2021 5:15:00 AM 6.25 43.25 0.15 7.37 10.27 11.5
12/30/2021 5:30:00 AM 6.27 43.286 0.151 7.36 10.24 11.48
12/30/2021 5:45:00 AM 6.28 43.304 0.15 7.37 10.07 11.49
12/30/2021 6:00:00 AM 6.28 43.304 0.148 7.36 10.03 11.5
12/30/2021 6:15:00 AM 6.27 43.286 0.147 7.37 10.11 11.51
12/30/2021 6:30:00 AM 6.27 43.286 0.146 7.36 9.69 11.52
12/30/2021 6:45:00 AM 6.28 43.304 0.146 7.37 10.05 11.52
12/30/2021 7:00:00 AM 6.27 43.286 0.146 7.37 9.56 11.52
12/30/2021 7:15:00 AM 6.28 43.304 0.146 7.37 9.51 11.52
12/30/2021 7:30:00 AM 6.29 43.322 0.147 7.37 9.57 11.51
12/30/2021 7:45:00 AM 6.3 43.34 0.147 7.37 9.4 11.51
12/30/2021 8:00:00 AM 6.3 43.34 0.148 7.36 9.24 11.51
12/30/2021 8:15:00 AM 6.33 43.394 0.15 7.38 9.09 11.49
12/30/2021 8:30:00 AM 6.35 43.43 0.151 7.38 8.95 11.48
12/30/2021 8:45:00 AM 6.36 43.448 0.151 7.39 8.9 11.48
12/30/2021 9:00:00 AM 6.36 43.448 0.149 7.38 8.78 11.5
12/30/2021 9:15:00 AM 6.36 43.448 0.148 7.38 8.66 11.52
12/30/2021 9:30:00 AM 6.37 43.466 0.147 7.39 8.34 11.55
12/30/2021 9:45:00 AM 6.39 43.502 0.146 7.4 8.3 11.58
12/30/2021 10:00:00 AM 6.42 43.556 0.146 7.41 8.36 11.6
12/30/2021 10:15:00 AM 6.44 43.592 0.146 7.41 8.18 11.6
12/30/2021 10:30:00 AM 6.46 43.628 0.145 7.42 8.11 11.62
12/30/2021 10:45:00 AM 6.49 43.682 0.146 7.43 8.05 11.64
12/30/2021 11:00:00 AM 6.53 43.754 0.149 7.44 7.89 11.63
12/30/2021 11:15:00 AM 6.57 43.826 0.15 7.45 8.39 11.63
12/30/2021 11:30:00 AM 6.59 43.862 0.149 7.45 8.4 11.66
12/30/2021 11:45:00 AM 6.61 43.898 0.147 7.47 7.85 11.68
12/30/2021 12:00:00 PM 6.62 43.916 0.146 7.47 7.65 11.68
12/30/2021 12:15:00 PM 6.65 43.97 0.145 7.48 7.82 11.7
12/30/2021 12:30:00 PM 6.68 44.024 0.145 7.48 7.51 11.71
12/30/2021 12:45:00 PM 6.71 44.078 0.145 7.5 7.7 11.7
12/30/2021 1:00:00 PM 6.74 44.132 0.146 7.5 7.54 11.7
12/30/2021 1:15:00 PM 6.77 44.186 0.146 7.5 7.95 11.68
12/30/2021 1:30:00 PM 6.79 44.222 0.148 7.5 7.57 11.66
12/30/2021 1:45:00 PM 6.83 44.294 0.151 7.51 7.95 11.65
12/30/2021 2:00:00 PM 6.88 44.384 0.154 7.51 7.3 11.62
12/30/2021 2:15:00 PM 6.91 44.438 0.154 7.52 7.38 11.62
12/30/2021 2:30:00 PM 6.93 44.474 0.152 7.52 7.44 11.62
12/30/2021 2:45:00 PM 6.94 44.492 0.151 7.52 7.3 11.62
12/30/2021 3:00:00 PM 6.96 44.528 0.151 7.52 7.45 11.61
12/30/2021 3:15:00 PM 6.97 44.546 0.151 7.52 7.26 11.59
12/30/2021 3:30:00 PM 6.98 44.564 0.152 7.51 7.3 11.57
12/30/2021 3:45:00 PM 7.01 44.618 0.152 7.52 7.34 11.56
12/30/2021 4:00:00 PM 7.02 44.636 0.153 7.5 7.33 11.55
12/30/2021 4:15:00 PM 7.04 44.672 0.155 7.52 7.35 11.5
12/30/2021 4:30:00 PM 7.05 44.69 0.157 7.5 7.37 11.47
12/30/2021 4:45:00 PM 7.05 44.69 0.157 7.51 7.43 11.46
12/30/2021 5:00:00 PM 7.03 44.654 0.155 7.49 7.83 11.44
12/30/2021 5:15:00 PM 7.02 44.636 0.153 7.47 7.41 11.42
12/30/2021 5:30:00 PM 7 44.6 0.152 7.48 7.38 11.42
12/30/2021 5:45:00 PM 6.98 44.564 0.151 7.47 7.46 11.4
12/30/2021 6:00:00 PM 6.96 44.528 0.151 7.47 7.68 11.4
12/30/2021 6:15:00 PM 6.95 44.51 0.151 7.46 7.52 11.37
12/30/2021 6:30:00 PM 6.95 44.51 0.151 7.46 7.45 11.36
12/30/2021 6:45:00 PM 6.93 44.474 0.15 7.45 7.94 11.36
12/30/2021 7:00:00 PM 6.92 44.456 0.15 7.45 7.83 11.35
12/30/2021 7:15:00 PM 6.92 44.456 0.152 7.45 8.1 11.33
12/30/2021 7:30:00 PM 6.92 44.456 0.154 7.45 7.61 11.32
12/30/2021 7:45:00 PM 6.91 44.438 0.153 7.45 7.76 11.33
12/30/2021 8:00:00 PM 6.89 44.402 0.15 7.44 7.77 11.33
12/30/2021 8:15:00 PM 6.88 44.384 0.149 7.44 7.69 11.34
12/30/2021 8:30:00 PM 6.86 44.348 0.148 7.43 7.4 11.35
12/30/2021 8:45:00 PM 6.86 44.348 0.148 7.43 7.51 11.35
12/30/2021 9:00:00 PM 6.86 44.348 0.148 7.43 7.31 11.34
12/30/2021 9:15:00 PM 6.87 44.366 0.149 7.44 7.54 11.34
12/30/2021 9:30:00 PM 6.87 44.366 0.149 7.43 7.46 11.34
12/30/2021 9:45:00 PM 6.87 44.366 0.15 7.44 7.09 11.32
12/30/2021 10:00:00 PM 6.88 44.384 0.153 7.43 7.08 11.3
12/30/2021 10:15:00 PM 6.88 44.384 0.154 7.43 7.24 11.3
12/30/2021 10:30:00 PM 6.87 44.366 0.153 7.43 7.07 11.3
12/30/2021 10:45:00 PM 6.86 44.348 0.151 7.44 6.93 11.31
12/30/2021 11:00:00 PM 6.85 44.33 0.149 7.43 6.9 11.32
12/30/2021 11:15:00 PM 6.84 44.312 0.149 7.43 7.14 11.31
12/30/2021 11:30:00 PM 6.84 44.312 0.148 7.43 7.3 11.32
12/30/2021 11:45:00 PM 6.85 44.33 0.149 7.43 7.09 11.32
12/31/2021 12:00:00 AM 6.86 44.348 0.149 7.44 6.92 11.31
12/31/2021 12:15:00 AM 6.87 44.366 0.149 7.44 6.78 11.31
12/31/2021 12:30:00 AM 6.88 44.384 0.15 7.44 6.87 11.29
12/31/2021 12:45:00 AM 6.9 44.42 0.152 7.44 6.96 11.28
12/31/2021 1:00:00 AM 6.92 44.456 0.153 7.45 6.91 11.28
12/31/2021 1:15:00 AM 6.92 44.456 0.152 7.45 6.87 11.27
12/31/2021 1:30:00 AM 6.91 44.438 0.151 7.45 6.7 11.29
12/31/2021 1:45:00 AM 6.91 44.438 0.15 7.44 6.81 11.3
12/31/2021 2:00:00 AM 6.9 44.42 0.149 7.44 6.76 11.3
12/31/2021 2:15:00 AM 6.9 44.42 0.149 7.44 6.82 11.31
12/31/2021 2:30:00 AM 6.9 44.42 0.149 7.44 6.67 11.31
12/31/2021 2:45:00 AM 6.89 44.402 0.148 7.44 6.74 11.3
12/31/2021 3:00:00 AM 6.89 44.402 0.148 7.44 6.56 11.3
12/31/2021 3:15:00 AM 6.88 44.384 0.15 7.44 6.77 11.3
12/31/2021 3:30:00 AM 6.88 44.384 0.152 7.44 6.4 11.3
12/31/2021 3:45:00 AM 6.89 44.402 0.153 7.44 6.61 11.29
12/31/2021 4:00:00 AM 6.87 44.366 0.152 7.45 6.57 11.29
12/31/2021 4:15:00 AM 6.85 44.33 0.15 7.44 6.31 11.31
12/31/2021 4:30:00 AM 6.83 44.294 0.149 7.44 6.33 11.33
12/31/2021 4:45:00 AM 6.82 44.276 0.148 7.44 6.21 11.32
12/31/2021 5:00:00 AM 6.81 44.258 0.148 7.45 6.44 11.32
12/31/2021 5:15:00 AM 6.8 44.24 0.148 7.44 6.56 11.34
12/31/2021 5:30:00 AM 6.79 44.222 0.148 7.44 6.51 11.33
12/31/2021 5:45:00 AM 6.78 44.204 0.148 7.44 6.54 11.33
12/31/2021 6:00:00 AM 6.77 44.186 0.149 7.44 6.31 11.34
12/31/2021 6:15:00 AM 6.78 44.204 0.152 7.45 6.36 11.32
12/31/2021 6:30:00 AM 6.78 44.204 0.153 7.46 6.04 11.32
12/31/2021 6:45:00 AM 6.77 44.186 0.152 7.45 6.11 11.33
12/31/2021 7:00:00 AM 6.75 44.15 0.15 7.45 6 11.35
12/31/2021 7:15:00 AM 6.74 44.132 0.148 7.44 6 11.36
12/31/2021 7:30:00 AM 6.73 44.114 0.147 7.45 5.9 11.36
12/31/2021 7:45:00 AM 6.72 44.096 0.147 7.43 5.97 11.36
12/31/2021 8:00:00 AM 6.72 44.096 0.147 7.45 5.82 11.37
12/31/2021 8:15:00 AM 6.72 44.096 0.147 7.45 5.73 11.39
12/31/2021 8:30:00 AM 6.71 44.078 0.147 7.44 5.74 11.41
12/31/2021 8:45:00 AM 6.72 44.096 0.149 7.45 6.03 11.42
12/31/2021 9:00:00 AM 6.74 44.132 0.151 7.47 5.49 11.43
12/31/2021 9:15:00 AM 6.76 44.168 0.151 7.48 5.91 11.45
12/31/2021 9:30:00 AM 6.76 44.168 0.15 7.48 5.58 11.47
12/31/2021 9:45:00 AM 6.76 44.168 0.149 7.49 5.14 11.51
12/31/2021 10:00:00 AM 6.77 44.186 0.147 7.5 5.45 11.55
12/31/2021 10:15:00 AM 6.78 44.204 0.147 7.51 5.14 11.58
12/31/2021 10:30:00 AM 6.81 44.258 0.147 7.52 5.01 11.65
12/31/2021 10:45:00 AM 6.84 44.312 0.147 7.54 5.33 11.71
12/31/2021 11:00:00 AM 6.87 44.366 0.147 7.55 5.17 11.73
12/31/2021 11:15:00 AM 6.9 44.42 0.147 7.57 5.03 11.77
12/31/2021 11:30:00 AM 6.97 44.546 0.148 7.59 4.95 11.82
12/31/2021 11:45:00 AM 7.07 44.726 0.151 7.62 11.84 11.84
12/31/2021 12:00:00 PM 7.13 44.834 0.151 7.64 5.08 11.86
12/31/2021 12:15:00 PM 7.22 44.996 0.149 7.65 4.85 11.89
12/31/2021 12:30:00 PM 7.28 45.104 0.148 7.66 4.91 11.89
12/31/2021 12:45:00 PM 7.34 45.212 0.147 7.64 5.4 11.91
12/31/2021 1:00:00 PM 7.4 45.32 0.146 7.69 4.8 11.9
12/31/2021 1:15:00 PM 7.43 45.374 0.146 7.69 5.02 11.89
12/31/2021 1:30:00 PM 7.48 45.464 0.147 7.7 4.82 11.88
12/31/2021 1:45:00 PM 7.52 45.536 0.146 7.71 4.87 11.88
12/31/2021 2:00:00 PM 7.57 45.626 0.147 7.72 4.86 11.88
12/31/2021 2:15:00 PM 7.61 45.698 0.148 7.72 4.76 11.86
12/31/2021 2:30:00 PM 7.66 45.788 0.151 7.73 4.8 11.83
12/31/2021 2:45:00 PM 7.71 45.878 0.151 7.74 4.69 11.8
12/31/2021 3:00:00 PM 7.73 45.914 0.15 7.73 4.87 11.78
12/31/2021 3:15:00 PM 7.75 45.95 0.149 7.72 4.85 11.74
12/31/2021 3:30:00 PM 7.77 45.986 0.148 7.72 5.74 11.71
12/31/2021 3:45:00 PM 7.79 46.022 0.148 7.72 5.08 11.68
12/31/2021 4:00:00 PM 7.81 46.058 0.148 7.71 4.91 11.63
12/31/2021 4:15:00 PM 7.82 46.076 0.149 7.69 5.15 11.57
12/31/2021 4:30:00 PM 7.83 46.094 0.149 7.68 5.76 11.51
12/31/2021 4:45:00 PM 7.83 46.094 0.151 7.66 4.73 11.45
12/31/2021 5:00:00 PM 7.84 46.112 0.154 7.65 6.02 11.38
12/31/2021 5:15:00 PM 7.85 46.13 0.156 7.62 5.18 11.31
12/31/2021 5:30:00 PM 7.85 46.13 0.155 7.62 5.58 11.27
12/31/2021 5:45:00 PM 7.84 46.112 0.154 7.6 5.28 11.24
12/31/2021 6:00:00 PM 7.82 46.076 0.154 7.59 5.91 11.21
12/31/2021 6:15:00 PM 7.8 46.04 0.154 7.58 5.58 11.18
12/31/2021 6:30:00 PM 7.77 45.986 0.156 7.57 6.06 11.16
12/31/2021 6:45:00 PM 7.75 45.95 0.157 7.56 5.51 11.14
12/31/2021 7:00:00 PM 7.73 45.914 0.158 7.55 5.84 11.13
12/31/2021 7:15:00 PM 7.71 45.878 0.159 7.54 5.34 11.12
12/31/2021 7:30:00 PM 7.68 45.824 0.16 7.53 6.81 11.1
12/31/2021 7:45:00 PM 7.66 45.788 0.163 7.54 5.14 11.09
12/31/2021 8:00:00 PM 7.65 45.77 0.165 7.52 5.07 11.08
12/31/2021 8:15:00 PM 7.62 45.716 0.165 7.53 5 11.08
12/31/2021 8:30:00 PM 7.59 45.662 0.163 7.53 5.12 11.08
12/31/2021 8:45:00 PM 7.56 45.608 0.162 7.52 5.17 11.09
12/31/2021 9:00:00 PM 7.53 45.554 0.161 7.51 5.65 11.09
12/31/2021 9:15:00 PM 7.5 45.5 0.161 7.52 5.36 11.09
12/31/2021 9:30:00 PM 7.48 45.464 0.161 7.52 5.43 11.1
12/31/2021 9:45:00 PM 7.46 45.428 0.161 7.51 5.26 11.1
12/31/2021 10:00:00 PM 7.43 45.374 0.16 7.51 5.21 11.1
12/31/2021 10:15:00 PM 7.42 45.356 0.161 7.51 5.13 11.11
12/31/2021 10:30:00 PM 7.41 45.338 0.163 7.52 5.17 11.09
12/31/2021 10:45:00 PM 7.4 45.32 0.164 7.5 5.11 11.09
12/31/2021 11:00:00 PM 7.39 45.302 0.164 7.51 4.94 11.09
12/31/2021 11:15:00 PM 7.38 45.284 0.162 7.51 4.91 11.1
12/31/2021 11:30:00 PM 7.36 45.248 0.16 7.51 4.88 11.1
12/31/2021 11:45:00 PM 7.35 45.23 0.159 7.51 4.78 11.11
1/1/2022 12:00:00 AM 7.35 45.23 0.158 7.48 4.91 11.11
1/1/2022 12:15:00 AM 7.35 45.23 0.157 7.51 4.85 11.11
1/1/2022 12:30:00 AM 7.36 45.248 0.156 7.51 5.09 11.11
1/1/2022 12:45:00 AM 7.36 45.248 0.154 7.51 4.95 11.11
1/1/2022 1:00:00 AM 7.37 45.266 0.154 7.51 5.01 11.1
1/1/2022 1:15:00 AM 7.38 45.284 0.155 7.51 4.9 11.09
1/1/2022 1:30:00 AM 7.39 45.302 0.156 7.52 5.05 11.08
1/1/2022 1:45:00 AM 7.4 45.32 0.156 7.51 5.01 11.08
1/1/2022 2:00:00 AM 7.4 45.32 0.154 7.52 4.92 11.09
1/1/2022 2:15:00 AM 7.39 45.302 0.152 7.51 4.82 11.09
1/1/2022 2:30:00 AM 7.38 45.284 0.151 7.51 4.96 11.1
1/1/2022 2:45:00 AM 7.38 45.284 0.15 7.51 5.02 11.1
1/1/2022 3:00:00 AM 7.38 45.284 0.15 7.51 4.94 11.1
1/1/2022 3:15:00 AM 7.37 45.266 0.149 7.51 5.07 11.1
1/1/2022 3:30:00 AM 7.36 45.248 0.149 7.51 4.87 11.11
1/1/2022 3:45:00 AM 7.36 45.248 0.15 7.51 5.06 11.1
1/1/2022 4:00:00 AM 7.36 45.248 0.152 7.51 4.97 11.1
1/1/2022 4:15:00 AM 7.36 45.248 0.154 7.52 4.95 11.09
1/1/2022 4:30:00 AM 7.36 45.248 0.153 7.52 4.85 11.09
1/1/2022 4:45:00 AM 7.35 45.23 0.152 7.52 4.94 11.1
1/1/2022 5:00:00 AM 7.34 45.212 0.151 7.51 4.73 11.11
1/1/2022 5:15:00 AM 7.32 45.176 0.15 7.52 4.77 11.11
1/1/2022 5:30:00 AM 7.31 45.158 0.15 7.51 4.79 11.12
1/1/2022 5:45:00 AM 7.3 45.14 0.149 7.51 4.86 11.13
1/1/2022 6:00:00 AM 7.29 45.122 0.149 7.52 4.97 11.13
1/1/2022 6:15:00 AM 7.28 45.104 0.149 7.51 4.88 11.13
1/1/2022 6:30:00 AM 7.28 45.104 0.149 7.5 5.1 11.13
1/1/2022 6:45:00 AM 7.28 45.104 0.151 7.52 5.1 11.13
1/1/2022 7:00:00 AM 7.28 45.104 0.152 7.52 5.12 11.12
1/1/2022 7:15:00 AM 7.27 45.086 0.151 7.52 5.37 11.13
1/1/2022 7:30:00 AM 7.27 45.086 0.15 7.52 6.07 11.13
1/1/2022 7:45:00 AM 7.26 45.068 0.149 7.52 6.62 11.14
1/1/2022 8:00:00 AM 7.25 45.05 0.148 7.51 7.97 11.16
1/1/2022 8:15:00 AM 7.25 45.05 0.148 7.53 8.38 11.17
1/1/2022 8:30:00 AM 7.25 45.05 0.148 7.53 9.31 11.18
1/1/2022 8:45:00 AM 7.25 45.05 0.148 7.52 9.38 11.2
1/1/2022 9:00:00 AM 7.26 45.068 0.149 7.54 9.05 11.2
1/1/2022 9:15:00 AM 7.28 45.104 0.151 7.55 8.39 11.22
1/1/2022 9:30:00 AM 7.31 45.158 0.153 7.56 7.63 11.26
1/1/2022 9:45:00 AM 7.34 45.212 0.152 7.56 7.54 11.3
1/1/2022 10:00:00 AM 7.36 45.248 0.151 7.57 7.19 11.32
1/1/2022 10:15:00 AM 7.38 45.284 0.15 7.58 7.41 11.32
1/1/2022 10:30:00 AM 7.42 45.356 0.151 7.55 6.98 11.33
1/1/2022 10:45:00 AM 7.46 45.428 0.152 7.61 6.92 11.35
1/1/2022 11:00:00 AM 7.51 45.518 0.152 7.61 7.08 11.37
1/1/2022 11:15:00 AM 7.55 45.59 0.154 7.62 6.88 11.37
1/1/2022 11:30:00 AM 7.6 45.68 0.157 7.63 7.02 11.35
1/1/2022 11:45:00 AM 7.65 45.77 0.159 7.63 6.74 11.35
1/1/2022 12:00:00 PM 7.7 45.86 0.16 7.64 7.01 11.37
1/1/2022 12:15:00 PM 7.75 45.95 0.16 7.62 6.96 11.41
1/1/2022 12:30:00 PM 7.8 46.04 0.16 7.68 7.3 11.44
1/1/2022 12:45:00 PM 7.84 46.112 0.16 7.68 7.78 11.42
1/1/2022 1:00:00 PM 7.89 46.202 0.16 7.69 7.56 11.43
1/1/2022 1:15:00 PM 7.95 46.31 0.161 7.71 7.63 11.45
1/1/2022 1:30:00 PM 8 46.4 0.161 7.72 7.98 11.45
1/1/2022 1:45:00 PM 8.03 46.454 0.16 7.71 7.79 11.41
1/1/2022 2:00:00 PM 8.06 46.508 0.162 7.71 8.04 11.35
1/1/2022 2:15:00 PM 8.09 46.562 0.164 7.69 8.6 11.29
1/1/2022 2:30:00 PM 8.12 46.616 0.164 7.69 8.48 11.26
1/1/2022 2:45:00 PM 8.15 46.67 0.163 7.68 8.31 11.25
1/1/2022 3:00:00 PM 8.18 46.724 0.162 7.69 8.28 11.22
1/1/2022 3:15:00 PM 8.21 46.778 0.161 7.67 8.62 11.18
1/1/2022 3:30:00 PM 8.22 46.796 0.161 7.67 8.37 11.14
1/1/2022 3:45:00 PM 8.25 46.85 0.162 7.65 8.37 11.09
1/1/2022 4:00:00 PM 8.27 46.886 0.163 7.65 8.29 11.05
1/1/2022 4:15:00 PM 8.28 46.904 0.163 7.63 8.49 11.02
1/1/2022 4:30:00 PM 8.3 46.94 0.163 7.63 9.47 10.99
1/1/2022 4:45:00 PM 8.32 46.976 0.165 7.62 9.25 10.96
1/1/2022 5:00:00 PM 8.34 47.012 0.167 7.62 9.72 10.92
1/1/2022 5:15:00 PM 8.35 47.03 0.168 7.64 11.02 10.9
1/1/2022 5:30:00 PM 8.35 47.03 0.166 7.61 12.2 10.89
1/1/2022 5:45:00 PM 8.34 47.012 0.165 7.62 14.41 10.88
1/1/2022 6:00:00 PM 8.34 47.012 0.164 7.6 16.3 10.87
1/1/2022 6:15:00 PM 8.33 46.994 0.162 7.59 19.31 10.86
1/1/2022 6:30:00 PM 8.32 46.976 0.162 7.59 21.69 10.85
1/1/2022 6:45:00 PM 8.31 46.958 0.161 7.58 26.09 10.85
1/1/2022 7:00:00 PM 8.3 46.94 0.158 7.57 31.44 10.85
1/1/2022 7:15:00 PM 8.3 46.94 0.157 7.57 44.05 10.84
1/1/2022 7:30:00 PM 8.3 46.94 0.155 7.56 57.84 10.83
1/1/2022 7:45:00 PM 8.3 46.94 0.153 7.56 68.56 10.83
1/1/2022 8:00:00 PM 8.28 46.904 0.152 7.55 66.75 10.84
1/1/2022 8:15:00 PM 8.26 46.868 0.152 7.55 58.1 10.84
1/1/2022 8:30:00 PM 8.25 46.85 0.152 7.55 50.1 10.83
1/1/2022 8:45:00 PM 8.24 46.832 0.154 7.54 45.42 10.82
1/1/2022 9:00:00 PM 8.24 46.832 0.156 7.54 40.38 10.8
1/1/2022 9:15:00 PM 8.24 46.832 0.159 7.55 36.35 10.78
1/1/2022 9:30:00 PM 8.26 46.868 0.163 7.54 34.64 10.75
1/1/2022 9:45:00 PM 8.27 46.886 0.163 7.54 35.34 10.74
1/1/2022 10:00:00 PM 8.28 46.904 0.163 7.54 37.41 10.73
1/1/2022 10:15:00 PM 8.31 46.958 0.163 7.54 39.55 10.71
1/1/2022 10:30:00 PM 8.33 46.994 0.164 7.52 41.56 10.69
1/1/2022 10:45:00 PM 8.36 47.048 0.166 7.52 43.14 10.65
1/1/2022 11:00:00 PM 8.38 47.084 0.166 7.51 42.59 10.62
1/1/2022 11:15:00 PM 8.37 47.066 0.161 7.51 38.82 10.63
1/1/2022 11:30:00 PM 8.36 47.048 0.158 7.51 42.47 10.65
1/1/2022 11:45:00 PM 8.35 47.03 0.156 7.5 41.75 10.64
1/2/2022 12:00:00 AM 8.35 47.03 0.157 7.5 40.33 10.61
1/2/2022 12:15:00 AM 8.35 47.03 0.158 7.5 38.78 10.58
1/2/2022 12:30:00 AM 8.34 47.012 0.156 7.49 37.9 10.58
1/2/2022 12:45:00 AM 8.31 46.958 0.154 7.49 36.04 10.6
1/2/2022 1:00:00 AM 8.27 46.886 0.151 7.49 34.71 10.63
1/2/2022 1:15:00 AM 8.24 46.832 0.15 7.49 32.84 10.66
1/2/2022 1:30:00 AM 8.22 46.796 0.151 7.49 30.68 10.66
1/2/2022 1:45:00 AM 8.21 46.778 0.152 7.5 29.51 10.65
1/2/2022 2:00:00 AM 8.21 46.778 0.155 7.5 28.26 10.65
1/2/2022 2:15:00 AM 8.2 46.76 0.155 7.5 26.21 10.65
1/2/2022 2:30:00 AM 8.17 46.706 0.153 7.5 25.08 10.67
1/2/2022 2:45:00 AM 8.15 46.67 0.152 7.5 24.02 10.7
1/2/2022 3:00:00 AM 8.14 46.652 0.15 7.5 23.09 10.71
1/2/2022 3:15:00 AM 8.13 46.634 0.15 7.5 21.85 10.72
1/2/2022 3:30:00 AM 8.14 46.652 0.15 7.51 20.85 10.72
1/2/2022 3:45:00 AM 8.15 46.67 0.151 7.51 20.07 10.72
1/2/2022 4:00:00 AM 8.16 46.688 0.153 7.52 18.77 10.69
1/2/2022 4:15:00 AM 8.18 46.724 0.154 7.52 18.1 10.68
1/2/2022 4:30:00 AM 8.19 46.742 0.154 7.52 17.78 10.68
1/2/2022 4:45:00 AM 8.18 46.724 0.152 7.52 16.76 10.7
1/2/2022 5:00:00 AM 8.17 46.706 0.151 7.53 15.99 10.72
1/2/2022 5:15:00 AM 8.17 46.706 0.15 7.52 15.44 10.73
1/2/2022 5:30:00 AM 8.18 46.724 0.151 7.52 14.69 10.73
1/2/2022 5:45:00 AM 8.18 46.724 0.151 7.53 14.22 10.73
1/2/2022 6:00:00 AM 8.19 46.742 0.152 7.53 13.76 10.73
1/2/2022 6:15:00 AM 8.2 46.76 0.154 7.53 13.31 10.71
1/2/2022 6:30:00 AM 8.22 46.796 0.156 7.53 12.78 10.7
1/2/2022 6:45:00 AM 8.23 46.814 0.155 7.55 12.23 10.71
1/2/2022 7:00:00 AM 8.24 46.832 0.153 7.55 11.8 10.73
1/2/2022 7:15:00 AM 8.24 46.832 0.152 7.54 11.77 10.74
1/2/2022 7:30:00 AM 8.25 46.85 0.151 7.55 11.45 10.75
1/2/2022 7:45:00 AM 8.25 46.85 0.152 7.55 11.26 10.75
1/2/2022 8:00:00 AM 8.26 46.868 0.152 7.56 10.71 10.75
1/2/2022 8:15:00 AM 8.26 46.868 0.153 7.56 10.87 10.76
1/2/2022 8:30:00 AM 8.25 46.85 0.153 7.55 10.97 10.76
1/2/2022 8:45:00 AM 8.26 46.868 0.156 7.56 10.28 10.76
1/2/2022 9:00:00 AM 8.27 46.886 0.158 7.56 9.92 10.76
1/2/2022 9:15:00 AM 8.27 46.886 0.159 7.58 9.92 10.77
1/2/2022 9:30:00 AM 8.27 46.886 0.157 7.58 9.39 10.8
1/2/2022 9:45:00 AM 8.27 46.886 0.155 7.58 9.02 10.83
1/2/2022 10:00:00 AM 8.27 46.886 0.154 7.59 8.93 10.85
1/2/2022 10:15:00 AM 8.27 46.886 0.154 7.59 9.26 10.87
1/2/2022 10:30:00 AM 8.27 46.886 0.154 7.6 9.14 10.87
1/2/2022 10:45:00 AM 8.28 46.904 0.154 7.6 8.77 10.88
1/2/2022 11:00:00 AM 8.29 46.922 0.155 7.62 8.45 10.92
1/2/2022 11:15:00 AM 8.31 46.958 0.156 7.62 8.38 10.93
1/2/2022 11:30:00 AM 8.32 46.976 0.158 7.63 8.2 10.93
1/2/2022 11:45:00 AM 8.34 47.012 0.16 7.63 7.95 10.92
1/2/2022 12:00:00 PM 8.35 47.03 0.159 7.64 8.09 10.94
1/2/2022 12:15:00 PM 8.35 47.03 0.157 7.63 10.71 10.95
1/2/2022 12:30:00 PM 8.35 47.03 0.156 7.64 7.82 10.98
1/2/2022 12:45:00 PM 8.36 47.048 0.155 7.65 7.73 10.99
1/2/2022 1:00:00 PM 8.36 47.048 0.154 7.66 7.25 11.01
1/2/2022 1:15:00 PM 8.37 47.066 0.155 7.66 7.28 11.03
1/2/2022 1:30:00 PM 8.39 47.102 0.154 7.67 7.13 11.07
1/2/2022 1:45:00 PM 8.4 47.12 0.154 7.68 7.09 11.11
1/2/2022 2:00:00 PM 8.4 47.12 0.154 7.67 7.62 11.09
1/2/2022 2:15:00 PM 8.39 47.102 0.155 7.67 7.02 11.06
1/2/2022 2:30:00 PM 8.38 47.084 0.155 7.66 7.15 11.04
1/2/2022 2:45:00 PM 8.36 47.048 0.156 7.67 6.98 11.03
1/2/2022 3:00:00 PM 8.35 47.03 0.157 7.66 6.91 11.01
1/2/2022 3:15:00 PM 8.35 47.03 0.16 7.66 7.37 10.98
1/2/2022 3:30:00 PM 8.34 47.012 0.161 7.65 7.19 10.97
1/2/2022 3:45:00 PM 8.32 46.976 0.16 7.66 6.83 10.97
1/2/2022 4:00:00 PM 8.3 46.94 0.159 7.65 7.18 10.97
1/2/2022 4:15:00 PM 8.28 46.904 0.157 7.65 7.03 10.97
1/2/2022 4:30:00 PM 8.24 46.832 0.157 7.64 7.5 10.98
1/2/2022 4:45:00 PM 8.2 46.76 0.158 7.65 6.68 10.96
1/2/2022 5:00:00 PM 8.17 46.706 0.161 7.64 6.74 10.94
1/2/2022 5:15:00 PM 8.14 46.652 0.161 7.63 6.89 10.94
1/2/2022 5:30:00 PM 8.09 46.562 0.16 7.63 6.71 10.95
1/2/2022 5:45:00 PM 8.03 46.454 0.158 7.62 6.65 10.97
1/2/2022 6:00:00 PM 7.97 46.346 0.156 7.62 6.92 10.99
1/2/2022 6:15:00 PM 7.91 46.238 0.155 7.61 6.94 11.01
1/2/2022 6:30:00 PM 7.86 46.148 0.154 7.61 7.15 11.02
1/2/2022 6:45:00 PM 7.8 46.04 0.154 7.6 6.93 11.04
1/2/2022 7:00:00 PM 7.75 45.95 0.153 7.6 7.21 11.05
1/2/2022 7:15:00 PM 7.68 45.824 0.152 7.6 7.45 11.07
1/2/2022 7:30:00 PM 7.62 45.716 0.151 7.6 8.38 11.09
1/2/2022 7:45:00 PM 7.56 45.608 0.151 7.6 7.77 11.1
1/2/2022 8:00:00 PM 7.5 45.5 0.151 7.59 7.76 11.12
1/2/2022 8:15:00 PM 7.44 45.392 0.151 7.61 7.41 11.14
1/2/2022 8:30:00 PM 7.37 45.266 0.151 7.6 7.71 11.16
1/2/2022 8:45:00 PM 7.31 45.158 0.153 7.6 7.11 11.17
1/2/2022 9:00:00 PM 7.26 45.068 0.155 7.6 6.74 11.18
1/2/2022 9:15:00 PM 7.2 44.96 0.156 7.6 6.8 11.19
1/2/2022 9:30:00 PM 7.14 44.852 0.156 7.6 6.96 11.22
1/2/2022 9:45:00 PM 7.09 44.762 0.154 7.6 7.07 11.24
1/2/2022 10:00:00 PM 7.03 44.654 0.153 7.61 6.36 11.26
1/2/2022 10:15:00 PM 6.97 44.546 0.152 7.6 6.49 11.29
1/2/2022 10:30:00 PM 6.91 44.438 0.151 7.59 6.43 11.31
1/2/2022 10:45:00 PM 6.86 44.348 0.152 7.61 6.84 11.33
1/2/2022 11:00:00 PM 6.8 44.24 0.152 7.59 6.23 11.35
1/2/2022 11:15:00 PM 6.75 44.15 0.151 7.6 6.52 11.36
1/2/2022 11:30:00 PM 6.7 44.06 0.152 7.6 6.27 11.38
1/2/2022 11:45:00 PM 6.66 43.988 0.153 7.59 6.37 11.39
1/3/2022 12:00:00 AM 6.64 43.952 0.156 7.61 6.12 11.39
1/3/2022 12:15:00 AM 6.61 43.898 0.156 7.6 6.44 11.4
1/3/2022 12:30:00 AM 6.56 43.808 0.155 7.58 6.43 11.42
1/3/2022 12:45:00 AM 6.49 43.682 0.153 7.58 5.85 11.45
1/3/2022 1:00:00 AM 6.43 43.574 0.152 7.57 5.99 11.48
1/3/2022 1:15:00 AM 6.38 43.484 0.151 7.58 6.32 11.5
1/3/2022 1:30:00 AM 6.32 43.376 0.151 7.58 6.05 11.51
1/3/2022 1:45:00 AM 6.28 43.304 0.151 7.59 5.95 11.53
1/3/2022 2:00:00 AM 6.23 43.214 0.151 7.58 5.88 11.55
1/3/2022 2:15:00 AM 6.19 43.142 0.151 7.58 5.73 11.57
1/3/2022 2:30:00 AM 6.15 43.07 0.153 7.56 5.97 11.57
1/3/2022 2:45:00 AM 6.13 43.034 0.155 7.58 5.98 11.57
1/3/2022 3:00:00 AM 6.09 42.962 0.155 7.58 5.64 11.58
1/3/2022 3:15:00 AM 6.05 42.89 0.154 7.58 5.58 11.6
1/3/2022 3:30:00 AM 6 42.8 0.153 7.57 5.56 11.62
1/3/2022 3:45:00 AM 5.94 42.692 0.151 7.57 5.62 11.65
1/3/2022 4:00:00 AM 5.89 42.602 0.151 7.56 5.47 11.67
1/3/2022 4:15:00 AM 5.84 42.512 0.15 7.57 5.47 11.68
1/3/2022 4:30:00 AM 5.79 42.422 0.15 7.57 5.47 11.7
1/3/2022 4:45:00 AM 5.73 42.314 0.15 7.57 5.46 11.72
1/3/2022 5:00:00 AM 5.68 42.224 0.15 7.55 5.64 11.74
1/3/2022 5:15:00 AM 5.64 42.152 0.152 7.56 5.39 11.74
1/3/2022 5:30:00 AM 5.6 42.08 0.154 7.56 5.65 11.74
1/3/2022 5:45:00 AM 5.57 42.026 0.154 7.58 5.22 11.75
1/3/2022 6:00:00 AM 5.52 41.936 0.149 7.56 5.22 11.77
1/3/2022 6:15:00 AM 5.47 41.846 0.151 7.57 5.21 11.8
1/3/2022 6:30:00 AM 5.41 41.738 0.15 7.56 5.02 11.82
1/3/2022 6:45:00 AM 5.36 41.648 0.15 7.56 5.04 11.84
1/3/2022 7:00:00 AM 5.32 41.576 0.15 7.56 5.02 11.85
1/3/2022 7:15:00 AM 5.27 41.486 0.15 7.56 5.11 11.87
1/3/2022 7:30:00 AM 5.23 41.414 0.149 7.56 4.94 11.88
1/3/2022 7:45:00 AM 5.19 41.342 0.15 7.56 5.29 11.9
1/3/2022 8:00:00 AM 5.16 41.288 0.151 7.56 5.26 11.91
1/3/2022 8:15:00 AM 5.13 41.234 0.152 7.57 5.04 11.92
1/3/2022 8:30:00 AM 5.11 41.198 0.153 7.57 4.95 11.94
1/3/2022 8:45:00 AM 5.07 41.126 0.151 7.57 5.94 11.98
1/3/2022 9:00:00 AM 5.03 41.054 0.15 7.58 4.67 12.02
1/3/2022 9:15:00 AM 4.99 40.982 0.149 7.58 4.67 12.07
1/3/2022 9:30:00 AM 4.96 40.928 0.148 7.57 4.48 12.12
1/3/2022 9:45:00 AM 4.94 40.892 0.148 7.61 4.9 12.18
1/3/2022 10:00:00 AM 4.92 40.856 0.148 7.62 4.89 12.24
1/3/2022 10:15:00 AM 4.91 40.838 0.148 7.63 4.81 12.3
1/3/2022 10:30:00 AM 4.9 40.82 0.148 7.65 4.75 12.36
1/3/2022 10:45:00 AM 4.91 40.838 0.15 7.66 4.72 12.41
1/3/2022 11:00:00 AM 4.92 40.856 0.151 7.68 4.37 12.46
1/3/2022 11:15:00 AM 4.93 40.874 0.151 7.7 4.37 12.5
1/3/2022 11:30:00 AM 4.93 40.874 0.15 7.7 4.28 12.55
1/3/2022 11:45:00 AM 4.92 40.856 0.149 7.72 4.3 12.59
1/3/2022 12:00:00 PM 4.92 40.856 0.148 7.72 4.23 12.64
1/3/2022 12:15:00 PM 4.93 40.874 0.147 7.74 4.26 12.67
1/3/2022 12:30:00 PM 4.94 40.892 0.147 7.74 4.43 12.69
1/3/2022 12:45:00 PM 4.94 40.892 0.148 7.76 4.29 12.71
1/3/2022 1:00:00 PM 4.95 40.91 0.148 7.76 4.29 12.71
1/3/2022 1:15:00 PM 4.97 40.946 0.149 7.77 4.29 12.72
1/3/2022 1:30:00 PM 5.01 41.018 0.151 7.77 4.25 12.71
1/3/2022 1:45:00 PM 5.05 41.09 0.153 7.79 4.06 12.7
1/3/2022 2:00:00 PM 5.08 41.144 0.153 7.79 4.25 12.7
1/3/2022 2:15:00 PM 5.07 41.126 0.151 7.78 4.22 12.69
1/3/2022 2:30:00 PM 5.07 41.126 0.15 7.78 4.33 12.69
1/3/2022 2:45:00 PM 5.06 41.108 0.149 7.78 4.35 12.67
1/3/2022 3:00:00 PM 5.04 41.072 0.149 7.76 4.39 12.65
1/3/2022 3:15:00 PM 5.01 41.018 0.149 7.78 4.18 12.63
1/3/2022 3:30:00 PM 4.97 40.946 0.149 7.75 4.23 12.62
1/3/2022 3:45:00 PM 4.92 40.856 0.149 7.74 4.25 12.59
1/3/2022 4:00:00 PM 4.89 40.802 0.15 7.73 4.21 12.57
1/3/2022 4:15:00 PM 4.86 40.748 0.152 7.73 4.95 12.53
1/3/2022 4:30:00 PM 4.83 40.694 0.154 7.65 4.35 12.49
1/3/2022 4:45:00 PM 4.8 40.64 0.154 7.71 4.23 12.45
1/3/2022 5:00:00 PM 4.76 40.568 0.153 7.69 4.19 12.43
1/3/2022 5:15:00 PM 4.71 40.478 0.151 7.67 4.45 12.4
1/3/2022 5:30:00 PM 4.66 40.388 0.15 7.66 4.16 12.37
1/3/2022 5:45:00 PM 4.62 40.316 0.15 7.65 4.17 12.36
1/3/2022 6:00:00 PM 4.57 40.226 0.15 7.63 4.24 12.34
1/3/2022 6:15:00 PM 4.52 40.136 0.15 7.62 4.3 12.33
1/3/2022 6:30:00 PM 4.47 40.046 0.15 7.62 4.39 12.32
1/3/2022 6:45:00 PM 4.42 39.956 0.151 7.61 4.58 12.32
1/3/2022 7:00:00 PM 4.39 39.902 0.153 7.6 5.21 12.3
1/3/2022 7:15:00 PM 4.37 39.866 0.155 7.6 4.09 12.29
1/3/2022 7:30:00 PM 4.33 39.794 0.155 7.59 4.14 12.29
1/3/2022 7:45:00 PM 4.28 39.704 0.153 7.59 4.27 12.31
1/3/2022 8:00:00 PM 4.23 39.614 0.152 7.58 8.17 12.33
1/3/2022 8:15:00 PM 4.17 39.506 0.151 7.58 4.35 12.34
1/3/2022 8:30:00 PM 4.11 39.398 0.151 7.57 4.24 12.36
1/3/2022 8:45:00 PM 4.06 39.308 0.151 7.57 4.33 12.37
1/3/2022 9:00:00 PM 4.01 39.218 0.151 7.56 4.15 12.39
1/3/2022 9:15:00 PM 3.96 39.128 0.151 7.57 4.7 12.39
1/3/2022 9:30:00 PM 3.92 39.056 0.152 7.56 5.21 12.4
1/3/2022 9:45:00 PM 3.88 38.984 0.154 7.56 4.29 12.41
1/3/2022 10:00:00 PM 3.85 38.93 0.155 7.55 16.42 12.41
1/3/2022 10:15:00 PM 3.81 38.858 0.155 7.56 4.47 12.43
1/3/2022 10:30:00 PM 3.76 38.768 0.154 7.56 4.31 12.45
1/3/2022 10:45:00 PM 3.71 38.678 0.153 7.55 4.59 12.48
1/3/2022 11:00:00 PM 3.68 38.624 0.152 7.55 4.14 12.49
1/3/2022 11:15:00 PM 3.65 38.57 0.152 7.56 4.24 12.51
1/3/2022 11:30:00 PM 3.61 38.498 0.152 7.55 4.28 12.52
1/3/2022 11:45:00 PM 3.58 38.444 0.152 7.55 4.29 12.54
1/4/2022 12:00:00 AM 3.56 38.408 0.152 7.54 4.23 12.55
1/4/2022 12:15:00 AM 3.55 38.39 0.153 7.55 4.44 12.55
1/4/2022 12:30:00 AM 3.54 38.372 0.156 7.54 4.31 12.55
1/4/2022 12:45:00 AM 3.54 38.372 0.157 7.55 4.18 12.54
1/4/2022 1:00:00 AM 3.53 38.354 0.156 7.55 4.42 12.55
1/4/2022 1:15:00 AM 3.51 38.318 0.155 7.55 4.28 12.57
1/4/2022 1:30:00 AM 3.48 38.264 0.154 7.53 4.04 12.58
1/4/2022 1:45:00 AM 3.45 38.21 0.153 7.55 4.24 12.6
1/4/2022 2:00:00 AM 3.43 38.174 0.154 7.55 4.5 12.61
1/4/2022 2:15:00 AM 3.41 38.138 0.153 7.55 4.53 12.62
1/4/2022 2:30:00 AM 3.39 38.102 0.154 7.54 4.33 12.63
1/4/2022 2:45:00 AM 3.37 38.066 0.154 7.54 4.48 12.63
1/4/2022 3:00:00 AM 3.35 38.03 0.156 7.54 4.24 12.63
1/4/2022 3:15:00 AM 3.35 38.03 0.158 7.55 4.39 12.62
1/4/2022 3:30:00 AM 3.34 38.012 0.159 7.54 4.15 12.62
1/4/2022 3:45:00 AM 3.32 37.976 0.158 7.55 4.07 12.64
1/4/2022 4:00:00 AM 3.29 37.922 0.157 7.54 4.06 12.65
1/4/2022 4:15:00 AM 3.26 37.868 0.156 7.53 4.54 12.66
1/4/2022 4:30:00 AM 3.22 37.796 0.155 7.54 4.17 12.67
1/4/2022 4:45:00 AM 3.19 37.742 0.155 7.54 4.05 12.69
1/4/2022 5:00:00 AM 3.17 37.706 0.155 7.54 4.5 12.7
1/4/2022 5:15:00 AM 3.15 37.67 0.154 7.54 4.08 12.71
1/4/2022 5:30:00 AM 3.13 37.634 0.154 7.53 3.95 12.71
1/4/2022 5:45:00 AM 3.12 37.616 0.155 7.54 3.97 12.7
1/4/2022 6:00:00 AM 3.12 37.616 0.157 7.54 3.81 12.7
1/4/2022 6:15:00 AM 3.12 37.616 0.158 7.54 3.88 12.7
1/4/2022 6:30:00 AM 3.11 37.598 0.157 7.54 3.94 12.71
1/4/2022 6:45:00 AM 3.08 37.544 0.156 7.54 3.87 12.72
1/4/2022 7:00:00 AM 3.05 37.49 0.155 7.53 4.3 12.73
1/4/2022 7:15:00 AM 3.02 37.436 0.154 7.53 4.13 12.75
1/4/2022 7:30:00 AM 2.99 37.382 0.154 7.53 4.59 12.76
1/4/2022 7:45:00 AM 2.97 37.346 0.154 7.53 3.79 12.78
1/4/2022 8:00:00 AM 2.95 37.31 0.153 7.53 3.88 12.8
1/4/2022 8:15:00 AM 2.94 37.292 0.153 7.53 3.8 12.83
1/4/2022 8:30:00 AM 2.94 37.292 0.154 7.54 3.92 12.85